Provisional Data: South Branch Codorus Creek near Leader Heights, PA


Please select a monitoring station.
Please select start date.
Please select start date.

Toggle Unit: C/F Toggle Unit: C/F
Sample Time Temperature (C) Temperature (F) Specific Conductivity (mS/cm) pH   Turbidity (NTU+) DO (mg/L)
10/17/2022 12:00:00 AM 14.21 57.578 0.252 7.28 43.98 9.37
10/17/2022 12:15:00 AM 14.21 57.578 0.252 7.29 46.42 9.36
10/17/2022 12:30:00 AM 14.21 57.578 0.252 7.28 47.78 9.36
10/17/2022 12:45:00 AM 14.2 57.56 0.251 7.27 45.02 9.33
10/17/2022 1:00:00 AM 14.19 57.542 0.251 7.27 41.06 9.33
10/17/2022 1:15:00 AM 14.22 57.596 0.25 7.27 41.69 9.31
10/17/2022 1:30:00 AM 14.22 57.596 0.25 7.26 45.32 9.3
10/17/2022 1:45:00 AM 14.21 57.578 0.25 7.26 43.02 9.3
10/17/2022 2:00:00 AM 14.22 57.596 0.251 7.26 42.22 9.3
10/17/2022 2:15:00 AM 14.21 57.578 0.252 7.26 41.83 9.3
10/17/2022 2:30:00 AM 14.19 57.542 0.252 7.27 42.33 9.31
10/17/2022 2:45:00 AM 14.19 57.542 0.252 7.26 41.03 9.3
10/17/2022 3:00:00 AM 14.18 57.524 0.252 7.26 70.25 9.3
10/17/2022 3:15:00 AM 14.17 57.506 0.251 7.27 45.21 9.3
10/17/2022 3:30:00 AM 14.16 57.488 0.251 7.27 45.27 9.3
10/17/2022 3:45:00 AM 14.12 57.416 0.251 7.28 50.25 9.3
10/17/2022 4:00:00 AM 14.11 57.398 0.25 7.28 43.56 9.3
10/17/2022 4:15:00 AM 14.08 57.344 0.25 7.28 36.98 9.31
10/17/2022 4:30:00 AM 14 57.2 0.252 7.27 38.16 9.3
10/17/2022 4:45:00 AM 13.97 57.146 0.252 7.27 52.58 9.31
10/17/2022 5:00:00 AM 13.93 57.074 0.252 7.28 52.31 9.32
10/17/2022 5:15:00 AM 13.88 56.984 0.252 7.28 43.62 9.31
10/17/2022 5:30:00 AM 13.83 56.894 0.252 7.27 42.87 9.33
10/17/2022 5:45:00 AM 13.81 56.858 0.252 7.27 42.99 9.33
10/17/2022 6:00:00 AM 13.77 56.786 0.251 7.26 53.74 9.34
10/17/2022 6:15:00 AM 13.75 56.75 0.251 7.27 43.9 9.34
10/17/2022 6:30:00 AM 13.74 56.732 0.25 7.27 34.78 9.33
10/17/2022 6:45:00 AM 13.72 56.696 0.251 7.28 46.62 9.36
10/17/2022 7:00:00 AM 13.68 56.624 0.252 7.27 38.48 9.36
10/17/2022 7:15:00 AM 13.67 56.606 0.252 7.27 34 9.35
10/17/2022 7:30:00 AM 13.66 56.588 0.252 7.26 37.92 9.37
10/17/2022 7:45:00 AM 13.64 56.552 0.252 7.26 37.25 9.37
10/17/2022 8:00:00 AM 13.64 56.552 0.251 7.26 34.49 9.38
10/17/2022 8:15:00 AM 13.63 56.534 0.251 7.26 30.39 9.4
10/17/2022 8:30:00 AM 13.66 56.588 0.25 7.27 46.47 9.44
10/17/2022 8:45:00 AM 13.66 56.588 0.25 7.27 38.97 9.49
10/17/2022 9:00:00 AM 13.7 56.66 0.25 7.27 43.74 9.56
10/17/2022 9:15:00 AM 13.74 56.732 0.251 7.27 36.22 9.64
10/17/2022 9:30:00 AM 13.8 56.84 0.252 7.28 40.41 9.72
10/17/2022 9:45:00 AM 13.84 56.912 0.251 7.29 37.13 9.8
10/17/2022 10:00:00 AM 13.97 57.146 0.25 7.3 43.53 9.89
10/17/2022 10:15:00 AM 14.08 57.344 0.249 7.32 41.68 9.95
10/17/2022 10:30:00 AM 14.23 57.614 0.248 7.33 49.52 10.02
10/17/2022 10:45:00 AM 14.4 57.92 0.247 7.35 43.82 10.06
10/17/2022 11:00:00 AM 14.52 58.136 0.247 7.36 52.53 10.1
10/17/2022 11:15:00 AM 14.64 58.352 0.246 7.38 54.7 10.1
10/17/2022 11:30:00 AM 14.78 58.604 0.247 7.39 72.65 10.13
10/17/2022 11:45:00 AM 14.87 58.766 0.247 7.4 48.29 10.14
10/17/2022 12:00:00 PM 14.97 58.946 0.247 7.41 42.23 10.14
10/17/2022 12:15:00 PM 15.11 59.198 0.247 7.44 53.89 10.18
10/17/2022 12:30:00 PM 15.24 59.432 0.246 7.45 49.09 10.18
10/17/2022 12:45:00 PM 15.31 59.558 0.246 7.46 51.6 10.18
10/17/2022 1:00:00 PM 15.4 59.72 0.246 7.48 64.16 10.2
10/17/2022 1:15:00 PM 15.48 59.864 0.245 7.49 43.43 10.21
10/17/2022 1:30:00 PM 15.5 59.9 0.245 7.5 44.47 10.23
10/17/2022 1:45:00 PM 15.5 59.9 0.246 7.5 38.81 10.18
10/17/2022 2:00:00 PM 15.55 59.99 0.246 7.51 28.29 10.18
10/17/2022 2:15:00 PM 15.52 59.936 0.247 7.52 32.35 10.2
10/17/2022 2:30:00 PM 15.52 59.936 0.247 7.53 30.47 10.17
10/17/2022 2:45:00 PM 15.53 59.954 0.247 7.53 27.64 10.15
10/17/2022 3:00:00 PM 15.48 59.864 0.247 7.54 22.36 10.12
10/17/2022 3:15:00 PM 15.44 59.792 0.246 7.54 24.92 10.09
10/17/2022 3:30:00 PM 15.43 59.774 0.246 7.54 21.06 10.04
10/17/2022 3:45:00 PM 15.37 59.666 0.245 7.54 30.85 10
10/17/2022 4:00:00 PM 15.28 59.504 0.246 7.53 22.03 9.94
10/17/2022 4:15:00 PM 15.26 59.468 0.246 7.52 23.42 9.92
10/17/2022 4:30:00 PM 15.2 59.36 0.247 7.52 25.98 9.89
10/17/2022 4:45:00 PM 15.14 59.252 0.247 7.51 29.74 9.9
10/17/2022 5:00:00 PM 15.11 59.198 0.247 7.51 29.09 9.88
10/17/2022 5:15:00 PM 15.07 59.126 0.246 7.5 28.24 9.85
10/17/2022 5:30:00 PM 14.99 58.982 0.246 7.49 24.55 9.81
10/17/2022 5:45:00 PM 14.93 58.874 0.246 7.48 30.19 9.78
10/17/2022 6:00:00 PM 14.89 58.802 0.246 7.47 23.08 9.73
10/17/2022 6:15:00 PM 14.83 58.694 0.246 7.46 28.45 9.68
10/17/2022 6:30:00 PM 14.81 58.658 0.245 7.45 25.58 9.64
10/17/2022 6:45:00 PM 14.74 58.532 0.246 7.44 27.91 9.58
10/17/2022 7:00:00 PM 14.65 58.37 0.247 7.42 33.58 9.55
10/17/2022 7:15:00 PM 14.56 58.208 0.247 7.41 25.49 9.5
10/17/2022 7:30:00 PM 14.5 58.1 0.247 7.41 26.85 9.48
10/17/2022 7:45:00 PM 14.41 57.938 0.247 7.4 26.26 9.47
10/17/2022 8:00:00 PM 14.37 57.866 0.247 7.39 29.59 9.45
10/17/2022 8:15:00 PM 14.28 57.704 0.246 7.37 42.97 9.43
10/17/2022 8:30:00 PM 14.22 57.596 0.23 7.37 49.95 9.43
10/17/2022 8:45:00 PM 14.16 57.488 0.244 7.35 36.61 9.43
10/17/2022 9:00:00 PM 14.07 57.326 0.246 7.34 35.67 9.43
10/17/2022 9:15:00 PM 14.02 57.236 0.245 7.33 41.13 9.42
10/17/2022 9:30:00 PM 13.96 57.128 0.233 7.33 38.46 9.42
10/17/2022 9:45:00 PM 13.92 57.056 0.237 7.32 58.29 9.43
10/17/2022 10:00:00 PM 13.9 57.02 0.247 7.31 41.36 9.43
10/17/2022 10:15:00 PM 13.85 56.93 0.243 7.31 106.8 9.43
10/17/2022 10:30:00 PM 13.82 56.876 0.246 7.31 39.43 9.44
10/17/2022 10:45:00 PM 13.82 56.876 0.239 7.31 57.02 9.44
10/17/2022 11:00:00 PM 13.78 56.804 0.246 7.31 184.6 9.43
10/17/2022 11:15:00 PM 13.77 56.786 0.246 7.32 36.17 9.43
10/17/2022 11:30:00 PM 13.73 56.714 0.246 7.3 44.45 9.44
10/17/2022 11:45:00 PM 13.66 56.588 0.247 7.3 34.27 9.44
10/18/2022 12:00:00 AM 13.67 56.606 0.247 7.31 30.14 9.44
10/18/2022 12:15:00 AM 13.65 56.57 0.244 7.31 30.89 9.45
10/18/2022 12:30:00 AM 13.57 56.426 0.24 7.3 36.47 9.46
10/18/2022 12:45:00 AM 13.54 56.372 0.243 7.3 34.56 9.47
10/18/2022 1:00:00 AM 13.47 56.246 0.247 7.3 32.46 9.48
10/18/2022 1:15:00 AM 13.41 56.138 0.246 7.29 34.88 9.48
10/18/2022 1:30:00 AM 13.38 56.084 0.246 7.29 29.93 9.5
10/18/2022 1:45:00 AM 13.34 56.012 0.245 7.29 37.18 9.51
10/18/2022 2:00:00 AM 13.29 55.922 0.246 7.29 33.82 9.52
10/18/2022 2:15:00 AM 13.24 55.832 0.248 7.28 35.14 9.52
10/18/2022 2:30:00 AM 13.22 55.796 0.248 7.29 32.8 9.54
10/18/2022 2:45:00 AM 13.2 55.76 0.245 7.29 35.15 9.55
10/18/2022 3:00:00 AM 13.18 55.724 0.238 7.29 37.66 9.55
10/18/2022 3:15:00 AM 13.15 55.67 0.248 7.29 32.02 9.56
10/18/2022 3:30:00 AM 13.15 55.67 0.243 7.3 28.33 9.55
10/18/2022 3:45:00 AM 13.12 55.616 0.247 7.3 29.15 9.56
10/18/2022 4:00:00 AM 13.1 55.58 0.247 7.29 30.25 9.56
10/18/2022 4:15:00 AM 13.06 55.508 0.247 7.3 35.91 9.58
10/18/2022 4:30:00 AM 13.02 55.436 0.248 7.3 35.87 9.58
10/18/2022 4:45:00 AM 12.96 55.328 0.249 7.3 31.86 9.58
10/18/2022 5:00:00 AM 12.92 55.256 0.249 7.3 31.64 9.59
10/18/2022 5:15:00 AM 12.86 55.148 0.249 7.29 37.21 9.59
10/18/2022 5:30:00 AM 12.81 55.058 0.249 7.28 33.51 9.6
10/18/2022 5:45:00 AM 12.74 54.932 0.249 7.27 31.05 9.61
10/18/2022 6:00:00 AM 12.69 54.842 0.249 7.27 34.38 9.6
10/18/2022 6:15:00 AM 12.62 54.716 0.248 7.27 29.88 9.63
10/18/2022 6:30:00 AM 12.62 54.716 0.249 7.26 32.2 9.65
10/18/2022 6:45:00 AM 12.55 54.59 0.248 7.26 33.74 9.66
10/18/2022 7:00:00 AM 12.51 54.518 0.25 7.26 27.07 9.67
10/18/2022 7:15:00 AM 12.45 54.41 0.246 7.26 31.23 9.69
10/18/2022 7:30:00 AM 12.42 54.356 0.247 7.26 28.46 9.71
10/18/2022 7:45:00 AM 12.42 54.356 0.25 7.26 30.22 9.71
10/18/2022 8:00:00 AM 12.39 54.302 0.25 7.26 29.02 9.74
10/18/2022 8:15:00 AM 12.37 54.266 0.249 7.28 27.84 9.79
10/18/2022 8:30:00 AM 12.36 54.248 0.249 7.28 28.28 9.81
10/18/2022 8:45:00 AM 12.35 54.23 0.249 7.29 23.5 9.86
10/18/2022 9:00:00 AM 12.41 54.338 0.248 7.3 21.74 9.92
10/18/2022 9:15:00 AM 12.44 54.392 0.249 7.31 23.57 9.97
10/18/2022 9:30:00 AM 12.46 54.428 0.25 7.32 24.18 10.03
10/18/2022 9:45:00 AM 12.52 54.536 0.25 7.33 17.33 10.07
10/18/2022 10:00:00 AM 12.61 54.698 0.249 7.34 22.61 10.14
10/18/2022 10:15:00 AM 12.68 54.824 0.249 7.35 21.98 10.17
10/18/2022 10:30:00 AM 12.74 54.932 0.248 7.36 22.37 10.23
10/18/2022 10:45:00 AM 12.81 55.058 0.249 7.37 20.18 10.27
10/18/2022 11:00:00 AM 12.98 55.364 0.248 7.37 25 10.3
10/18/2022 11:15:00 AM 13.07 55.526 0.244 7.38 25.3 10.33
10/18/2022 11:30:00 AM 13.2 55.76 0.247 7.4 19.79 10.35
10/18/2022 11:45:00 AM 13.34 56.012 0.25 7.4 19.71 10.39
10/18/2022 12:00:00 PM 13.42 56.156 0.25 7.42 21.28 10.42
10/18/2022 12:15:00 PM 13.58 56.444 0.25 7.42 22.05 10.41
10/18/2022 12:30:00 PM 13.72 56.696 0.248 7.44 22.65 10.41
10/18/2022 12:45:00 PM 13.85 56.93 0.248 7.44 20.92 10.43
10/18/2022 1:00:00 PM 14 57.2 0.239 7.45 21.66 10.44
10/18/2022 1:15:00 PM 14.07 57.326 0.249 7.45 18.72 10.42
10/18/2022 1:30:00 PM 14.18 57.524 0.248 7.45 23.2 10.42
10/18/2022 1:45:00 PM 14.2 57.56 0.247 7.45 21.02 10.43
10/18/2022 2:00:00 PM 14.23 57.614 0.248 7.45 23.41 10.41
10/18/2022 2:15:00 PM 14.25 57.65 0.248 7.46 21.04 10.43
10/18/2022 2:30:00 PM 14.25 57.65 0.249 7.46 15.2 10.42
10/18/2022 2:45:00 PM 14.24 57.632 0.248 7.47 17.5 10.4
10/18/2022 3:00:00 PM 14.23 57.614 0.249 7.49 24.84 10.38
10/18/2022 3:15:00 PM 14.08 57.344 0.248 7.48 16 10.36
10/18/2022 3:30:00 PM 13.99 57.182 0.24 7.49 20.58 10.37
10/18/2022 3:45:00 PM 13.93 57.074 0.24 7.49 19.07 10.36
10/18/2022 4:00:00 PM 13.86 56.948 0.241 7.49 17.95 10.35
10/18/2022 4:15:00 PM 13.89 57.002 0.232 7.49 19.45 10.36
10/18/2022 4:30:00 PM 13.81 56.858 0.231 7.48 17.56 10.37
10/18/2022 4:45:00 PM 13.71 56.678 0.229 7.48 17.37 10.33
10/18/2022 5:00:00 PM 13.72 56.696 0.25 7.47 20.43 10.29
10/18/2022 5:15:00 PM 13.62 56.516 0.25 7.47 19.8 10.27
10/18/2022 5:30:00 PM 13.58 56.444 0.23 7.47 16.75 10.22
10/18/2022 5:45:00 PM 13.54 56.372 0.242 7.46 18.69 10.16
10/18/2022 6:00:00 PM 13.53 56.354 0.244 7.47 18.01 10.11
10/18/2022 6:15:00 PM 13.45 56.21 0.249 7.46 19.05 10.08
10/18/2022 6:30:00 PM 13.38 56.084 0.238 7.45 22.94 10.03
10/18/2022 6:45:00 PM 13.29 55.922 0.249 7.44 23.5 10
10/18/2022 7:00:00 PM 13.27 55.886 0.25 7.44 21.35 9.94
10/18/2022 7:15:00 PM 13.15 55.67 0.251 7.43 20.75 9.94
10/18/2022 7:30:00 PM 13.05 55.49 0.231 7.43 22.82 9.91
10/18/2022 7:45:00 PM 12.96 55.328 0.25 7.4 27.55 9.9
10/18/2022 8:00:00 PM 12.98 55.364 0.249 7.4 23.88 9.87
10/18/2022 8:15:00 PM 12.91 55.238 0.249 7.39 25.51 9.87
10/18/2022 8:30:00 PM 12.84 55.112 0.249 7.38 24.8 9.86
10/18/2022 8:45:00 PM 12.79 55.022 0.249 7.39 32.68 9.86
10/18/2022 9:00:00 PM 12.75 54.95 0.249 7.37 34.01 9.88
10/18/2022 9:15:00 PM 12.69 54.842 0.25 7.36 30.41 9.88
10/18/2022 9:30:00 PM 12.67 54.806 0.25 7.36 33.01 9.88
10/18/2022 9:45:00 PM 12.59 54.662 0.251 7.36 28.43 9.89
10/18/2022 10:00:00 PM 12.54 54.572 0.249 7.36 31.14 9.89
10/18/2022 10:15:00 PM 12.49 54.482 0.248 7.36 31.52 9.88
10/18/2022 10:30:00 PM 12.54 54.572 0.249 7.36 35.86 9.89
10/18/2022 10:45:00 PM 12.52 54.536 0.248 7.35 36.97 9.89
10/18/2022 11:00:00 PM 12.51 54.518 0.244 7.34 34.56 9.86
10/18/2022 11:15:00 PM 12.45 54.41 0.246 7.35 36.5 9.89
10/18/2022 11:30:00 PM 12.48 54.464 0.246 7.36 38.88 9.88
10/18/2022 11:45:00 PM 12.47 54.446 0.248 7.35 37.91 9.87
10/19/2022 12:00:00 AM 12.42 54.356 0.249 7.35 45.5 9.87
10/19/2022 12:15:00 AM 12.28 54.104 0.25 7.36 26.23 9.91
10/19/2022 12:30:00 AM 12.28 54.104 0.25 7.36 38.48 9.9
10/19/2022 12:45:00 AM 12.28 54.104 0.25 7.35 36.53 9.9
10/19/2022 1:00:00 AM 12.22 53.996 0.25 7.34 39.43 9.9
10/19/2022 1:15:00 AM 12.16 53.888 0.25 7.34 37.56 9.92
10/19/2022 1:30:00 AM 12.15 53.87 0.249 7.33 38.32 9.93
10/19/2022 1:45:00 AM 12.19 53.942 0.249 7.34 39.72 9.91
10/19/2022 2:00:00 AM 12.11 53.798 0.25 7.34 38.05 9.93
10/19/2022 2:15:00 AM 12.04 53.672 0.251 7.33 45.34 9.95
10/19/2022 2:30:00 AM 12.02 53.636 0.251 7.34 39.91 9.94
10/19/2022 2:45:00 AM 11.91 53.438 0.252 7.33 37.4 9.97
10/19/2022 3:00:00 AM 11.97 53.546 0.251 7.34 35.99 9.97
10/19/2022 3:15:00 AM 11.93 53.474 0.251 7.34 38.21 9.97
10/19/2022 3:30:00 AM 11.88 53.384 0.25 7.34 35.26 9.97
10/19/2022 3:45:00 AM 11.85 53.33 0.25 7.34 35.04 9.98
10/19/2022 4:00:00 AM 11.83 53.294 0.25 7.34 34.49 10
10/19/2022 4:15:00 AM 11.85 53.33 0.25 7.34 32.43 10
10/19/2022 4:30:00 AM 11.83 53.294 0.251 7.33 33.52 10.01
10/19/2022 4:45:00 AM 11.78 53.204 0.251 7.34 34.25 10.03
10/19/2022 5:00:00 AM 11.78 53.204 0.251 7.34 32.89 10.03
10/19/2022 5:15:00 AM 11.8 53.24 0.251 7.34 33.81 10.03
10/19/2022 5:30:00 AM 11.77 53.186 0.251 7.33 37.69 10.03
10/19/2022 5:45:00 AM 11.8 53.24 0.251 7.33 33.86 10.01
10/19/2022 6:00:00 AM 11.87 53.366 0.25 7.32 32.62 10
10/19/2022 6:15:00 AM 11.8 53.24 0.25 7.32 30.88 10.02
10/19/2022 6:30:00 AM 11.86 53.348 0.249 7.33 33.66 10
10/19/2022 6:45:00 AM 11.88 53.384 0.25 7.32 35.03 10
10/19/2022 7:00:00 AM 11.88 53.384 0.251 7.33 31.59 10
10/19/2022 7:15:00 AM 11.79 53.222 0.252 7.33 48.14 10.02
10/19/2022 7:30:00 AM 11.9 53.42 0.251 7.32 30.5 10.01
10/19/2022 7:45:00 AM 11.86 53.348 0.251 7.33 27.59 10.02
10/19/2022 8:00:00 AM 11.9 53.42 0.25 7.33 29.69 10.04
10/19/2022 8:15:00 AM 11.9 53.42 0.25 7.33 25.78 10.06
10/19/2022 8:30:00 AM 11.95 53.51 0.25 7.34 24.85 10.11
10/19/2022 8:45:00 AM 11.97 53.546 0.25 7.34 24.83 10.13
10/19/2022 9:00:00 AM 12.03 53.654 0.249 7.34 26.2 10.2
10/19/2022 9:15:00 AM 12.01 53.618 0.251 7.34 25.9 10.24
10/19/2022 9:30:00 AM 12.04 53.672 0.251 7.36 28.89 10.32
10/19/2022 9:45:00 AM 12.12 53.816 0.251 7.36 25.72 10.37
10/19/2022 10:00:00 AM 12.2 53.96 0.25 7.37 26.43 10.44
10/19/2022 10:15:00 AM 12.26 54.068 0.25 7.37 24.9 10.49
10/19/2022 10:30:00 AM 12.35 54.23 0.249 7.38 23.66 10.57
10/19/2022 10:45:00 AM 12.38 54.284 0.249 7.39 25.4 10.61
10/19/2022 11:00:00 AM 12.44 54.392 0.249 7.4 23.46 10.63
10/19/2022 11:15:00 AM 12.53 54.554 0.249 7.41 20.78 10.67
10/19/2022 11:30:00 AM 12.65 54.77 0.249 7.42 29.49 10.7
10/19/2022 11:45:00 AM 12.64 54.752 0.25 7.42 21.83 10.75
10/19/2022 12:00:00 PM 12.71 54.878 0.251 7.44 21.17 10.79
10/19/2022 12:15:00 PM 12.62 54.716 0.252 7.45 20.04 10.84
10/19/2022 12:30:00 PM 12.69 54.842 0.252 7.46 19.62 10.86
10/19/2022 12:45:00 PM 12.76 54.968 0.252 7.47 22.43 10.89
10/19/2022 1:00:00 PM 12.92 55.256 0.252 7.47 26.57 10.89
10/19/2022 1:15:00 PM 13.06 55.508 0.252 7.48 19.84 10.91
10/19/2022 1:30:00 PM 13.04 55.472 0.252 7.49 20.45 10.89
10/19/2022 1:45:00 PM 13.04 55.472 0.252 7.5 19.46 10.91
10/19/2022 2:00:00 PM 13.12 55.616 0.251 7.51 20.18 10.86
10/19/2022 2:15:00 PM 13.03 55.454 0.253 7.51 19.51 10.87
10/19/2022 2:30:00 PM 13.03 55.454 0.254 7.52 20.74 10.9
10/19/2022 2:45:00 PM 13.01 55.418 0.254 7.52 20.27 10.88
10/19/2022 3:00:00 PM 12.98 55.364 0.254 7.53 20.98 10.86
10/19/2022 3:15:00 PM 13.01 55.418 0.254 7.53 20.41 10.84
10/19/2022 3:30:00 PM 12.95 55.31 0.253 7.54 19.94 10.8
10/19/2022 3:45:00 PM 13.03 55.454 0.252 7.54 21.42 10.78
10/19/2022 4:00:00 PM 12.89 55.202 0.252 7.54 23.95 10.77
10/19/2022 4:15:00 PM 12.86 55.148 0.252 7.54 27.6 10.77
10/19/2022 4:30:00 PM 12.86 55.148 0.252 7.55 24.25 10.74
10/19/2022 4:45:00 PM 12.81 55.058 0.253 7.55 20.38 10.68
10/19/2022 5:00:00 PM 12.74 54.932 0.254 7.54 18.7 10.67
10/19/2022 5:15:00 PM 12.66 54.788 0.254 7.54 20.73 10.64
10/19/2022 5:30:00 PM 12.62 54.716 0.254 7.53 22.87 10.57
10/19/2022 5:45:00 PM 12.55 54.59 0.253 7.53 21.49 10.52
10/19/2022 6:00:00 PM 12.49 54.482 0.253 7.53 21.8 10.45
10/19/2022 6:15:00 PM 12.45 54.41 0.252 7.52 20.26 10.4
10/19/2022 6:30:00 PM 12.32 54.176 0.253 7.5 21.12 10.35
10/19/2022 6:45:00 PM 12.26 54.068 0.252 7.49 18.16 10.29
10/19/2022 7:00:00 PM 12.15 53.87 0.253 7.48 19.9 10.28
10/19/2022 7:15:00 PM 12.07 53.726 0.248 7.47 18.53 10.24
10/19/2022 7:30:00 PM 12.07 53.726 0.254 7.46 19.91 10.2
10/19/2022 7:45:00 PM 11.95 53.51 0.254 7.44 21.07 10.19
10/19/2022 8:00:00 PM 11.86 53.348 0.255 7.43 20.6 10.17
10/19/2022 8:15:00 PM 11.88 53.384 0.254 7.42 20.55 10.15
10/19/2022 8:30:00 PM 11.76 53.168 0.253 7.41 23.07 10.14
10/19/2022 8:45:00 PM 11.75 53.15 0.253 7.4 24.99 10.15
10/19/2022 9:00:00 PM 11.68 53.024 0.247 7.39 25.67 10.14
10/19/2022 9:15:00 PM 11.71 53.078 0.252 7.39 22.9 10.13
10/19/2022 9:30:00 PM 11.64 52.952 0.254 7.38 24.84 10.13
10/19/2022 9:45:00 PM 11.57 52.826 0.255 7.37 26.12 10.14
10/19/2022 10:00:00 PM 11.51 52.718 0.255 7.37 27.98 10.15
10/19/2022 10:15:00 PM 11.48 52.664 0.255 7.36 27.02 10.15
10/19/2022 10:30:00 PM 11.5 52.7 0.253 7.35 27.85 10.15
10/19/2022 10:45:00 PM 11.49 52.682 0.253 7.35 28.93 10.14
10/19/2022 11:00:00 PM 11.46 52.628 0.253 7.35 26.4 10.15
10/19/2022 11:15:00 PM 11.51 52.718 0.251 7.34 26.16 10.14
10/19/2022 11:30:00 PM 11.52 52.736 0.247 7.34 26.12 10.14
10/19/2022 11:45:00 PM 11.51 52.718 0.248 7.33 29.95 10.15
10/20/2022 12:00:00 AM 11.47 52.646 0.254 7.33 28.15 10.13
10/20/2022 12:15:00 AM 11.43 52.574 0.254 7.32 25.64 10.14
10/20/2022 12:30:00 AM 11.44 52.592 0.254 7.33 26.1 10.15
10/20/2022 12:45:00 AM 11.43 52.574 0.254 7.33 27.33 10.14
10/20/2022 1:00:00 AM 11.42 52.556 0.253 7.33 28.27 10.15
10/20/2022 1:15:00 AM 11.36 52.448 0.253 7.32 28.27 10.16
10/20/2022 1:30:00 AM 11.38 52.484 0.252 7.32 28.63 10.13
10/20/2022 1:45:00 AM 11.34 52.412 0.252 7.32 31.03 10.16
10/20/2022 2:00:00 AM 11.31 52.358 0.252 7.32 30.34 10.16
10/20/2022 2:15:00 AM 11.27 52.286 0.253 7.31 30.31 10.16
10/20/2022 2:30:00 AM 11.17 52.106 0.255 7.31 30.21 10.19
10/20/2022 2:45:00 AM 11.13 52.034 0.255 7.31 27.41 10.19
10/20/2022 3:00:00 AM 11.15 52.07 0.255 7.31 30.64 10.19
10/20/2022 3:15:00 AM 11.08 51.944 0.254 7.31 31.85 10.2
10/20/2022 3:30:00 AM 11.01 51.818 0.254 7.31 30.49 10.22
10/20/2022 3:45:00 AM 10.97 51.746 0.254 7.31 30.99 10.22
10/20/2022 4:00:00 AM 11.06 51.908 0.253 7.32 31.07 10.23
10/20/2022 4:15:00 AM 10.94 51.692 0.253 7.31 32.36 10.22
10/20/2022 4:30:00 AM 10.88 51.584 0.253 7.31 33.44 10.25
10/20/2022 4:45:00 AM 10.88 51.584 0.254 7.31 37.01 10.26
10/20/2022 5:00:00 AM 10.82 51.476 0.255 7.31 30.5 10.25
10/20/2022 5:15:00 AM 10.67 51.206 0.255 7.31 31.78 10.29
10/20/2022 5:30:00 AM 10.69 51.242 0.255 7.31 31.46 10.3
10/20/2022 5:45:00 AM 10.71 51.278 0.254 7.31 31.55 10.28
10/20/2022 6:00:00 AM 10.56 51.008 0.254 7.31 33.3 10.32
10/20/2022 6:15:00 AM 10.51 50.918 0.254 7.3 35.05 10.34
10/20/2022 6:30:00 AM 10.61 51.098 0.245 7.3 30.71 10.33
10/20/2022 6:45:00 AM 10.5 50.9 0.253 7.31 32.3 10.33
10/20/2022 7:00:00 AM 10.46 50.828 0.254 7.31 35.43 10.36
10/20/2022 7:15:00 AM 10.44 50.792 0.255 7.3 33.14 10.36
10/20/2022 7:30:00 AM 10.36 50.648 0.255 7.3 31.76 10.4
10/20/2022 7:45:00 AM 10.35 50.63 0.255 7.29 32.91 10.39
10/20/2022 8:00:00 AM 10.3 50.54 0.255 7.3 33.32 10.4
10/20/2022 8:15:00 AM 10.27 50.486 0.254 7.31 34.48 10.46
10/20/2022 8:30:00 AM 10.37 50.666 0.253 7.31 30.35 10.49
10/20/2022 8:45:00 AM 10.35 50.63 0.253 7.3 32.44 10.54
10/20/2022 9:00:00 AM 10.38 50.684 0.253 7.32 32.2 10.58
10/20/2022 9:15:00 AM 10.46 50.828 0.253 7.32 32.77 10.66
10/20/2022 9:30:00 AM 10.51 50.918 0.254 7.33 23.04 10.73
10/20/2022 9:45:00 AM 10.63 51.134 0.254 7.33 31.56 10.79
10/20/2022 10:00:00 AM 10.63 51.134 0.24 7.34 34.49 10.88
10/20/2022 10:15:00 AM 10.85 51.53 0.253 7.35 30.49 10.91
10/20/2022 10:30:00 AM 10.94 51.692 0.253 7.35 31.64 10.97
10/20/2022 10:45:00 AM 11.03 51.854 0.253 7.37 30.38 11.01
10/20/2022 11:00:00 AM 11.27 52.286 0.252 7.39 24.47 11.03
10/20/2022 11:15:00 AM 11.28 52.304 0.252 7.4 34.16 11.07
10/20/2022 11:30:00 AM 11.45 52.61 0.252 7.42 26.2 11.08
10/20/2022 11:45:00 AM 11.65 52.97 0.252 7.43 22.38 11.06
10/20/2022 12:00:00 PM 11.86 53.348 0.253 7.44 20.16 11.09
10/20/2022 12:15:00 PM 11.99 53.582 0.253 7.46 22.27 11.12
10/20/2022 12:30:00 PM 12.12 53.816 0.253 7.47 22.35 11.12
10/20/2022 12:45:00 PM 12.3 54.14 0.253 7.49 23.82 11.11
10/20/2022 1:00:00 PM 12.47 54.446 0.252 7.49 25.28 11.09
10/20/2022 1:15:00 PM 12.62 54.716 0.252 7.5 22.54 11.07
10/20/2022 1:30:00 PM 12.75 54.95 0.251 7.51 24.67 11.08
10/20/2022 1:45:00 PM 12.87 55.166 0.251 7.51 24.49 11.05
10/20/2022 2:00:00 PM 12.99 55.382 0.252 7.52 25.17 11.06
10/20/2022 2:15:00 PM 13.1 55.58 0.252 7.52 23.02 11.01
10/20/2022 2:30:00 PM 13.06 55.508 0.254 7.53 21.56 11.02
10/20/2022 2:45:00 PM 13.2 55.76 0.254 7.53 23.42 11
10/20/2022 3:00:00 PM 13.24 55.832 0.254 7.54 28.34 10.97
10/20/2022 3:15:00 PM 13.17 55.706 0.254 7.54 27.86 10.93
10/20/2022 3:30:00 PM 13.11 55.598 0.254 7.54 25.02 10.93
10/20/2022 3:45:00 PM 13.25 55.85 0.253 7.55 25.19 10.87
10/20/2022 4:00:00 PM 13.24 55.832 0.252 7.55 24.55 10.83
10/20/2022 4:15:00 PM 13.16 55.688 0.252 7.56 24.86 10.77
10/20/2022 4:30:00 PM 13.16 55.688 0.252 7.56 24.7 10.75
10/20/2022 4:45:00 PM 13.01 55.418 0.254 7.56 26.01 10.71
10/20/2022 5:00:00 PM 12.9 55.22 0.255 7.55 25.95 10.65
10/20/2022 5:15:00 PM 12.77 54.986 0.255 7.54 23.07 10.61
10/20/2022 5:30:00 PM 12.73 54.914 0.254 7.53 22.4 10.56
10/20/2022 5:45:00 PM 12.57 54.626 0.254 7.52 22.95 10.53
10/20/2022 6:00:00 PM 12.49 54.482 0.254 7.51 23.66 10.47
10/20/2022 6:15:00 PM 12.39 54.302 0.253 7.5 25.03 10.42
10/20/2022 6:30:00 PM 12.32 54.176 0.253 7.49 23.05 10.39
10/20/2022 6:45:00 PM 12.24 54.032 0.253 7.48 24.21 10.35
10/20/2022 7:00:00 PM 12.11 53.798 0.253 7.46 24.61 10.31
10/20/2022 7:15:00 PM 12 53.6 0.255 7.45 27.14 10.31
10/20/2022 7:30:00 PM 11.87 53.366 0.256 7.44 25.73 10.3
10/20/2022 7:45:00 PM 11.81 53.258 0.255 7.43 23.85 10.26
10/20/2022 8:00:00 PM 11.72 53.096 0.255 7.42 28.75 10.25
10/20/2022 8:15:00 PM 11.63 52.934 0.254 7.4 29.02 10.25
10/20/2022 8:30:00 PM 11.49 52.682 0.254 7.4 27.68 10.23
10/20/2022 8:45:00 PM 11.42 52.556 0.254 7.39 27.01 10.23
10/20/2022 9:00:00 PM 11.44 52.592 0.253 7.39 27.55 10.22
10/20/2022 9:15:00 PM 11.35 52.43 0.253 7.39 30.36 10.25
10/20/2022 9:30:00 PM 11.23 52.214 0.254 7.37 28.23 10.22
10/20/2022 9:45:00 PM 11.23 52.214 0.255 7.36 26.52 10.25
10/20/2022 10:00:00 PM 11.06 51.908 0.256 7.36 23.6 10.27
10/20/2022 10:15:00 PM 11.03 51.854 0.255 7.35 28.44 10.28
10/20/2022 10:30:00 PM 11.02 51.836 0.254 7.34 30.57 10.28
10/20/2022 10:45:00 PM 10.94 51.692 0.254 7.34 29.86 10.29
10/20/2022 11:00:00 PM 11 51.8 0.253 7.35 28.42 10.27
10/20/2022 11:15:00 PM 10.93 51.674 0.253 7.34 27.15 10.29
10/20/2022 11:30:00 PM 11.05 51.89 0.252 7.33 28.92 10.28
10/20/2022 11:45:00 PM 10.96 51.728 0.253 7.33 30.47 10.29
10/21/2022 12:00:00 AM 10.91 51.638 0.254 7.33 28.97 10.31
10/21/2022 12:15:00 AM 10.98 51.764 0.255 7.32 32.99 10.29
10/21/2022 12:30:00 AM 10.99 51.782 0.255 7.32 35.12 10.3
10/21/2022 12:45:00 AM 11.01 51.818 0.254 7.32 27.07 10.27
10/21/2022 1:00:00 AM 10.93 51.674 0.254 7.32 36.95 10.3
10/21/2022 1:15:00 AM 10.98 51.764 0.253 7.32 32.15 10.28
10/21/2022 1:30:00 AM 11.02 51.836 0.253 7.31 32.42 10.26
10/21/2022 1:45:00 AM 10.94 51.692 0.252 7.32 33.03 10.28
10/21/2022 2:00:00 AM 11.02 51.836 0.252 7.31 34.75 10.25
10/21/2022 2:15:00 AM 10.97 51.746 0.253 7.3 35.9 10.24
10/21/2022 2:30:00 AM 10.95 51.71 0.254 7.3 33.06 10.27
10/21/2022 2:45:00 AM 10.96 51.728 0.255 7.3 35.55 10.26
10/21/2022 3:00:00 AM 10.87 51.566 0.255 7.31 30.91 10.27
10/21/2022 3:15:00 AM 10.77 51.386 0.255 7.31 29.39 10.29
10/21/2022 3:30:00 AM 10.8 51.44 0.254 7.31 35.47 10.29
10/21/2022 3:45:00 AM 10.79 51.422 0.253 7.29 34.56 10.28
10/21/2022 4:00:00 AM 10.72 51.296 0.253 7.3 39.49 10.29
10/21/2022 4:15:00 AM 10.76 51.368 0.253 7.3 35.23 10.27
10/21/2022 4:30:00 AM 10.7 51.26 0.253 7.31 39.64 10.3
10/21/2022 4:45:00 AM 10.67 51.206 0.254 7.29 35.36 10.31
10/21/2022 5:00:00 AM 10.59 51.062 0.255 7.29 36.11 10.33
10/21/2022 5:15:00 AM 10.55 50.99 0.255 7.29 37.73 10.36
10/21/2022 5:30:00 AM 10.46 50.828 0.255 7.29 36.05 10.35
10/21/2022 5:45:00 AM 10.49 50.882 0.255 7.29 35.37 10.37
10/21/2022 6:00:00 AM 10.47 50.846 0.254 7.3 36.4 10.37
10/21/2022 6:15:00 AM 10.49 50.882 0.253 7.3 40.3 10.37
10/21/2022 6:30:00 AM 10.45 50.81 0.253 7.29 37.79 10.39
10/21/2022 6:45:00 AM 10.36 50.648 0.253 7.29 39.93 10.41
10/21/2022 7:00:00 AM 10.36 50.648 0.254 7.3 34.95 10.39
10/21/2022 7:15:00 AM 10.31 50.558 0.255 7.29 37.58 10.42
10/21/2022 7:30:00 AM 10.24 50.432 0.256 7.29 29.13 10.44
10/21/2022 7:45:00 AM 10.23 50.414 0.256 7.29 29.73 10.46
10/21/2022 8:00:00 AM 10.25 50.45 0.255 7.29 32.18 10.46
10/21/2022 8:15:00 AM 10.2 50.36 0.255 7.3 28.86 10.52
10/21/2022 8:30:00 AM 10.2 50.36 0.254 7.3 27.01 10.55
10/21/2022 8:45:00 AM 10.23 50.414 0.254 7.3 36.56 10.6
10/21/2022 9:00:00 AM 10.29 50.522 0.253 7.3 35.24 10.68
10/21/2022 9:15:00 AM 10.26 50.468 0.254 7.31 30.08 10.77
10/21/2022 9:30:00 AM 10.31 50.558 0.254 7.31 32.06 10.85
10/21/2022 9:45:00 AM 10.34 50.612 0.255 7.32 29.82 10.93
10/21/2022 10:00:00 AM 10.47 50.846 0.255 7.32 30.39 10.99
10/21/2022 10:15:00 AM 10.58 51.044 0.255 7.33 28.45 11.07
10/21/2022 10:30:00 AM 10.75 51.35 0.254 7.34 30.46 11.09
10/21/2022 10:45:00 AM 10.93 51.674 0.237 7.35 29.18 11.16
10/21/2022 11:00:00 AM 11.03 51.854 0.235 7.37 32.15 11.2
10/21/2022 11:15:00 AM 11.16 52.088 0.236 7.39 30.47 11.23
10/21/2022 11:30:00 AM 11.45 52.61 0.235 7.41 30.5 11.22
10/21/2022 11:45:00 AM 11.65 52.97 0.233 7.42 39.18 11.23
10/21/2022 12:00:00 PM 11.82 53.276 0.235 7.44 35.88 11.23
10/21/2022 12:15:00 PM 12.01 53.618 0.235 7.45 25.96 11.29
10/21/2022 12:30:00 PM 12.12 53.816 0.236 7.47 26.09 11.28
10/21/2022 12:45:00 PM 12.49 54.482 0.253 7.48 25.11 11.23
10/21/2022 1:00:00 PM 12.67 54.806 0.253 7.48 26.89 11.24
10/21/2022 1:15:00 PM 12.83 55.094 0.252 7.49 23.67 11.18
10/21/2022 1:30:00 PM 13 55.4 0.252 7.5 29.24 11.18
10/21/2022 1:45:00 PM 13.14 55.652 0.252 7.52 24.35 11.18
10/21/2022 2:00:00 PM 13.33 55.994 0.252 7.52 26.29 11.13
10/21/2022 2:15:00 PM 13.4 56.12 0.253 7.53 24.83 11.13
10/21/2022 2:30:00 PM 13.3 55.94 0.254 7.53 32.34 11.15
10/21/2022 2:45:00 PM 13.52 56.336 0.254 7.55 26.88 11.09
10/21/2022 3:00:00 PM 13.48 56.264 0.254 7.55 28.76 11.08
10/21/2022 3:15:00 PM 13.53 56.354 0.254 7.56 27.2 11.03
10/21/2022 3:30:00 PM 13.5 56.3 0.253 7.55 25.79 11.02
10/21/2022 3:45:00 PM 13.53 56.354 0.253 7.56 24.74 10.97
10/21/2022 4:00:00 PM 13.55 56.39 0.252 7.55 25.74 10.94
10/21/2022 4:15:00 PM 13.4 56.12 0.253 7.55 27.61 10.89
10/21/2022 4:30:00 PM 13.37 56.066 0.253 7.55 27.52 10.82
10/21/2022 4:45:00 PM 13.31 55.958 0.242 7.54 27.91 10.77
10/21/2022 5:00:00 PM 13.21 55.778 0.255 7.54 28.14 10.73
10/21/2022 5:15:00 PM 13.04 55.472 0.255 7.53 25.94 10.69
10/21/2022 5:30:00 PM 12.93 55.274 0.255 7.53 24.24 10.63
10/21/2022 5:45:00 PM 12.93 55.274 0.254 7.51 26.13 10.6
10/21/2022 6:00:00 PM 12.83 55.094 0.254 7.5 23.26 10.54
10/21/2022 6:15:00 PM 12.68 54.824 0.253 7.49 25.84 10.49
10/21/2022 6:30:00 PM 12.57 54.626 0.253 7.49 27 10.45
10/21/2022 6:45:00 PM 12.45 54.41 0.253 7.47 41.83 10.41
10/21/2022 7:00:00 PM 12.35 54.23 0.254 7.46 26.74 10.38
10/21/2022 7:15:00 PM 12.26 54.068 0.255 7.45 25.22 10.33
10/21/2022 7:30:00 PM 12.12 53.816 0.256 7.44 22.27 10.31
10/21/2022 7:45:00 PM 12.04 53.672 0.256 7.42 23.67 10.29
10/21/2022 8:00:00 PM 11.93 53.474 0.255 7.42 25.04 10.3
10/21/2022 8:15:00 PM 11.83 53.294 0.254 7.4 23 10.28
10/21/2022 8:30:00 PM 11.75 53.15 0.254 7.4 25.7 10.27
10/21/2022 8:45:00 PM 11.71 53.078 0.253 7.39 25.47 10.25
10/21/2022 9:00:00 PM 11.58 52.844 0.253 7.37 30.76 10.28
10/21/2022 9:15:00 PM 11.57 52.826 0.253 7.37 27.97 10.27
10/21/2022 9:30:00 PM 11.41 52.538 0.254 7.35 27.83 10.28
10/21/2022 9:45:00 PM 11.35 52.43 0.255 7.34 28.58 10.3
10/21/2022 10:00:00 PM 11.29 52.322 0.256 7.34 37.2 10.29
10/21/2022 10:15:00 PM 11.24 52.232 0.255 7.34 28.56 10.31
10/21/2022 10:30:00 PM 11.2 52.16 0.255 7.33 29.76 10.31
10/21/2022 10:45:00 PM 11.18 52.124 0.254 7.33 29.59 10.32
10/21/2022 11:00:00 PM 11.13 52.034 0.253 7.32 30.43 10.3
10/21/2022 11:15:00 PM 11.06 51.908 0.253 7.31 29.19 10.32
10/21/2022 11:30:00 PM 11.07 51.926 0.253 7.31 28.95 10.32
10/21/2022 11:45:00 PM 11.08 51.944 0.253 7.31 28.7 10.33
10/22/2022 12:00:00 AM 11.02 51.836 0.254 7.29 29.25 10.32
10/22/2022 12:15:00 AM 10.97 51.746 0.255 7.31 26.63 10.34
10/22/2022 12:30:00 AM 10.92 51.656 0.254 7.3 25.06 10.34
10/22/2022 12:45:00 AM 10.9 51.62 0.254 7.3 28.54 10.33
10/22/2022 1:00:00 AM 10.9 51.62 0.253 7.3 32.16 10.34
10/22/2022 1:15:00 AM 10.93 51.674 0.253 7.3 28.86 10.35
10/22/2022 1:30:00 AM 10.84 51.512 0.253 7.3 31.03 10.36
10/22/2022 1:45:00 AM 10.85 51.53 0.252 7.29 29.06 10.34
10/22/2022 2:00:00 AM 10.9 51.62 0.252 7.29 28.34 10.33
10/22/2022 2:15:00 AM 10.85 51.53 0.253 7.3 26.51 10.34
10/22/2022 2:30:00 AM 10.86 51.548 0.254 7.3 24.96 10.32
10/22/2022 2:45:00 AM 10.83 51.494 0.255 7.29 26.46 10.34
10/22/2022 3:00:00 AM 10.84 51.512 0.255 7.29 35.75 10.35
10/22/2022 3:15:00 AM 10.77 51.386 0.254 7.28 29.72 10.34
10/22/2022 3:30:00 AM 10.79 51.422 0.253 7.29 25.66 10.35
10/22/2022 3:45:00 AM 10.78 51.404 0.25 7.29 27.91 10.37
10/22/2022 4:00:00 AM 10.74 51.332 0.242 7.29 30.51 10.35
10/22/2022 4:15:00 AM 10.73 51.314 0.252 7.29 32.31 10.35
10/22/2022 4:30:00 AM 10.67 51.206 0.251 7.29 29.91 10.38
10/22/2022 4:45:00 AM 10.71 51.278 0.246 7.28 41.38 10.35
10/22/2022 5:00:00 AM 10.62 51.116 0.255 7.28 29.01 10.36
10/22/2022 5:15:00 AM 10.67 51.206 0.255 7.27 28.98 10.36
10/22/2022 5:30:00 AM 10.62 51.116 0.255 7.28 28.59 10.39
10/22/2022 5:45:00 AM 10.56 51.008 0.254 7.28 29.85 10.39
10/22/2022 6:00:00 AM 10.53 50.954 0.254 7.27 27.51 10.4
10/22/2022 6:15:00 AM 10.55 50.99 0.253 7.28 30.21 10.4
10/22/2022 6:30:00 AM 10.56 51.008 0.253 7.28 29.7 10.38
10/22/2022 6:45:00 AM 10.58 51.044 0.252 7.27 30.14 10.39
10/22/2022 7:00:00 AM 10.52 50.936 0.253 7.27 27.98 10.41
10/22/2022 7:15:00 AM 10.4 50.72 0.251 7.27 30.05 10.43
10/22/2022 7:30:00 AM 10.38 50.684 0.252 7.28 27.18 10.44
10/22/2022 7:45:00 AM 10.41 50.738 0.251 7.27 30.69 10.45
10/22/2022 8:00:00 AM 10.32 50.576 0.251 7.28 28.77 10.49
10/22/2022 8:15:00 AM 10.38 50.684 0.248 7.28 27.79 10.49
10/22/2022 8:30:00 AM 10.36 50.648 0.247 7.28 27.65 10.55
10/22/2022 8:45:00 AM 10.36 50.648 0.243 7.28 26.88 10.61
10/22/2022 9:00:00 AM 10.43 50.774 0.243 7.28 20.84 10.68
10/22/2022 9:15:00 AM 10.45 50.81 0.243 7.29 20.92 10.77
10/22/2022 9:30:00 AM 10.55 50.99 0.244 7.3 21.71 10.82
10/22/2022 9:45:00 AM 10.61 51.098 0.244 7.3 21.19 10.91
10/22/2022 10:00:00 AM 10.77 51.386 0.243 7.31 22.75 10.98
10/22/2022 10:15:00 AM 10.85 51.53 0.244 7.32 26.22 11.05
10/22/2022 10:30:00 AM 10.96 51.728 0.243 7.34 21.43 11.13
10/22/2022 10:45:00 AM 11.18 52.124 0.243 7.35 25.1 11.17
10/22/2022 11:00:00 AM 11.31 52.358 0.244 7.37 25.05 11.19
10/22/2022 11:15:00 AM 11.5 52.7 0.244 7.38 23.1 11.24
10/22/2022 11:30:00 AM 11.69 53.042 0.245 7.4 23.22 11.25
10/22/2022 11:45:00 AM 11.9 53.42 0.244 7.42 26.22 11.28
10/22/2022 12:00:00 PM 12.12 53.816 0.244 7.43 23.58 11.32
10/22/2022 12:15:00 PM 12.2 53.96 0.245 7.44 25.39 11.34
10/22/2022 12:30:00 PM 12.49 54.482 0.245 7.46 23.72 11.32
10/22/2022 12:45:00 PM 12.68 54.824 0.243 7.48 20.95 11.31
10/22/2022 1:00:00 PM 12.92 55.256 0.238 7.49 23.35 11.29
10/22/2022 1:15:00 PM 13.19 55.742 0.237 7.51 20.92 11.25
10/22/2022 1:30:00 PM 13.28 55.904 0.233 7.51 21.7 11.23
10/22/2022 1:45:00 PM 13.5 56.3 0.233 7.52 18 11.23
10/22/2022 2:00:00 PM 13.56 56.408 0.232 7.53 23.11 11.21
10/22/2022 2:15:00 PM 13.61 56.498 0.233 7.54 18.37 11.23
10/22/2022 2:30:00 PM 13.76 56.768 0.234 7.55 22.25 11.18
10/22/2022 2:45:00 PM 13.77 56.786 0.234 7.55 22.71 11.18
10/22/2022 3:00:00 PM 13.92 57.056 0.234 7.56 24.32 11.1
10/22/2022 3:15:00 PM 13.88 56.984 0.233 7.57 22.26 11.09
10/22/2022 3:30:00 PM 13.99 57.182 0.232 7.58 29.1 11.04
10/22/2022 3:45:00 PM 13.88 56.984 0.251 7.58 20.72 11.01
10/22/2022 4:00:00 PM 13.83 56.894 0.251 7.58 23.83 10.98
10/22/2022 4:15:00 PM 13.8 56.84 0.232 7.58 15.62 10.94
10/22/2022 4:30:00 PM 13.75 56.75 0.251 7.58 16.25 10.87
10/22/2022 4:45:00 PM 13.62 56.516 0.253 7.57 15.51 10.81
10/22/2022 5:00:00 PM 13.61 56.498 0.253 7.57 16.63 10.72
10/22/2022 5:15:00 PM 13.4 56.12 0.254 7.56 16.65 10.69
10/22/2022 5:30:00 PM 13.39 56.102 0.254 7.55 16.1 10.65
10/22/2022 5:45:00 PM 13.26 55.868 0.253 7.55 17.35 10.61
10/22/2022 6:00:00 PM 13.2 55.76 0.253 7.53 17.75 10.56
10/22/2022 6:15:00 PM 13.07 55.526 0.253 7.54 17.84 10.54
10/22/2022 6:30:00 PM 12.98 55.364 0.252 7.53 15.62 10.47
10/22/2022 6:45:00 PM 12.89 55.202 0.252 7.5 15.55 10.4
10/22/2022 7:00:00 PM 12.8 55.04 0.252 7.49 16.28 10.37
10/22/2022 7:15:00 PM 12.67 54.806 0.254 7.47 17.29 10.32
10/22/2022 7:30:00 PM 12.53 54.554 0.255 7.46 18.22 10.31
10/22/2022 7:45:00 PM 12.45 54.41 0.25 7.44 17.67 10.28
10/22/2022 8:00:00 PM 12.35 54.23 0.254 7.43 18.63 10.26
10/22/2022 8:15:00 PM 12.3 54.14 0.254 7.42 15.67 10.23
10/22/2022 8:30:00 PM 12.2 53.96 0.253 7.41 17.95 10.23
10/22/2022 8:45:00 PM 12.09 53.762 0.253 7.39 18.45 10.23
10/22/2022 9:00:00 PM 12.03 53.654 0.253 7.39 18.34 10.21
10/22/2022 9:15:00 PM 11.96 53.528 0.252 7.38 17.56 10.2
10/22/2022 9:30:00 PM 11.84 53.312 0.254 7.36 19.91 10.22
10/22/2022 9:45:00 PM 11.76 53.168 0.254 7.35 17.94 10.24
10/22/2022 10:00:00 PM 11.68 53.024 0.255 7.35 19.35 10.23
10/22/2022 10:15:00 PM 11.62 52.916 0.255 7.35 19.2 10.24
10/22/2022 10:30:00 PM 11.59 52.862 0.254 7.34 21.01 10.26
10/22/2022 10:45:00 PM 11.52 52.736 0.253 7.34 20.18 10.27
10/22/2022 11:00:00 PM 11.45 52.61 0.253 7.33 18.8 10.28
10/22/2022 11:15:00 PM 11.45 52.61 0.252 7.33 19.96 10.26
10/22/2022 11:30:00 PM 11.4 52.52 0.252 7.32 20.32 10.28
10/22/2022 11:45:00 PM 11.41 52.538 0.252 7.32 23.14 10.25
10/23/2022 12:00:00 AM 11.31 52.358 0.254 7.31 20.88 10.28
10/23/2022 12:15:00 AM 11.32 52.376 0.254 7.31 21.14 10.27
10/23/2022 12:30:00 AM 11.21 52.178 0.255 7.3 20.43 10.27
10/23/2022 12:45:00 AM 11.19 52.142 0.254 7.3 20.57 10.29
10/23/2022 1:00:00 AM 11.2 52.16 0.254 7.3 20.63 10.28
10/23/2022 1:15:00 AM 11.19 52.142 0.253 7.29 22.85 10.28
10/23/2022 1:30:00 AM 11.17 52.106 0.253 7.29 24.47 10.28
10/23/2022 1:45:00 AM 11.19 52.142 0.252 7.3 23.12 10.27
10/23/2022 2:00:00 AM 11.14 52.052 0.252 7.29 24.14 10.28
10/23/2022 2:15:00 AM 11.11 51.998 0.253 7.29 23.28 10.29
10/23/2022 2:30:00 AM 11.12 52.016 0.254 7.28 22.03 10.29
10/23/2022 2:45:00 AM 11.06 51.908 0.255 7.28 22.9 10.28
10/23/2022 3:00:00 AM 11.05 51.89 0.254 7.29 21.69 10.31
10/23/2022 3:15:00 AM 11.06 51.908 0.254 7.29 22.23 10.29
10/23/2022 3:30:00 AM 10.99 51.782 0.254 7.28 24.77 10.31
10/23/2022 3:45:00 AM 11.04 51.872 0.253 7.29 25.49 10.29
10/23/2022 4:00:00 AM 10.98 51.764 0.253 7.28 25.26 10.3
10/23/2022 4:15:00 AM 10.97 51.746 0.252 7.28 25.44 10.3
10/23/2022 4:30:00 AM 10.96 51.728 0.252 7.28 22.39 10.31
10/23/2022 4:45:00 AM 10.93 51.674 0.253 7.27 23.16 10.32
10/23/2022 5:00:00 AM 10.93 51.674 0.254 7.26 23.95 10.31
10/23/2022 5:15:00 AM 10.89 51.602 0.255 7.27 26.43 10.32
10/23/2022 5:30:00 AM 10.89 51.602 0.254 7.27 24.06 10.33
10/23/2022 5:45:00 AM 10.86 51.548 0.254 7.27 27.08 10.33
10/23/2022 6:00:00 AM 10.84 51.512 0.253 7.27 27.89 10.34
10/23/2022 6:15:00 AM 10.81 51.458 0.253 7.27 27.18 10.34
10/23/2022 6:30:00 AM 10.81 51.458 0.253 7.27 25.8 10.34
10/23/2022 6:45:00 AM 10.83 51.494 0.252 7.26 23.95 10.33
10/23/2022 7:00:00 AM 10.81 51.458 0.253 7.26 26.94 10.33
10/23/2022 7:15:00 AM 10.82 51.476 0.254 7.26 25.6 10.32
10/23/2022 7:30:00 AM 10.76 51.368 0.255 7.27 26.9 10.36
10/23/2022 7:45:00 AM 10.75 51.35 0.255 7.26 23.66 10.36
10/23/2022 8:00:00 AM 10.72 51.296 0.254 7.26 25.31 10.38
10/23/2022 8:15:00 AM 10.76 51.368 0.254 7.26 24.45 10.41
10/23/2022 8:30:00 AM 10.76 51.368 0.254 7.27 24.18 10.44
10/23/2022 8:45:00 AM 10.86 51.548 0.253 7.27 20.95 10.48
10/23/2022 9:00:00 AM 10.89 51.602 0.253 7.27 23.32 10.58
10/23/2022 9:15:00 AM 10.98 51.764 0.252 7.28 24.33 10.68
10/23/2022 9:30:00 AM 11.05 51.89 0.253 7.3 22.46 10.78
10/23/2022 9:45:00 AM 11.09 51.962 0.254 7.3 24.49 10.87
10/23/2022 10:00:00 AM 11.16 52.088 0.254 7.31 23.77 10.92
10/23/2022 10:15:00 AM 11.21 52.178 0.254 7.33 22.78 10.98
10/23/2022 10:30:00 AM 11.35 52.43 0.253 7.35 24.13 11.07
10/23/2022 10:45:00 AM 11.47 52.646 0.252 7.35 22.33 11.12
10/23/2022 11:00:00 AM 11.58 52.844 0.252 7.37 21.96 11.21
10/23/2022 11:15:00 AM 11.69 53.042 0.252 7.38 17.82 11.27
10/23/2022 11:30:00 AM 11.78 53.204 0.252 7.4 21.05 11.26
10/23/2022 11:45:00 AM 11.86 53.348 0.252 7.41 18.94 11.3
10/23/2022 12:00:00 PM 11.94 53.492 0.253 7.43 17.59 11.34
10/23/2022 12:15:00 PM 12.05 53.69 0.253 7.45 35.38 11.39
10/23/2022 12:30:00 PM 12.2 53.96 0.253 7.47 16.03 11.44
10/23/2022 12:45:00 PM 12.29 54.122 0.253 7.48 16.54 11.44
10/23/2022 1:00:00 PM 12.37 54.266 0.252 7.5 16.3 11.43
10/23/2022 1:15:00 PM 12.47 54.446 0.252 7.51 17.99 11.44
10/23/2022 1:30:00 PM 12.52 54.536 0.251 7.53 19.2 11.42
10/23/2022 1:45:00 PM 12.59 54.662 0.251 7.54 20.51 11.42
10/23/2022 2:00:00 PM 12.73 54.914 0.251 7.55 22.29 11.38
10/23/2022 2:15:00 PM 12.74 54.932 0.252 7.57 22.52 11.34
10/23/2022 2:30:00 PM 12.65 54.77 0.253 7.56 21.93 11.33
10/23/2022 2:45:00 PM 12.72 54.896 0.253 7.58 21.26 11.27
10/23/2022 3:00:00 PM 12.71 54.878 0.253 7.58 66.09 11.25
10/23/2022 3:15:00 PM 12.73 54.914 0.253 7.59 18.72 11.25
10/23/2022 3:30:00 PM 12.79 55.022 0.252 7.59 17.32 11.21
10/23/2022 3:45:00 PM 12.8 55.04 0.251 7.6 18.06 11.21
10/23/2022 4:00:00 PM 12.76 54.968 0.251 7.6 17.92 11.19
10/23/2022 4:15:00 PM 12.71 54.878 0.252 7.6 20.34 11.12
10/23/2022 4:30:00 PM 12.64 54.752 0.252 7.6 17.3 11.1
10/23/2022 4:45:00 PM 12.66 54.788 0.253 7.6 19.64 10.99
10/23/2022 5:00:00 PM 12.59 54.662 0.254 7.6 19.68 10.95
10/23/2022 5:15:00 PM 12.6 54.68 0.254 7.6 19.64 10.88
10/23/2022 5:30:00 PM 12.59 54.662 0.254 7.58 20.66 10.83
10/23/2022 5:45:00 PM 12.66 54.788 0.254 7.57 20.84 10.72
10/23/2022 6:00:00 PM 12.55 54.59 0.254 7.55 19.37 10.64
10/23/2022 6:15:00 PM 12.53 54.554 0.253 7.54 21.49 10.59
10/23/2022 6:30:00 PM 12.56 54.608 0.253 7.52 23.5 10.48
10/23/2022 6:45:00 PM 12.52 54.536 0.252 7.51 21.36 10.44
10/23/2022 7:00:00 PM 12.45 54.41 0.253 7.49 23.53 10.37
10/23/2022 7:15:00 PM 12.45 54.41 0.254 7.47 23.3 10.31
10/23/2022 7:30:00 PM 12.42 54.356 0.255 7.46 19.12 10.28
10/23/2022 7:45:00 PM 12.31 54.158 0.255 7.44 22.07 10.25
10/23/2022 8:00:00 PM 12.35 54.23 0.254 7.42 22.99 10.22
10/23/2022 8:15:00 PM 12.33 54.194 0.254 7.41 20 10.2
10/23/2022 8:30:00 PM 12.26 54.068 0.254 7.4 21.78 10.18
10/23/2022 8:45:00 PM 12.27 54.086 0.253 7.38 23.56 10.17
10/23/2022 9:00:00 PM 12.23 54.014 0.253 7.37 22.87 10.14
10/23/2022 9:15:00 PM 12.25 54.05 0.252 7.36 24.41 10.12
10/23/2022 9:30:00 PM 12.2 53.96 0.253 7.34 23.8 10.12
10/23/2022 9:45:00 PM 12.2 53.96 0.254 7.33 29.53 10.1
10/23/2022 10:00:00 PM 12.22 53.996 0.254 7.33 25.59 10.09
10/23/2022 10:15:00 PM 12.2 53.96 0.254 7.32 24.47 10.08
10/23/2022 10:30:00 PM 12.12 53.816 0.253 7.32 23.46 10.12
10/23/2022 10:45:00 PM 12.18 53.924 0.252 7.31 25.11 10.1
10/23/2022 11:00:00 PM 12.16 53.888 0.251 7.31 25.79 10.07
10/23/2022 11:15:00 PM 12.22 53.996 0.249 7.31 26.96 10.06
10/23/2022 11:30:00 PM 12.21 53.978 0.248 7.3 28.84 10.07
10/23/2022 11:45:00 PM 12.26 54.068 0.247 7.29 30.97 10.07
10/24/2022 12:00:00 AM 12.27 54.086 0.245 7.29 31.24 10.06
10/24/2022 12:15:00 AM 12.24 54.032 0.244 7.3 32.99 10.07
10/24/2022 12:30:00 AM 12.23 54.014 0.242 7.29 34.48 10.05
10/24/2022 12:45:00 AM 12.25 54.05 0.241 7.28 36.93 10.02
10/24/2022 1:00:00 AM 12.28 54.104 0.242 7.28 47.4 10.01
10/24/2022 1:15:00 AM 12.38 54.284 0.244 7.27 78.31 10.02
10/24/2022 1:30:00 AM 12.34 54.212 0.257 7.26 77.82 10
10/24/2022 1:45:00 AM 12.27 54.086 0.262 7.24 71.45 9.99
10/24/2022 2:00:00 AM 12.22 53.996 0.261 7.24 76.72 10
10/24/2022 2:15:00 AM 12.19 53.942 0.252 7.23 66.03 10
10/24/2022 2:30:00 AM 12.13 53.834 0.249 7.22 58.98 10.01
10/24/2022 2:45:00 AM 12.17 53.906 0.251 7.21 50.59 10
10/24/2022 3:00:00 AM 12.19 53.942 0.251 7.22 51.59 9.95
10/24/2022 3:15:00 AM 12.19 53.942 0.25 7.21 47.76 9.95
10/24/2022 3:30:00 AM 12.18 53.924 0.249 7.21 52.5 9.94
10/24/2022 3:45:00 AM 12.17 53.906 0.246 7.2 43.03 9.91
10/24/2022 4:00:00 AM 12.13 53.834 0.244 7.19 44.87 9.9
10/24/2022 4:15:00 AM 12.18 53.924 0.244 7.19 41.84 9.89
10/24/2022 4:30:00 AM 12.19 53.942 0.243 7.19 47.26 9.89
10/24/2022 4:45:00 AM 12.2 53.96 0.244 7.19 41.3 9.9
10/24/2022 5:00:00 AM 12.19 53.942 0.244 7.19 37.24 9.9
10/24/2022 5:15:00 AM 12.21 53.978 0.244 7.18 39.94 9.89
10/24/2022 5:30:00 AM 12.23 54.014 0.245 7.18 42.64 9.89
10/24/2022 5:45:00 AM 12.22 53.996 0.245 7.19 37.91 9.89
10/24/2022 6:00:00 AM 12.18 53.924 0.246 7.19 38.89 9.91
10/24/2022 6:15:00 AM 12.19 53.942 0.247 7.19 37.68 9.9
10/24/2022 6:30:00 AM 12.15 53.87 0.247 7.19 34.85 9.88
10/24/2022 6:45:00 AM 12.2 53.96 0.248 7.19 31.06 9.9
10/24/2022 7:00:00 AM 12.19 53.942 0.248 7.2 34.19 9.9
10/24/2022 7:15:00 AM 12.15 53.87 0.249 7.2 31.85 9.9
10/24/2022 7:30:00 AM 12.15 53.87 0.249 7.19 32.66 9.89
10/24/2022 7:45:00 AM 12.17 53.906 0.249 7.2 31.28 9.89
10/24/2022 8:00:00 AM 12.16 53.888 0.249 7.19 32.98 9.91
10/24/2022 8:15:00 AM 12.19 53.942 0.249 7.2 31.09 9.91
10/24/2022 8:30:00 AM 12.19 53.942 0.249 7.2 30.37 9.93
10/24/2022 8:45:00 AM 12.17 53.906 0.249 7.2 29.8 9.95
10/24/2022 9:00:00 AM 12.18 53.924 0.249 7.2 31.6 9.99
10/24/2022 9:15:00 AM 12.19 53.942 0.249 7.2 36.28 10.02
10/24/2022 9:30:00 AM 12.19 53.942 0.25 7.21 33.54 10.12
10/24/2022 9:45:00 AM 12.22 53.996 0.25 7.23 29.3 10.18
10/24/2022 10:00:00 AM 12.26 54.068 0.25 7.23 31.84 10.22
10/24/2022 10:15:00 AM 12.28 54.104 0.25 7.24 25.74 10.25
10/24/2022 10:30:00 AM 12.28 54.104 0.25 7.24 27.67 10.29
10/24/2022 10:45:00 AM 12.3 54.14 0.251 7.25 25.31 10.31
10/24/2022 11:00:00 AM 12.32 54.176 0.251 7.26 31.69 10.34
10/24/2022 11:15:00 AM 12.37 54.266 0.251 7.27 24.69 10.36
10/24/2022 11:30:00 AM 12.44 54.392 0.25 7.27 29.53 10.39
10/24/2022 11:45:00 AM 12.48 54.464 0.25 7.28 35.97 10.43
10/24/2022 12:00:00 PM 12.57 54.626 0.25 7.29 29.53 10.46
10/24/2022 12:15:00 PM 12.57 54.626 0.25 7.3 45.23 10.49
10/24/2022 12:30:00 PM 12.68 54.824 0.249 7.32 29.81 10.53
10/24/2022 12:45:00 PM 12.7 54.86 0.249 7.33 28.17 10.57
10/24/2022 1:00:00 PM 12.79 55.022 0.249 7.33 33.31 10.55
10/24/2022 1:15:00 PM 12.86 55.148 0.249 7.33 34.98 10.52
10/24/2022 1:30:00 PM 12.79 55.022 0.25 7.35 25.16 10.52
10/24/2022 1:45:00 PM 12.84 55.112 0.251 7.35 47.96 10.51
10/24/2022 2:00:00 PM 12.9 55.22 0.251 7.36 52.65 10.49
10/24/2022 2:15:00 PM 12.92 55.256 0.251 7.36 29.48 10.48
10/24/2022 2:30:00 PM 12.91 55.238 0.251 7.36 31.66 10.46
10/24/2022 2:45:00 PM 12.95 55.31 0.251 7.37 31.66 10.41
10/24/2022 3:00:00 PM 12.96 55.328 0.251 7.36 37.43 10.41
10/24/2022 3:15:00 PM 12.98 55.364 0.251 7.37 33.25 10.41
10/24/2022 3:30:00 PM 12.98 55.364 0.251 7.36 31.95 10.41
10/24/2022 3:45:00 PM 13.04 55.472 0.251 7.37 33.54 10.41
10/24/2022 4:00:00 PM 13.05 55.49 0.252 7.37 32.42 10.41
10/24/2022 4:15:00 PM 13.05 55.49 0.252 7.37 34.98 10.37
10/24/2022 4:30:00 PM 13.07 55.526 0.252 7.37 32.12 10.34
10/24/2022 4:45:00 PM 13.09 55.562 0.252 7.36 32.28 10.33
10/24/2022 5:00:00 PM 13.07 55.526 0.252 7.36 34.11 10.3
10/24/2022 5:15:00 PM 13.07 55.526 0.252 7.36 35.87 10.22
10/24/2022 5:30:00 PM 13.05 55.49 0.252 7.36 37.43 10.17
10/24/2022 5:45:00 PM 13.08 55.544 0.251 7.35 34.89 10.14
10/24/2022 6:00:00 PM 13.1 55.58 0.251 7.36 32.66 10.07
10/24/2022 6:15:00 PM 13.11 55.598 0.251 7.33 35.1 10.01
10/24/2022 6:30:00 PM 13.09 55.562 0.252 7.33 38.79 9.96
10/24/2022 6:45:00 PM 13.04 55.472 0.253 7.32 35.32 9.94
10/24/2022 7:00:00 PM 13.02 55.436 0.253 7.31 33.39 9.9
10/24/2022 7:15:00 PM 13.02 55.436 0.253 7.3 37.65 9.87
10/24/2022 7:30:00 PM 13.02 55.436 0.253 7.29 38.39 9.85
10/24/2022 7:45:00 PM 13.02 55.436 0.253 7.28 40.79 9.81
10/24/2022 8:00:00 PM 13.01 55.418 0.252 7.28 39.36 9.8
10/24/2022 8:15:00 PM 13.04 55.472 0.252 7.27 38.12 9.78
10/24/2022 8:30:00 PM 13 55.4 0.251 7.26 37.65 9.8
10/24/2022 8:45:00 PM 13.02 55.436 0.251 7.26 33 9.78
10/24/2022 9:00:00 PM 13.05 55.49 0.252 7.25 36.41 9.77
10/24/2022 9:15:00 PM 13.01 55.418 0.252 7.25 39.33 9.75
10/24/2022 9:30:00 PM 13.03 55.454 0.252 7.24 40.57 9.74
10/24/2022 9:45:00 PM 13.03 55.454 0.252 7.24 42.57 9.73
10/24/2022 10:00:00 PM 13.02 55.436 0.252 7.23 38.69 9.73
10/24/2022 10:15:00 PM 13.01 55.418 0.251 7.23 43.01 9.74
10/24/2022 10:30:00 PM 13.03 55.454 0.251 7.23 40.66 9.72
10/24/2022 10:45:00 PM 13.02 55.436 0.25 7.23 42.9 9.72
10/24/2022 11:00:00 PM 13.04 55.472 0.25 7.22 47.8 9.7
10/24/2022 11:15:00 PM 13.04 55.472 0.251 7.22 46.26 9.7
10/24/2022 11:30:00 PM 13.06 55.508 0.251 7.21 49.29 9.69
10/24/2022 11:45:00 PM 13.04 55.472 0.251 7.21 43.15 9.69
10/25/2022 12:00:00 AM 13.06 55.508 0.251 7.21 47.68 9.68
10/25/2022 12:15:00 AM 13.06 55.508 0.251 7.21 41.23 9.68
10/25/2022 12:30:00 AM 13.07 55.526 0.251 7.21 44.36 9.68
10/25/2022 12:45:00 AM 13.08 55.544 0.251 7.21 42.21 9.66
10/25/2022 1:00:00 AM 13.07 55.526 0.251 7.21 49.6 9.66
10/25/2022 1:15:00 AM 13.1 55.58 0.251 7.2 47.89 9.65
10/25/2022 1:30:00 AM 13.1 55.58 0.251 7.19 45.39 9.65
10/25/2022 1:45:00 AM 13.1 55.58 0.253 7.19 49.84 9.65
10/25/2022 2:00:00 AM 13.1 55.58 0.254 7.19 47.29 9.63
10/25/2022 2:15:00 AM 13.11 55.598 0.254 7.19 51.03 9.64
10/25/2022 2:30:00 AM 13.11 55.598 0.254 7.18 47.84 9.63
10/25/2022 2:45:00 AM 13.11 55.598 0.255 7.19 48.39 9.63
10/25/2022 3:00:00 AM 13.14 55.652 0.254 7.19 46.69 9.63
10/25/2022 3:15:00 AM 13.13 55.634 0.254 7.18 53.66 9.62
10/25/2022 3:30:00 AM 13.14 55.652 0.254 7.18 47.36 9.6
10/25/2022 3:45:00 AM 13.12 55.616 0.254 7.17 53.24 9.6
10/25/2022 4:00:00 AM 13.15 55.67 0.254 7.17 55.53 9.61
10/25/2022 4:15:00 AM 13.13 55.634 0.255 7.18 46.32 9.61
10/25/2022 4:30:00 AM 13.12 55.616 0.255 7.16 47.13 9.59
10/25/2022 4:45:00 AM 13.12 55.616 0.256 7.17 50.27 9.59
10/25/2022 5:00:00 AM 13.12 55.616 0.256 7.16 46.12 9.6
10/25/2022 5:15:00 AM 13.14 55.652 0.256 7.17 47.09 9.58
10/25/2022 5:30:00 AM 13.14 55.652 0.255 7.16 42.13 9.58
10/25/2022 5:45:00 AM 13.13 55.634 0.255 7.16 43.61 9.6
10/25/2022 6:00:00 AM 13.14 55.652 0.255 7.16 40.5 9.58
10/25/2022 6:15:00 AM 13.14 55.652 0.254 7.15 40.19 9.58
10/25/2022 6:30:00 AM 13.14 55.652 0.255 7.15 42.71 9.59
10/25/2022 6:45:00 AM 13.13 55.634 0.256 7.14 62.54 9.58
10/25/2022 7:00:00 AM 13.15 55.67 0.256 7.15 53.97 9.58
10/25/2022 7:15:00 AM 13.14 55.652 0.256 7.15 48.51 9.57
10/25/2022 7:30:00 AM 13.15 55.67 0.255 7.14 46.78 9.56
10/25/2022 7:45:00 AM 13.14 55.652 0.255 7.14 47.53 9.57
10/25/2022 8:00:00 AM 13.15 55.67 0.254 7.14 46.85 9.58
10/25/2022 8:15:00 AM 13.15 55.67 0.254 7.14 45.17 9.62
10/25/2022 8:30:00 AM 13.17 55.706 0.254 7.14 42.78 9.64
10/25/2022 8:45:00 AM 13.19 55.742 0.253 7.15 40.02 9.69
10/25/2022 9:00:00 AM 13.21 55.778 0.254 7.15 51.59 9.75
10/25/2022 9:15:00 AM 13.26 55.868 0.255 7.16 41.68 9.82
10/25/2022 9:30:00 AM 13.32 55.976 0.254 7.17 42.61 9.91
10/25/2022 9:45:00 AM 13.36 56.048 0.254 7.19 50.44 10
10/25/2022 10:00:00 AM 13.42 56.156 0.253 7.2 51.44 10.06
10/25/2022 10:15:00 AM 13.45 56.21 0.252 7.21 45.33 10.13
10/25/2022 10:30:00 AM 13.52 56.336 0.252 7.22 48.37 10.19
10/25/2022 10:45:00 AM 13.59 56.462 0.251 7.22 47.22 10.24
10/25/2022 11:00:00 AM 13.65 56.57 0.251 7.24 46.87 10.27
10/25/2022 11:15:00 AM 13.7 56.66 0.25 7.26 42.03 10.3
10/25/2022 11:30:00 AM 13.74 56.732 0.251 7.27 40.45 10.32
10/25/2022 11:45:00 AM 13.8 56.84 0.251 7.28 47.43 10.33
10/25/2022 12:00:00 PM 13.86 56.948 0.251 7.29 44.62 10.33
10/25/2022 12:15:00 PM 13.92 57.056 0.25 7.3 42.68 10.37
10/25/2022 12:30:00 PM 13.97 57.146 0.249 7.31 36.46 10.42
10/25/2022 12:45:00 PM 14.04 57.272 0.249 7.33 45.63 10.47
10/25/2022 1:00:00 PM 14.08 57.344 0.247 7.34 41.25 10.5
10/25/2022 1:15:00 PM 14.12 57.416 0.246 7.35 46.7 10.5
10/25/2022 1:30:00 PM 14.14 57.452 0.246 7.36 36.56 10.49
10/25/2022 1:45:00 PM 14.19 57.542 0.251 7.37 33.56 10.5
10/25/2022 2:00:00 PM 14.24 57.632 0.252 7.38 36.88 10.5
10/25/2022 2:15:00 PM 14.27 57.686 0.252 7.4 26.58 10.5
10/25/2022 2:30:00 PM 14.3 57.74 0.252 7.41 26.76 10.49
10/25/2022 2:45:00 PM 14.31 57.758 0.251 7.42 29.2 10.46
10/25/2022 3:00:00 PM 14.33 57.794 0.251 7.42 28.84 10.44
10/25/2022 3:15:00 PM 14.37 57.866 0.235 7.42 37.71 10.41
10/25/2022 3:30:00 PM 14.36 57.848 0.243 7.43 29.87 10.38
10/25/2022 3:45:00 PM 14.36 57.848 0.242 7.43 29.71 10.35
10/25/2022 4:00:00 PM 14.34 57.812 0.242 7.43 30.92 10.33
10/25/2022 4:15:00 PM 14.33 57.794 0.244 7.43 28.2 10.25
10/25/2022 4:30:00 PM 14.32 57.776 0.249 7.43 32.35 10.23
10/25/2022 4:45:00 PM 14.31 57.758 0.251 7.42 31.33 10.16
10/25/2022 5:00:00 PM 14.31 57.758 0.249 7.42 27.05 10.09
10/25/2022 5:15:00 PM 14.29 57.722 0.243 7.41 28.23 10.02
10/25/2022 5:30:00 PM 14.29 57.722 0.242 7.4 29.74 9.94
10/25/2022 5:45:00 PM 14.25 57.65 0.23 7.39 30.5 9.88
10/25/2022 6:00:00 PM 14.22 57.596 0.25 7.39 30.2 9.82
10/25/2022 6:15:00 PM 14.19 57.542 0.231 7.37 25.9 9.75
10/25/2022 6:30:00 PM 14.16 57.488 0.251 7.36 33.97 9.7
10/25/2022 6:45:00 PM 14.13 57.434 0.252 7.34 32.73 9.65
10/25/2022 7:00:00 PM 14.11 57.398 0.253 7.33 35.95 9.59
10/25/2022 7:15:00 PM 14.09 57.362 0.253 7.32 38.71 9.56
10/25/2022 7:30:00 PM 14.06 57.308 0.252 7.31 166.6 9.53
10/25/2022 7:45:00 PM 14.03 57.254 0.252 7.3 41.14 9.53
10/25/2022 8:00:00 PM 14.01 57.218 0.252 7.29 33.27 9.51
10/25/2022 8:15:00 PM 13.98 57.164 0.251 7.29 31.62 9.49
10/25/2022 8:30:00 PM 13.97 57.146 0.251 7.28 34.55 9.47
10/25/2022 8:45:00 PM 13.95 57.11 0.251 7.26 33.76 9.47
10/25/2022 9:00:00 PM 13.94 57.092 0.252 7.26 35.8 9.46
10/25/2022 9:15:00 PM 13.95 57.11 0.253 7.26 37.72 9.45
10/25/2022 9:30:00 PM 13.95 57.11 0.253 7.27 39.86 9.42
10/25/2022 9:45:00 PM 13.95 57.11 0.253 7.25 66.01 9.4
10/25/2022 10:00:00 PM 13.95 57.11 0.253 7.25 38.7 9.43
10/25/2022 10:15:00 PM 13.94 57.092 0.253 7.24 43.22 9.41
10/25/2022 10:30:00 PM 13.93 57.074 0.252 7.24 39.75 9.4
10/25/2022 10:45:00 PM 13.92 57.056 0.252 7.25 40.22 9.4
10/25/2022 11:00:00 PM 13.91 57.038 0.252 7.24 40.64 9.41
10/25/2022 11:15:00 PM 13.9 57.02 0.252 7.23 42.35 9.4
10/25/2022 11:30:00 PM 13.9 57.02 0.253 7.24 42.64 9.41
10/25/2022 11:45:00 PM 13.9 57.02 0.254 7.23 34.13 9.41
10/26/2022 12:00:00 AM 13.9 57.02 0.254 7.22 39.56 9.4
10/26/2022 12:15:00 AM 13.9 57.02 0.254 7.23 37.39 9.4
10/26/2022 12:30:00 AM 13.9 57.02 0.253 7.22 32.27 9.4
10/26/2022 12:45:00 AM 13.89 57.002 0.253 7.23 34.37 9.4
10/26/2022 1:00:00 AM 13.88 56.984 0.252 7.22 32.57 9.38
10/26/2022 1:15:00 AM 13.88 56.984 0.252 7.21 33.03 9.39
10/26/2022 1:30:00 AM 13.87 56.966 0.252 7.22 35.9 9.39
10/26/2022 1:45:00 AM 13.87 56.966 0.253 7.21 34.02 9.4
10/26/2022 2:00:00 AM 13.88 56.984 0.254 7.22 28.17 9.39
10/26/2022 2:15:00 AM 13.89 57.002 0.255 7.22 30.96 9.38
10/26/2022 2:30:00 AM 13.89 57.002 0.255 7.22 30.47 9.38
10/26/2022 2:45:00 AM 13.9 57.02 0.254 7.22 32.02 9.37
10/26/2022 3:00:00 AM 13.9 57.02 0.254 7.22 25.05 9.36
10/26/2022 3:15:00 AM 13.9 57.02 0.254 7.22 25.75 9.37
10/26/2022 3:30:00 AM 13.9 57.02 0.253 7.22 28.83 9.38
10/26/2022 3:45:00 AM 13.89 57.002 0.253 7.22 28.44 9.34
10/26/2022 4:00:00 AM 13.89 57.002 0.253 7.22 28.97 9.35
10/26/2022 4:15:00 AM 13.89 57.002 0.254 7.21 29.13 9.36
10/26/2022 4:30:00 AM 13.88 56.984 0.255 7.2 28.41 9.36
10/26/2022 4:45:00 AM 13.87 56.966 0.255 7.21 31.61 9.34
10/26/2022 5:00:00 AM 13.86 56.948 0.255 7.21 42.11 9.36
10/26/2022 5:15:00 AM 13.85 56.93 0.255 7.2 31.85 9.35
10/26/2022 5:30:00 AM 13.85 56.93 0.254 7.2 26.83 9.35
10/26/2022 5:45:00 AM 13.84 56.912 0.254 7.21 26.85 9.35
10/26/2022 6:00:00 AM 13.83 56.894 0.254 7.21 25.54 9.34
10/26/2022 6:15:00 AM 13.83 56.894 0.253 7.21 28.04 9.33
10/26/2022 6:30:00 AM 13.82 56.876 0.253 7.2 33.14 9.34
10/26/2022 6:45:00 AM 13.82 56.876 0.254 7.2 27.84 9.34
10/26/2022 7:00:00 AM 13.83 56.894 0.255 7.2 26.96 9.33
10/26/2022 7:15:00 AM 13.83 56.894 0.255 7.19 31.11 9.34
10/26/2022 7:30:00 AM 13.83 56.894 0.255 7.2 29.44 9.34
10/26/2022 7:45:00 AM 13.83 56.894 0.254 7.2 31.23 9.35
10/26/2022 8:00:00 AM 13.83 56.894 0.254 7.2 31.24 9.34
10/26/2022 8:15:00 AM 13.84 56.912 0.253 7.2 28.14 9.38
10/26/2022 8:30:00 AM 13.83 56.894 0.253 7.2 28.39 9.37
10/26/2022 8:45:00 AM 13.84 56.912 0.253 7.21 27.4 9.41
10/26/2022 9:00:00 AM 13.85 56.93 0.254 7.22 32.65 9.46
10/26/2022 9:15:00 AM 13.87 56.966 0.255 7.21 28.75 9.52
10/26/2022 9:30:00 AM 13.92 57.056 0.255 7.22 32.22 9.62
10/26/2022 9:45:00 AM 13.98 57.164 0.254 7.23 29.4 9.72
10/26/2022 10:00:00 AM 14.03 57.254 0.254 7.25 33.79 9.87
10/26/2022 10:15:00 AM 14.08 57.344 0.253 7.26 32.41 9.94
10/26/2022 10:30:00 AM 14.12 57.416 0.253 7.27 39.98 10.01
10/26/2022 10:45:00 AM 14.2 57.56 0.253 7.29 29.23 10.09
10/26/2022 11:00:00 AM 14.28 57.704 0.253 7.3 40.94 10.19
10/26/2022 11:15:00 AM 14.39 57.902 0.252 7.32 30.51 10.28
10/26/2022 11:30:00 AM 14.55 58.19 0.253 7.34 31.01 10.39
10/26/2022 11:45:00 AM 14.66 58.388 0.254 7.36 28.61 10.46
10/26/2022 12:00:00 PM 14.72 58.496 0.254 7.38 34.59 10.44
10/26/2022 12:15:00 PM 14.76 58.568 0.254 7.39 25.52 10.43
10/26/2022 12:30:00 PM 14.81 58.658 0.253 7.41 25.86 10.44
10/26/2022 12:45:00 PM 14.84 58.712 0.253 7.42 24.57 10.37
10/26/2022 1:00:00 PM 14.89 58.802 0.253 7.44 37.73 10.35
10/26/2022 1:15:00 PM 14.91 58.838 0.253 7.44 31.85 10.32
10/26/2022 1:30:00 PM 14.92 58.856 0.253 7.46 27.12 10.3
10/26/2022 1:45:00 PM 14.95 58.91 0.253 7.46 33.43 10.33
10/26/2022 2:00:00 PM 15.04 59.072 0.254 7.47 36.18 10.37
10/26/2022 2:15:00 PM 15.09 59.162 0.255 7.49 26.48 10.43
10/26/2022 2:30:00 PM 15.15 59.27 0.255 7.5 26.15 10.49
10/26/2022 2:45:00 PM 15.16 59.288 0.254 7.52 30.17 10.52
10/26/2022 3:00:00 PM 15.17 59.306 0.254 7.53 26.08 10.53
10/26/2022 3:15:00 PM 15.17 59.306 0.253 7.54 25.56 10.49
10/26/2022 3:30:00 PM 15.2 59.36 0.253 7.55 32.25 10.49
10/26/2022 3:45:00 PM 15.21 59.378 0.253 7.56 28.79 10.46
10/26/2022 4:00:00 PM 15.2 59.36 0.253 7.56 28.31 10.43
10/26/2022 4:15:00 PM 15.18 59.324 0.253 7.56 34.98 10.36
10/26/2022 4:30:00 PM 15.17 59.306 0.254 7.57 27.08 10.33
10/26/2022 4:45:00 PM 15.13 59.234 0.255 7.57 28.78 10.26
10/26/2022 5:00:00 PM 15.11 59.198 0.255 7.56 25.77 10.15
10/26/2022 5:15:00 PM 15.09 59.162 0.255 7.55 26.11 10.05
10/26/2022 5:30:00 PM 15.07 59.126 0.254 7.54 27.52 9.98
10/26/2022 5:45:00 PM 15.01 59.018 0.254 7.53 28.22 9.87
10/26/2022 6:00:00 PM 14.95 58.91 0.254 7.51 28.11 9.79
10/26/2022 6:15:00 PM 14.88 58.784 0.253 7.5 28.81 9.7
10/26/2022 6:30:00 PM 14.82 58.676 0.254 7.48 30.71 9.59
10/26/2022 6:45:00 PM 14.77 58.586 0.255 7.45 30.2 9.54
10/26/2022 7:00:00 PM 14.72 58.496 0.256 7.43 27.73 9.48
10/26/2022 7:15:00 PM 14.65 58.37 0.256 7.41 27.79 9.43
10/26/2022 7:30:00 PM 14.61 58.298 0.256 7.39 26.7 9.38
10/26/2022 7:45:00 PM 14.55 58.19 0.255 7.37 26.2 9.37
10/26/2022 8:00:00 PM 14.5 58.1 0.255 7.37 26.95 9.34
10/26/2022 8:15:00 PM 14.44 57.992 0.254 7.35 31.14 9.33
10/26/2022 8:30:00 PM 14.41 57.938 0.254 7.33 22.99 9.32
10/26/2022 8:45:00 PM 14.38 57.884 0.254 7.32 27.99 9.31
10/26/2022 9:00:00 PM 14.32 57.776 0.254 7.3 29.26 9.3
10/26/2022 9:15:00 PM 14.32 57.776 0.256 7.29 29.13 9.28
10/26/2022 9:30:00 PM 14.26 57.668 0.256 7.29 30.53 9.29
10/26/2022 9:45:00 PM 14.23 57.614 0.256 7.29 27.12 9.28
10/26/2022 10:00:00 PM 14.17 57.506 0.256 7.28 27.67 9.28
10/26/2022 10:15:00 PM 14.12 57.416 0.255 7.27 21.27 9.28
10/26/2022 10:30:00 PM 14.07 57.326 0.255 7.26 28.78 9.3
10/26/2022 10:45:00 PM 14.03 57.254 0.254 7.25 35.23 9.28
10/26/2022 11:00:00 PM 13.99 57.182 0.254 7.25 25.54 9.28
10/26/2022 11:15:00 PM 13.96 57.128 0.254 7.25 24.64 9.3
10/26/2022 11:30:00 PM 13.94 57.092 0.255 7.25 30.82 9.31
10/26/2022 11:45:00 PM 13.92 57.056 0.256 7.24 29.95 9.32
10/27/2022 12:00:00 AM 13.88 56.984 0.256 7.24 30.74 9.31
10/27/2022 12:15:00 AM 13.88 56.984 0.256 7.24 31.04 9.32
10/27/2022 12:30:00 AM 13.87 56.966 0.255 7.25 31.15 9.31
10/27/2022 12:45:00 AM 13.82 56.876 0.255 7.25 31.32 9.32
10/27/2022 1:00:00 AM 13.8 56.84 0.255 7.24 30.38 9.34
10/27/2022 1:15:00 AM 13.77 56.786 0.254 7.24 35.22 9.34
10/27/2022 1:30:00 AM 13.7 56.66 0.254 7.24 23.31 9.35
10/27/2022 1:45:00 AM 13.66 56.588 0.254 7.24 22.06 9.36
10/27/2022 2:00:00 AM 13.65 56.57 0.256 7.23 26.34 9.36
10/27/2022 2:15:00 AM 13.64 56.552 0.257 7.23 22.59 9.37
10/27/2022 2:30:00 AM 13.6 56.48 0.257 7.22 25.44 9.37
10/27/2022 2:45:00 AM 13.61 56.498 0.257 7.23 30.75 9.38
10/27/2022 3:00:00 AM 13.58 56.444 0.257 7.24 29.17 9.39
10/27/2022 3:15:00 AM 13.57 56.426 0.257 7.23 29.86 9.39
10/27/2022 3:30:00 AM 13.57 56.426 0.256 7.23 29.16 9.4
10/27/2022 3:45:00 AM 13.55 56.39 0.256 7.23 45.96 9.4
10/27/2022 4:00:00 AM 13.57 56.426 0.256 7.22 29.94 9.39
10/27/2022 4:15:00 AM 13.53 56.354 0.256 7.22 30.85 9.41
10/27/2022 4:30:00 AM 13.52 56.336 0.257 7.22 31.01 9.42
10/27/2022 4:45:00 AM 13.5 56.3 0.258 7.21 27.82 9.41
10/27/2022 5:00:00 AM 13.42 56.156 0.258 7.22 26.94 9.44
10/27/2022 5:15:00 AM 13.41 56.138 0.258 7.22 25.92 9.43
10/27/2022 5:30:00 AM 13.37 56.066 0.258 7.22 25.43 9.43
10/27/2022 5:45:00 AM 13.3 55.94 0.257 7.22 27.95 9.45
10/27/2022 6:00:00 AM 13.27 55.886 0.257 7.22 26.4 9.46
10/27/2022 6:15:00 AM 13.24 55.832 0.256 7.21 25.84 9.48
10/27/2022 6:30:00 AM 13.21 55.778 0.256 7.21 25.94 9.47
10/27/2022 6:45:00 AM 13.21 55.778 0.257 7.21 29.12 9.48
10/27/2022 7:00:00 AM 13.18 55.724 0.258 7.22 25.74 9.49
10/27/2022 7:15:00 AM 13.19 55.742 0.258 7.22 26.76 9.49
10/27/2022 7:30:00 AM 13.15 55.67 0.258 7.22 38.51 9.51
10/27/2022 7:45:00 AM 13.15 55.67 0.257 7.22 27.29 9.51
10/27/2022 8:00:00 AM 13.14 55.652 0.257 7.22 24.95 9.54
10/27/2022 8:15:00 AM 13.13 55.634 0.256 7.23 27.98 9.54
10/27/2022 8:30:00 AM 13.12 55.616 0.256 7.22 24.8 9.6
10/27/2022 8:45:00 AM 13.16 55.688 0.256 7.22 28.72 9.63
10/27/2022 9:00:00 AM 13.13 55.634 0.256 7.23 30.84 9.74
10/27/2022 9:15:00 AM 13.16 55.688 0.14 7.24 24.86 9.84
10/27/2022 9:30:00 AM 13.21 55.778 0.116 7.25 27.57 9.96
10/27/2022 9:45:00 AM 13.26 55.868 0.133 7.26 30.01 10.07
10/27/2022 10:00:00 AM 13.29 55.922 0.087 7.28 23.66 10.19
10/27/2022 10:15:00 AM 13.34 56.012 0.256 7.29 34.47 10.28
10/27/2022 10:30:00 AM 13.37 56.066 0.255 7.3 20.98 10.32
10/27/2022 10:45:00 AM 13.46 56.228 0.255 7.33 24.77 10.45
10/27/2022 11:00:00 AM 13.57 56.426 0.255 7.34 27.72 10.53
10/27/2022 11:15:00 AM 13.66 56.588 0.255 7.37 24.19 10.59
10/27/2022 11:30:00 AM 13.73 56.714 0.254 7.39 33.79 10.64
10/27/2022 11:45:00 AM 13.84 56.912 0.256 7.4 29.19 10.68
10/27/2022 12:00:00 PM 13.94 57.092 0.256 7.42 32.5 10.71
10/27/2022 12:15:00 PM 14.07 57.326 0.256 7.43 42.57 10.74
10/27/2022 12:30:00 PM 14.18 57.524 0.256 7.45 34.31 10.77
10/27/2022 12:45:00 PM 14.31 57.758 0.255 7.46 24.37 10.78
10/27/2022 1:00:00 PM 14.43 57.974 0.255 7.48 24.99 10.8
10/27/2022 1:15:00 PM 14.56 58.208 0.254 7.49 23.11 10.82
10/27/2022 1:30:00 PM 14.68 58.424 0.254 7.5 29.06 10.8
10/27/2022 1:45:00 PM 14.77 58.586 0.24 7.52 41.66 10.79
10/27/2022 2:00:00 PM 14.84 58.712 0.255 7.53 22.19 10.79
10/27/2022 2:15:00 PM 14.89 58.802 0.256 7.54 42.71 10.78
10/27/2022 2:30:00 PM 14.95 58.91 0.257 7.55 41.87 10.76
10/27/2022 2:45:00 PM 14.98 58.964 0.257 7.55 37.89 10.74
10/27/2022 3:00:00 PM 14.99 58.982 0.256 7.57 23.44 10.71
10/27/2022 3:15:00 PM 15 59 0.256 7.57 21.12 10.67
10/27/2022 3:30:00 PM 14.98 58.964 0.256 7.56 26.75 10.67
10/27/2022 3:45:00 PM 14.95 58.91 0.255 7.56 25.63 10.62
10/27/2022 4:00:00 PM 14.9 58.82 0.255 7.56 22.1 10.54
10/27/2022 4:15:00 PM 14.82 58.676 0.255 7.56 26.12 10.48
10/27/2022 4:30:00 PM 14.73 58.514 0.256 7.55 40.12 10.41
10/27/2022 4:45:00 PM 14.6 58.28 0.257 7.55 22.42 10.38
10/27/2022 5:00:00 PM 14.48 58.064 0.257 7.53 21.9 10.3
10/27/2022 5:15:00 PM 14.35 57.83 0.257 7.52 21.59 10.23
10/27/2022 5:30:00 PM 14.23 57.614 0.256 7.51 22.29 10.17
10/27/2022 5:45:00 PM 14.13 57.434 0.256 7.5 24 10.13
10/27/2022 6:00:00 PM 14.02 57.236 0.255 7.48 23.56 10.05
10/27/2022 6:15:00 PM 13.92 57.056 0.254 7.47 24.76 10
10/27/2022 6:30:00 PM 13.86 56.948 0.255 7.45 24.81 9.95
10/27/2022 6:45:00 PM 13.69 56.642 0.255 7.43 23.41 9.91
10/27/2022 7:00:00 PM 13.6 56.48 0.256 7.42 26.28 9.86
10/27/2022 7:15:00 PM 13.5 56.3 0.257 7.4 25.09 9.83
10/27/2022 7:30:00 PM 13.37 56.066 0.257 7.39 24.51 9.82
10/27/2022 7:45:00 PM 13.31 55.958 0.257 7.38 25.45 9.78
10/27/2022 8:00:00 PM 13.21 55.778 0.256 7.36 26.4 9.79
10/27/2022 8:15:00 PM 13.08 55.544 0.256 7.35 29.13 9.77
10/27/2022 8:30:00 PM 13 55.4 0.255 7.34 29.28 9.77
10/27/2022 8:45:00 PM 12.89 55.202 0.254 7.33 33.82 9.76
10/27/2022 9:00:00 PM 12.81 55.058 0.254 7.31 35.37 9.76
10/27/2022 9:15:00 PM 12.74 54.932 0.255 7.3 35.63 9.76
10/27/2022 9:30:00 PM 12.66 54.788 0.256 7.29 38.78 9.77
10/27/2022 9:45:00 PM 12.61 54.698 0.256 7.29 39.34 9.76
10/27/2022 10:00:00 PM 12.55 54.59 0.256 7.28 37.65 9.78
10/27/2022 10:15:00 PM 12.47 54.446 0.256 7.28 36.19 9.79
10/27/2022 10:30:00 PM 12.41 54.338 0.255 7.27 43.56 9.8
10/27/2022 10:45:00 PM 12.35 54.23 0.254 7.28 38.81 9.82
10/27/2022 11:00:00 PM 12.31 54.158 0.254 7.27 36.4 9.84
10/27/2022 11:15:00 PM 12.27 54.086 0.253 7.26 35.65 9.84
10/27/2022 11:30:00 PM 12.21 53.978 0.253 7.26 35.98 9.87
10/27/2022 11:45:00 PM 12.17 53.906 0.254 7.26 30.61 9.87
10/28/2022 12:00:00 AM 12.13 53.834 0.255 7.26 33.39 9.88
10/28/2022 12:15:00 AM 12.11 53.798 0.256 7.26 31.49 9.89
10/28/2022 12:30:00 AM 12.06 53.708 0.255 7.25 32.52 9.89
10/28/2022 12:45:00 AM 12.03 53.654 0.255 7.26 29.93 9.9
10/28/2022 1:00:00 AM 11.99 53.582 0.254 7.25 33.21 9.9
10/28/2022 1:15:00 AM 11.96 53.528 0.254 7.25 36.19 9.9
10/28/2022 1:30:00 AM 11.93 53.474 0.254 7.26 36.87 9.89
10/28/2022 1:45:00 AM 11.91 53.438 0.253 7.25 30.8 9.91
10/28/2022 2:00:00 AM 11.89 53.402 0.254 7.24 35.53 9.93
10/28/2022 2:15:00 AM 11.84 53.312 0.255 7.24 32.7 9.95
10/28/2022 2:30:00 AM 11.82 53.276 0.256 7.23 33.07 9.95
10/28/2022 2:45:00 AM 11.79 53.222 0.256 7.24 35.99 9.97
10/28/2022 3:00:00 AM 11.76 53.168 0.256 7.24 30.02 9.97
10/28/2022 3:15:00 AM 11.74 53.132 0.255 7.25 30.02 9.99
10/28/2022 3:30:00 AM 11.71 53.078 0.254 7.25 28.37 9.99
10/28/2022 3:45:00 AM 11.69 53.042 0.254 7.25 30.93 9.99
10/28/2022 4:00:00 AM 11.66 52.988 0.254 7.25 27.33 9.99
10/28/2022 4:15:00 AM 11.64 52.952 0.254 7.25 36.12 9.98
10/28/2022 4:30:00 AM 11.6 52.88 0.255 7.24 35.05 10
10/28/2022 4:45:00 AM 11.55 52.79 0.256 7.23 39.87 10.02
10/28/2022 5:00:00 AM 11.52 52.736 0.257 7.24 27.52 10.04
10/28/2022 5:15:00 AM 11.49 52.682 0.256 7.24 42.61 10.05
10/28/2022 5:30:00 AM 11.46 52.628 0.256 7.24 24.59 10.05
10/28/2022 5:45:00 AM 11.43 52.574 0.256 7.25 28.15 10.07
10/28/2022 6:00:00 AM 11.41 52.538 0.255 7.25 27.42 10.06
10/28/2022 6:15:00 AM 11.38 52.484 0.255 7.25 26.66 10.07
10/28/2022 6:30:00 AM 11.35 52.43 0.254 7.24 29.01 10.09
10/28/2022 6:45:00 AM 11.33 52.394 0.254 7.25 25.63 10.12
10/28/2022 7:00:00 AM 11.28 52.304 0.255 7.26 26.59 10.13
10/28/2022 7:15:00 AM 11.23 52.214 0.252 7.25 26.36 10.15
10/28/2022 7:30:00 AM 11.19 52.142 0.257 7.25 26.8 10.14
10/28/2022 7:45:00 AM 11.15 52.07 0.257 7.25 20.94 10.17
10/28/2022 8:00:00 AM 11.13 52.034 0.256 7.25 22.05 10.2
10/28/2022 8:15:00 AM 11.12 52.016 0.255 7.26 22.7 10.23
10/28/2022 8:30:00 AM 11.1 51.98 0.255 7.25 24.76 10.28
10/28/2022 8:45:00 AM 11.13 52.034 0.254 7.25 22.06 10.34
10/28/2022 9:00:00 AM 11.15 52.07 0.254 7.26 23.13 10.43
10/28/2022 9:15:00 AM 11.21 52.178 0.254 7.27 25.49 10.54
10/28/2022 9:30:00 AM 11.23 52.214 0.256 7.28 17.29 10.68
10/28/2022 9:45:00 AM 11.3 52.34 0.256 7.29 25.86 10.79
10/28/2022 10:00:00 AM 11.36 52.448 0.255 7.31 18.51 10.9
10/28/2022 10:15:00 AM 11.45 52.61 0.255 7.33 18.5 11.01
10/28/2022 10:30:00 AM 11.56 52.808 0.254 7.35 20.2 11.11
10/28/2022 10:45:00 AM 11.67 53.006 0.254 7.36 32.18 11.19
10/28/2022 11:00:00 AM 11.77 53.186 0.253 7.39 54.71 11.27
10/28/2022 11:15:00 AM 11.87 53.366 0.253 7.4 26.34 11.35
10/28/2022 11:30:00 AM 12.03 53.654 0.253 7.42 30.26 11.41
10/28/2022 11:45:00 AM 12.11 53.798 0.253 7.44 20.13 11.47
10/28/2022 12:00:00 PM 12.22 53.996 0.255 7.47 22.08 11.53
10/28/2022 12:15:00 PM 12.33 54.194 0.255 7.49 23.61 11.57
10/28/2022 12:30:00 PM 12.49 54.482 0.254 7.52 24.71 11.61
10/28/2022 12:45:00 PM 12.6 54.68 0.254 7.55 22.33 11.64
10/28/2022 1:00:00 PM 12.68 54.824 0.253 7.56 21.89 11.65
10/28/2022 1:15:00 PM 12.83 55.094 0.253 7.58 23.26 11.66
10/28/2022 1:30:00 PM 12.86 55.148 0.253 7.6 19.33 11.64
10/28/2022 1:45:00 PM 13 55.4 0.252 7.62 21.26 11.59
10/28/2022 2:00:00 PM 12.97 55.346 0.253 7.63 23.83 11.61
10/28/2022 2:15:00 PM 13.01 55.418 0.255 7.65 27.51 11.61
10/28/2022 2:30:00 PM 13.1 55.58 0.255 7.67 20.87 11.59
10/28/2022 2:45:00 PM 13.16 55.688 0.255 7.67 20.85 11.59
10/28/2022 3:00:00 PM 13.13 55.634 0.255 7.69 19.22 11.6
10/28/2022 3:15:00 PM 13.2 55.76 0.254 7.7 19.2 11.56
10/28/2022 3:30:00 PM 13.3 55.94 0.254 7.7 25.22 11.49
10/28/2022 3:45:00 PM 13.23 55.814 0.253 7.71 18.14 11.48
10/28/2022 4:00:00 PM 13.28 55.904 0.253 7.72 21.85 11.42
10/28/2022 4:15:00 PM 13.24 55.832 0.253 7.72 21.48 11.34
10/28/2022 4:30:00 PM 13.21 55.778 0.254 7.71 19.99 11.29
10/28/2022 4:45:00 PM 13.18 55.724 0.255 7.71 21.06 11.22
10/28/2022 5:00:00 PM 13.06 55.508 0.256 7.7 21.25 11.18
10/28/2022 5:15:00 PM 12.97 55.346 0.256 7.69 25.38 11.05
10/28/2022 5:30:00 PM 12.95 55.31 0.255 7.68 22.1 10.95
10/28/2022 5:45:00 PM 12.84 55.112 0.255 7.65 20.24 10.86
10/28/2022 6:00:00 PM 12.8 55.04 0.255 7.64 20.72 10.75
10/28/2022 6:15:00 PM 12.75 54.95 0.254 7.61 21.14 10.64
10/28/2022 6:30:00 PM 12.67 54.806 0.254 7.59 20.56 10.57
10/28/2022 6:45:00 PM 12.6 54.68 0.254 7.56 21.54 10.48
10/28/2022 7:00:00 PM 12.48 54.464 0.256 7.53 23.64 10.41
10/28/2022 7:15:00 PM 12.39 54.302 0.257 7.51 19.09 10.38
10/28/2022 7:30:00 PM 12.32 54.176 0.257 7.49 19.06 10.31
10/28/2022 7:45:00 PM 12.24 54.032 0.257 7.47 18.89 10.29
10/28/2022 8:00:00 PM 12.14 53.852 0.257 7.45 21.95 10.26
10/28/2022 8:15:00 PM 12.07 53.726 0.256 7.42 20.19 10.24
10/28/2022 8:30:00 PM 12.03 53.654 0.255 7.41 19.36 10.22
10/28/2022 8:45:00 PM 11.92 53.456 0.255 7.39 32.13 10.23
10/28/2022 9:00:00 PM 11.91 53.438 0.255 7.38 22.15 10.22
10/28/2022 9:15:00 PM 11.84 53.312 0.255 7.37 20.92 10.21
10/28/2022 9:30:00 PM 11.73 53.114 0.257 7.36 28.4 10.2
10/28/2022 9:45:00 PM 11.68 53.024 0.257 7.34 23.61 10.2
10/28/2022 10:00:00 PM 11.62 52.916 0.258 7.34 25.89 10.23
10/28/2022 10:15:00 PM 11.54 52.772 0.257 7.32 29.26 10.23
10/28/2022 10:30:00 PM 11.46 52.628 0.257 7.32 21.27 10.26
10/28/2022 10:45:00 PM 11.4 52.52 0.256 7.3 22.3 10.26
10/28/2022 11:00:00 PM 11.37 52.466 0.255 7.31 21.35 10.27
10/28/2022 11:15:00 PM 11.34 52.412 0.255 7.31 19.55 10.28
10/28/2022 11:30:00 PM 11.3 52.34 0.255 7.31 24.16 10.29
10/28/2022 11:45:00 PM 11.21 52.178 0.256 7.29 20.32 10.3
10/29/2022 12:00:00 AM 11.18 52.124 0.257 7.29 21.58 10.29
10/29/2022 12:15:00 AM 11.1 51.98 0.257 7.29 19.76 10.31
10/29/2022 12:30:00 AM 11.09 51.962 0.257 7.29 24.57 10.33
10/29/2022 12:45:00 AM 11.04 51.872 0.257 7.28 22.67 10.35
10/29/2022 1:00:00 AM 11.02 51.836 0.257 7.28 21.56 10.32
10/29/2022 1:15:00 AM 10.98 51.764 0.256 7.27 21.45 10.34
10/29/2022 1:30:00 AM 11 51.8 0.256 7.28 21.49 10.33
10/29/2022 1:45:00 AM 10.91 51.638 0.255 7.26 22.43 10.35
10/29/2022 2:00:00 AM 10.92 51.656 0.255 7.27 23.33 10.35
10/29/2022 2:15:00 AM 10.87 51.566 0.257 7.27 21.38 10.35
10/29/2022 2:30:00 AM 10.8 51.44 0.258 7.26 21.08 10.38
10/29/2022 2:45:00 AM 10.77 51.386 0.258 7.26 25.3 10.39
10/29/2022 3:00:00 AM 10.78 51.404 0.258 7.26 21.75 10.37
10/29/2022 3:15:00 AM 10.69 51.242 0.258 7.25 24.34 10.4
10/29/2022 3:30:00 AM 10.73 51.314 0.257 7.27 21.85 10.39
10/29/2022 3:45:00 AM 10.67 51.206 0.256 7.26 21.87 10.38
10/29/2022 4:00:00 AM 10.67 51.206 0.256 7.26 19.69 10.4
10/29/2022 4:15:00 AM 10.65 51.17 0.255 7.25 18.14 10.4
10/29/2022 4:30:00 AM 10.63 51.134 0.256 7.26 19.11 10.42
10/29/2022 4:45:00 AM 10.6 51.08 0.258 7.26 23.37 10.41
10/29/2022 5:00:00 AM 10.6 51.08 0.258 7.25 29.8 10.41
10/29/2022 5:15:00 AM 10.55 50.99 0.258 7.25 39.36 10.43
10/29/2022 5:30:00 AM 10.56 51.008 0.258 7.25 46.52 10.42
10/29/2022 5:45:00 AM 10.55 50.99 0.257 7.25 18.48 10.43
10/29/2022 6:00:00 AM 10.52 50.936 0.257 7.25 18.87 10.44
10/29/2022 6:15:00 AM 10.5 50.9 0.256 7.25 17.32 10.44
10/29/2022 6:30:00 AM 10.52 50.936 0.256 7.25 17.86 10.44
10/29/2022 6:45:00 AM 10.52 50.936 0.256 7.25 18.9 10.43
10/29/2022 7:00:00 AM 10.45 50.81 0.257 7.25 17.95 10.44
10/29/2022 7:15:00 AM 10.41 50.738 0.258 7.25 18.46 10.47
10/29/2022 7:30:00 AM 10.42 50.756 0.258 7.25 19.13 10.48
10/29/2022 7:45:00 AM 10.38 50.684 0.258 7.26 20.07 10.45
10/29/2022 8:00:00 AM 10.39 50.702 0.257 7.25 23.27 10.49
10/29/2022 8:15:00 AM 10.37 50.666 0.257 7.25 18.65 10.52
10/29/2022 8:30:00 AM 10.33 50.594 0.256 7.25 18.82 10.6
10/29/2022 8:45:00 AM 10.31 50.558 0.256 7.25 18.78 10.64
10/29/2022 9:00:00 AM 10.35 50.63 0.256 7.26 18.29 10.75
10/29/2022 9:15:00 AM 10.4 50.72 0.256 7.27 17.17 10.82
10/29/2022 9:30:00 AM 10.49 50.882 0.257 7.29 17.02 10.9
10/29/2022 9:45:00 AM 10.5 50.9 0.257 7.29 18.11 11.02
10/29/2022 10:00:00 AM 10.6 51.08 0.257 7.3 17.38 11.13
10/29/2022 10:15:00 AM 10.66 51.188 0.256 7.32 21.28 11.21
10/29/2022 10:30:00 AM 10.8 51.44 0.256 7.33 20.65 11.31
10/29/2022 10:45:00 AM 10.93 51.674 0.255 7.35 19.39 11.37
10/29/2022 11:00:00 AM 11.07 51.926 0.255 7.39 16.09 11.45
10/29/2022 11:15:00 AM 11.2 52.16 0.255 7.41 18.99 11.51
10/29/2022 11:30:00 AM 11.44 52.592 0.254 7.42 16.15 11.53
10/29/2022 11:45:00 AM 11.6 52.88 0.255 7.44 15.07 11.55
10/29/2022 12:00:00 PM 11.7 53.06 0.256 7.46 15.67 11.59
10/29/2022 12:15:00 PM 11.9 53.42 0.256 7.48 15.45 11.62
10/29/2022 12:30:00 PM 11.95 53.51 0.256 7.51 19.88 11.66
10/29/2022 12:45:00 PM 12.21 53.978 0.255 7.53 15.12 11.67
10/29/2022 1:00:00 PM 12.47 54.446 0.254 7.55 17.51 11.67
10/29/2022 1:15:00 PM 12.61 54.698 0.254 7.56 36.87 11.69
10/29/2022 1:30:00 PM 12.76 54.968 0.254 7.58 14.96 11.66
10/29/2022 1:45:00 PM 12.96 55.328 0.253 7.6 14.44 11.64
10/29/2022 2:00:00 PM 13.05 55.49 0.254 7.62 15.79 11.61
10/29/2022 2:15:00 PM 13.06 55.508 0.255 7.63 14.88 11.63
10/29/2022 2:30:00 PM 13.13 55.634 0.256 7.64 15.33 11.6
10/29/2022 2:45:00 PM 13.16 55.688 0.256 7.65 18.33 11.59
10/29/2022 3:00:00 PM 13.24 55.832 0.255 7.66 14.38 11.56
10/29/2022 3:15:00 PM 13.25 55.85 0.254 7.67 13.83 11.55
10/29/2022 3:30:00 PM 13.32 55.976 0.254 7.68 15.08 11.46
10/29/2022 3:45:00 PM 13.26 55.868 0.254 7.69 14.99 11.44
10/29/2022 4:00:00 PM 13.25 55.85 0.253 7.69 14.45 11.38
10/29/2022 4:15:00 PM 13.19 55.742 0.253 7.69 14.75 11.29
10/29/2022 4:30:00 PM 13.11 55.598 0.255 7.68 15.23 11.2
10/29/2022 4:45:00 PM 12.97 55.346 0.256 7.66 18.46 11.14
10/29/2022 5:00:00 PM 12.81 55.058 0.257 7.65 14.69 11.11
10/29/2022 5:15:00 PM 12.68 54.824 0.257 7.65 14.56 10.98
10/29/2022 5:30:00 PM 12.6 54.68 0.257 7.62 14.36 10.91
10/29/2022 5:45:00 PM 12.48 54.464 0.256 7.61 16.28 10.85
10/29/2022 6:00:00 PM 12.37 54.266 0.256 7.59 16.15 10.78
10/29/2022 6:15:00 PM 12.3 54.14 0.255 7.57 14.95 10.69
10/29/2022 6:30:00 PM 12.23 54.014 0.255 7.55 13.69 10.61
10/29/2022 6:45:00 PM 12.1 53.78 0.255 7.52 12.87 10.55
10/29/2022 7:00:00 PM 11.93 53.474 0.257 7.5 15.15 10.51
10/29/2022 7:15:00 PM 11.86 53.348 0.257 7.47 15.8 10.48
10/29/2022 7:30:00 PM 11.76 53.168 0.257 7.46 14.85 10.44
10/29/2022 7:45:00 PM 11.66 52.988 0.257 7.44 14.05 10.41
10/29/2022 8:00:00 PM 11.53 52.754 0.257 7.43 14.9 10.41
10/29/2022 8:15:00 PM 11.44 52.592 0.257 7.41 15.42 10.4
10/29/2022 8:30:00 PM 11.33 52.394 0.257 7.4 14.84 10.38
10/29/2022 8:45:00 PM 11.26 52.268 0.256 7.38 15.67 10.37
10/29/2022 9:00:00 PM 11.16 52.088 0.256 7.37 14.71 10.37
10/29/2022 9:15:00 PM 11.06 51.908 0.256 7.36 16.17 10.37
10/29/2022 9:30:00 PM 10.98 51.764 0.257 7.36 17.94 10.4
10/29/2022 9:45:00 PM 10.95 51.71 0.258 7.35 17.99 10.39
10/29/2022 10:00:00 PM 10.85 51.53 0.258 7.33 17.56 10.41
10/29/2022 10:15:00 PM 10.73 51.314 0.258 7.32 17.78 10.43
10/29/2022 10:30:00 PM 10.68 51.224 0.257 7.31 19.14 10.44
10/29/2022 10:45:00 PM 10.66 51.188 0.256 7.31 16.56 10.41
10/29/2022 11:00:00 PM 10.62 51.116 0.256 7.31 28.59 10.44
10/29/2022 11:15:00 PM 10.59 51.062 0.255 7.31 18.63 10.44
10/29/2022 11:30:00 PM 10.53 50.954 0.255 7.3 16.73 10.44
10/29/2022 11:45:00 PM 10.44 50.792 0.256 7.3 18.53 10.44
10/30/2022 12:00:00 AM 10.43 50.774 0.257 7.3 18.66 10.47
10/30/2022 12:15:00 AM 10.4 50.72 0.257 7.29 18.33 10.46
10/30/2022 12:30:00 AM 10.38 50.684 0.257 7.29 17.2 10.48
10/30/2022 12:45:00 AM 10.33 50.594 0.257 7.29 19.55 10.47
10/30/2022 1:00:00 AM 10.31 50.558 0.256 7.28 18.75 10.49
10/30/2022 1:15:00 AM 10.27 50.486 0.256 7.28 19.16 10.5
10/30/2022 1:30:00 AM 10.23 50.414 0.255 7.28 17.3 10.48
10/30/2022 1:45:00 AM 10.29 50.522 0.254 7.27 18.76 10.48
10/30/2022 2:00:00 AM 10.25 50.45 0.255 7.26 17.82 10.49
10/30/2022 2:15:00 AM 10.23 50.414 0.256 7.27 18.49 10.5
10/30/2022 2:30:00 AM 10.17 50.306 0.257 7.27 16.94 10.49
10/30/2022 2:45:00 AM 10.19 50.342 0.257 7.26 19.17 10.5
10/30/2022 3:00:00 AM 10.16 50.288 0.257 7.26 17.39 10.5
10/30/2022 3:15:00 AM 10.13 50.234 0.256 7.26 18.47 10.5
10/30/2022 3:30:00 AM 10.15 50.27 0.255 7.26 18.12 10.5
10/30/2022 3:45:00 AM 10.08 50.144 0.255 7.26 16.85 10.51
10/30/2022 4:00:00 AM 10.1 50.18 0.254 7.26 17.38 10.5
10/30/2022 4:15:00 AM 10.06 50.108 0.254 7.26 26.91 10.51
10/30/2022 4:30:00 AM 10.05 50.09 0.255 7.27 22.4 10.52
10/30/2022 4:45:00 AM 9.98 49.964 0.256 7.25 16.1 10.52
10/30/2022 5:00:00 AM 10 50 0.257 7.25 18.01 10.52
10/30/2022 5:15:00 AM 9.96 49.928 0.256 7.26 20.69 10.52
10/30/2022 5:30:00 AM 9.92 49.856 0.256 7.25 15.88 10.54
10/30/2022 5:45:00 AM 9.91 49.838 0.256 7.26 19.84 10.54
10/30/2022 6:00:00 AM 9.92 49.856 0.255 7.25 15.74 10.53
10/30/2022 6:15:00 AM 9.86 49.748 0.255 7.25 15.53 10.55
10/30/2022 6:30:00 AM 9.88 49.784 0.254 7.25 16.5 10.55
10/30/2022 6:45:00 AM 9.89 49.802 0.254 7.25 15.46 10.54
10/30/2022 7:00:00 AM 9.78 49.604 0.256 7.25 16.7 10.56
10/30/2022 7:15:00 AM 9.75 49.55 0.257 7.24 16.31 10.57
10/30/2022 7:30:00 AM 9.72 49.496 0.257 7.25 15.1 10.59
10/30/2022 7:45:00 AM 9.7 49.46 0.257 7.24 16.93 10.59
10/30/2022 8:00:00 AM 9.7 49.46 0.256 7.24 17.17 10.62
10/30/2022 8:15:00 AM 9.68 49.424 0.255 7.24 17.96 10.66
10/30/2022 8:30:00 AM 9.71 49.478 0.255 7.24 14.42 10.7
10/30/2022 8:45:00 AM 9.73 49.514 0.255 7.25 14.29 10.76
10/30/2022 9:00:00 AM 9.77 49.586 0.254 7.26 25.27 10.85
10/30/2022 9:15:00 AM 9.77 49.586 0.255 7.27 14.67 10.97
10/30/2022 9:30:00 AM 9.84 49.712 0.256 7.28 19.67 11.1
10/30/2022 9:45:00 AM 9.85 49.73 0.256 7.3 13.67 11.25
10/30/2022 10:00:00 AM 9.96 49.928 0.256 7.3 13.73 11.35
10/30/2022 10:15:00 AM 10.15 50.27 0.255 7.32 16.36 11.46
10/30/2022 10:30:00 AM 10.1 50.18 0.254 7.34 22.19 11.59
10/30/2022 10:45:00 AM 10.2 50.36 0.254 7.36 13 11.69
10/30/2022 11:00:00 AM 10.38 50.684 0.254 7.38 11.94 11.76
10/30/2022 11:15:00 AM 10.5 50.9 0.253 7.4 12.34 11.81
10/30/2022 11:30:00 AM 10.66 51.188 0.253 7.43 12.47 11.83
10/30/2022 11:45:00 AM 10.83 51.494 0.253 7.45 16.09 11.9
10/30/2022 12:00:00 PM 10.84 51.512 0.255 7.48 12.3 11.99
10/30/2022 12:15:00 PM 11.04 51.872 0.255 7.51 19.21 12.02
10/30/2022 12:30:00 PM 11.2 52.16 0.254 7.52 25.26 12.07
10/30/2022 12:45:00 PM 11.26 52.268 0.254 7.55 12.62 12.12
10/30/2022 1:00:00 PM 11.54 52.772 0.253 7.6 18.36 12.13
10/30/2022 1:15:00 PM 11.68 53.024 0.253 7.63 13.18 12.16
10/30/2022 1:30:00 PM 11.88 53.384 0.253 7.65 11.57 12.14
10/30/2022 1:45:00 PM 12.08 53.744 0.252 7.68 12.51 12.12
10/30/2022 2:00:00 PM 12.12 53.816 0.253 7.69 25.36 12.11
10/30/2022 2:15:00 PM 12.23 54.014 0.254 7.72 15.81 12.08
10/30/2022 2:30:00 PM 12.25 54.05 0.255 7.72 11.85 12.08
10/30/2022 2:45:00 PM 12.5 54.5 0.254 7.75 12.58 11.97
10/30/2022 3:00:00 PM 12.62 54.716 0.254 7.75 13.22 11.92
10/30/2022 3:15:00 PM 12.58 54.644 0.254 7.76 13.68 11.86
10/30/2022 3:30:00 PM 12.66 54.788 0.253 7.76 12.68 11.8
10/30/2022 3:45:00 PM 12.68 54.824 0.253 7.77 12.04 11.74
10/30/2022 4:00:00 PM 12.76 54.968 0.253 7.77 12.78 11.61
10/30/2022 4:15:00 PM 12.76 54.968 0.253 7.76 18.57 11.5
10/30/2022 4:30:00 PM 12.65 54.77 0.254 7.75 18.28 11.41
10/30/2022 4:45:00 PM 12.59 54.662 0.255 7.73 17.76 11.39
10/30/2022 5:00:00 PM 12.54 54.572 0.256 7.72 23.53 11.29
10/30/2022 5:15:00 PM 12.29 54.122 0.256 7.7 13.22 11.22
10/30/2022 5:30:00 PM 12.3 54.14 0.255 7.69 12.19 11.11
10/30/2022 5:45:00 PM 12.18 53.924 0.255 7.67 32.33 11.06
10/30/2022 6:00:00 PM 12.14 53.852 0.254 7.65 12.03 10.97
10/30/2022 6:15:00 PM 12.05 53.69 0.254 7.63 14.09 10.86
10/30/2022 6:30:00 PM 11.99 53.582 0.254 7.6 12.35 10.75
10/30/2022 6:45:00 PM 11.92 53.456 0.254 7.57 12.82 10.66
10/30/2022 7:00:00 PM 11.85 53.33 0.255 7.55 24.74 10.59
10/30/2022 7:15:00 PM 11.79 53.222 0.256 7.53 40.03 10.52
10/30/2022 7:30:00 PM 11.73 53.114 0.257 7.5 15.97 10.5
10/30/2022 7:45:00 PM 11.59 52.862 0.257 7.48 12.88 10.47
10/30/2022 8:00:00 PM 11.6 52.88 0.257 7.45 15.67 10.43
10/30/2022 8:15:00 PM 11.52 52.736 0.256 7.44 18.76 10.37
10/30/2022 8:30:00 PM 11.49 52.682 0.256 7.42 16.67 10.34
10/30/2022 8:45:00 PM 11.51 52.718 0.255 7.41 31.6 10.31
10/30/2022 9:00:00 PM 11.37 52.466 0.255 7.39 22.38 10.32
10/30/2022 9:15:00 PM 11.36 52.448 0.255 7.38 15.85 10.27
10/30/2022 9:30:00 PM 11.26 52.268 0.256 7.35 14 10.28
10/30/2022 9:45:00 PM 11.18 52.124 0.257 7.35 23.38 10.29
10/30/2022 10:00:00 PM 11.15 52.07 0.234 7.34 17.42 10.29
10/30/2022 10:15:00 PM 11.04 51.872 0.254 7.32 15.45 10.31
10/30/2022 10:30:00 PM 11.04 51.872 0.254 7.32 19.5 10.29
10/30/2022 10:45:00 PM 11.02 51.836 0.241 7.31 15.43 10.29
10/30/2022 11:00:00 PM 10.96 51.728 0.254 7.31 16.49 10.3
10/30/2022 11:15:00 PM 10.92 51.656 0.255 7.3 24.74 10.29
10/30/2022 11:30:00 PM 10.92 51.656 0.237 7.29 14.57 10.3
10/30/2022 11:45:00 PM 10.85 51.53 0.236 7.29 15.07 10.3
10/31/2022 12:00:00 AM 10.76 51.368 0.232 7.3 18.46 10.32
10/31/2022 12:15:00 AM 10.76 51.368 0.234 7.29 15.28 10.33
10/31/2022 12:30:00 AM 10.65 51.17 0.257 7.27 14.65 10.33
10/31/2022 12:45:00 AM 10.65 51.17 0.256 7.27 16.09 10.33
10/31/2022 1:00:00 AM 10.63 51.134 0.256 7.26 17.49 10.34
10/31/2022 1:15:00 AM 10.6 51.08 0.255 7.27 16.29 10.32
10/31/2022 1:30:00 AM 10.65 51.17 0.254 7.27 15.86 10.31
10/31/2022 1:45:00 AM 10.67 51.206 0.249 7.25 16.92 10.3
10/31/2022 2:00:00 AM 10.66 51.188 0.245 7.25 20.73 10.31
10/31/2022 2:15:00 AM 10.63 51.134 0.245 7.24 17.17 10.34
10/31/2022 2:30:00 AM 10.64 51.152 0.244 7.24 16.5 10.31
10/31/2022 2:45:00 AM 10.62 51.116 0.245 7.25 17.36 10.3
10/31/2022 3:00:00 AM 10.74 51.332 0.247 7.25 15.81 10.29
10/31/2022 3:15:00 AM 10.68 51.224 0.254 7.24 15.4 10.3
10/31/2022 3:30:00 AM 10.73 51.314 0.254 7.24 14.68 10.27
10/31/2022 3:45:00 AM 10.8 51.44 0.254 7.24 14.57 10.25
10/31/2022 4:00:00 AM 10.78 51.404 0.255 7.24 16.01 10.26
10/31/2022 4:15:00 AM 10.84 51.512 0.255 7.23 14.65 10.25
10/31/2022 4:30:00 AM 10.79 51.422 0.256 7.24 16.67 10.25
10/31/2022 4:45:00 AM 10.81 51.458 0.236 7.23 20.19 10.24
10/31/2022 5:00:00 AM 10.79 51.422 0.257 7.24 23.23 10.24
10/31/2022 5:15:00 AM 10.76 51.368 0.257 7.23 18.95 10.22
10/31/2022 5:30:00 AM 10.78 51.404 0.256 7.22 17.51 10.23
10/31/2022 5:45:00 AM 10.75 51.35 0.257 7.22 15.93 10.22
10/31/2022 6:00:00 AM 10.78 51.404 0.256 7.22 16.27 10.22
10/31/2022 6:15:00 AM 10.78 51.404 0.256 7.22 27.81 10.22
10/31/2022 6:30:00 AM 10.7 51.26 0.255 7.22 17.15 10.23
10/31/2022 6:45:00 AM 10.77 51.386 0.255 7.21 15.35 10.22
10/31/2022 7:00:00 AM 10.7 51.26 0.256 7.21 17.45 10.22
10/31/2022 7:15:00 AM 10.73 51.314 0.257 7.21 16.31 10.22
10/31/2022 7:30:00 AM 10.76 51.368 0.257 7.22 15.04 10.22
10/31/2022 7:45:00 AM 10.73 51.314 0.257 7.21 17.21 10.23
10/31/2022 8:00:00 AM 10.65 51.17 0.257 7.22 20.77 10.27
10/31/2022 8:15:00 AM 10.74 51.332 0.256 7.22 17.36 10.29
10/31/2022 8:30:00 AM 10.8 51.44 0.256 7.22 31.4 10.35
10/31/2022 8:45:00 AM 10.85 51.53 0.255 7.22 14.82 10.44
10/31/2022 9:00:00 AM 10.84 51.512 0.255 7.25 16.17 10.57
10/31/2022 9:15:00 AM 10.95 51.71 0.255 7.25 15.15 10.66
10/31/2022 9:30:00 AM 10.93 51.674 0.257 7.25 16.23 10.81
10/31/2022 9:45:00 AM 11.06 51.908 0.257 7.27 32.17 10.89
10/31/2022 10:00:00 AM 11.12 52.016 0.256 7.29 14.56 11.04
10/31/2022 10:15:00 AM 11.27 52.286 0.256 7.32 15.46 11.19
10/31/2022 10:30:00 AM 11.43 52.574 0.255 7.34 34.34 11.35
10/31/2022 10:45:00 AM 11.54 52.772 0.255 7.38 25 11.45
10/31/2022 11:00:00 AM 11.7 53.06 0.255 7.4 23.85 11.57
10/31/2022 11:15:00 AM 11.86 53.348 0.254 7.43 12.4 11.66
10/31/2022 11:30:00 AM 12.06 53.708 0.254 7.46 21.71 11.74
10/31/2022 11:45:00 AM 12.24 54.032 0.255 7.49 11.97 11.82
10/31/2022 12:00:00 PM 12.34 54.212 0.256 7.52 20.34 11.86
10/31/2022 12:15:00 PM 12.42 54.356 0.256 7.55 21.48 11.83
10/31/2022 12:30:00 PM 12.49 54.482 0.256 7.58 23.21 11.7
10/31/2022 12:45:00 PM 12.44 54.392 0.256 7.58 11.03 11.66
10/31/2022 1:00:00 PM 12.5 54.5 0.255 7.59 16.16 11.59
10/31/2022 1:15:00 PM 12.5 54.5 0.255 7.61 12 11.6
10/31/2022 1:30:00 PM 12.62 54.716 0.255 7.63 10.72 11.74
10/31/2022 1:45:00 PM 12.7 54.86 0.255 7.65 11.68 11.81
10/31/2022 2:00:00 PM 12.73 54.914 0.255 7.67 16.26 11.87
10/31/2022 2:15:00 PM 12.75 54.95 0.257 7.69 12.69 11.86
10/31/2022 2:30:00 PM 12.73 54.914 0.258 7.71 14.59 11.84
10/31/2022 2:45:00 PM 12.74 54.932 0.258 7.72 10.81 11.74
10/31/2022 3:00:00 PM 12.71 54.878 0.259 7.73 10.58 11.62
10/31/2022 3:15:00 PM 12.71 54.878 0.258 7.72 11.82 11.47
10/31/2022 3:30:00 PM 12.75 54.95 0.258 7.71 16.7 11.35
10/31/2022 3:45:00 PM 12.75 54.95 0.257 7.7 14.89 11.26
10/31/2022 4:00:00 PM 12.69 54.842 0.257 7.69 14.77 11.22
10/31/2022 4:15:00 PM 12.68 54.824 0.257 7.68 14.63 11.14
10/31/2022 4:30:00 PM 12.68 54.824 0.257 7.66 16.18 11.07
10/31/2022 4:45:00 PM 12.64 54.752 0.258 7.64 26.74 10.97
10/31/2022 5:00:00 PM 12.52 54.536 0.26 7.62 16.33 10.86
10/31/2022 5:15:00 PM 12.53 54.554 0.26 7.59 17.8 10.74
10/31/2022 5:30:00 PM 12.47 54.446 0.259 7.57 17.72 10.69
10/31/2022 5:45:00 PM 12.48 54.464 0.259 7.54 11.63 10.57
10/31/2022 6:00:00 PM 12.46 54.428 0.258 7.52 17.4 10.47
10/31/2022 6:15:00 PM 12.46 54.428 0.258 7.5 12.05 10.35
10/31/2022 6:30:00 PM 12.42 54.356 0.258 7.47 12.94 10.27
10/31/2022 6:45:00 PM 12.34 54.212 0.257 7.44 15.88 10.22
10/31/2022 7:00:00 PM 12.32 54.176 0.258 7.42 28.54 10.14
10/31/2022 7:15:00 PM 12.33 54.194 0.259 7.4 15.37 10.09
10/31/2022 7:30:00 PM 12.26 54.068 0.26 7.38 13.06 10.07
10/31/2022 7:45:00 PM 12.24 54.032 0.26 7.36 14.64 10.01
10/31/2022 8:00:00 PM 12.26 54.068 0.26 7.35 12.88 9.96
10/31/2022 8:15:00 PM 12.2 53.96 0.259 7.33 16.89 9.94
10/31/2022 8:30:00 PM 12.17 53.906 0.259 7.33 12.46 9.95
10/31/2022 8:45:00 PM 12.16 53.888 0.258 7.3 14.48 9.9
10/31/2022 9:00:00 PM 12.17 53.906 0.258 7.29 22.69 9.89
10/31/2022 9:15:00 PM 12.16 53.888 0.258 7.29 15.52 9.88
10/31/2022 9:30:00 PM 12.18 53.924 0.259 7.26 24.66 9.86
10/31/2022 9:45:00 PM 12.17 53.906 0.26 7.26 13.71 9.84
10/31/2022 10:00:00 PM 12.15 53.87 0.26 7.25 13.07 9.84
10/31/2022 10:15:00 PM 12.18 53.924 0.26 7.25 14.15 9.82
10/31/2022 10:30:00 PM 12.19 53.942 0.259 7.24 19.68 9.81
10/31/2022 10:45:00 PM 12.19 53.942 0.258 7.23 17.32 9.8
10/31/2022 11:00:00 PM 12.18 53.924 0.257 7.23 15.29 9.79
10/31/2022 11:15:00 PM 12.25 54.05 0.257 7.22 21.91 9.77
10/31/2022 11:30:00 PM 12.24 54.032 0.256 7.21 20.56 9.76
10/31/2022 11:45:00 PM 12.28 54.104 0.256 7.21 19.78 9.76
11/1/2022 12:00:00 AM 12.22 53.996 0.257 7.21 20.97 9.77
11/1/2022 12:15:00 AM 12.25 54.05 0.258 7.2 17.34 9.74
11/1/2022 12:30:00 AM 12.26 54.068 0.257 7.2 17.16 9.74
11/1/2022 12:45:00 AM 12.24 54.032 0.257 7.18 25.12 9.72
11/1/2022 1:00:00 AM 12.31 54.158 0.257 7.18 13.25 9.73
11/1/2022 1:15:00 AM 12.29 54.122 0.256 7.18 16.27 9.71
11/1/2022 1:30:00 AM 12.35 54.23 0.255 7.17 14.23 9.69
11/1/2022 1:45:00 AM 12.3 54.14 0.255 7.17 30.15 9.71
11/1/2022 2:00:00 AM 12.34 54.212 0.256 7.17 31.21 9.68
11/1/2022 2:15:00 AM 12.31 54.158 0.257 7.17 21.43 9.68
11/1/2022 2:30:00 AM 12.33 54.194 0.258 7.16 15.56 9.66
11/1/2022 2:45:00 AM 12.3 54.14 0.258 7.16 17.01 9.65
11/1/2022 3:00:00 AM 12.34 54.212 0.258 7.15 19.25 9.67
11/1/2022 3:15:00 AM 12.29 54.122 0.257 7.15 15.54 9.67
11/1/2022 3:30:00 AM 12.32 54.176 0.257 7.15 14.49 9.65
11/1/2022 3:45:00 AM 12.32 54.176 0.257 7.14 14.02 9.65
11/1/2022 4:00:00 AM 12.32 54.176 0.257 7.14 13.32 9.67
11/1/2022 4:15:00 AM 12.36 54.248 0.257 7.14 12.31 9.65
11/1/2022 4:30:00 AM 12.34 54.212 0.258 7.14 12.73 9.65
11/1/2022 4:45:00 AM 12.36 54.248 0.259 7.14 12.88 9.63
11/1/2022 5:00:00 AM 12.31 54.158 0.26 7.14 12.57 9.66
11/1/2022 5:15:00 AM 12.33 54.194 0.26 7.14 12.93 9.62
11/1/2022 5:30:00 AM 12.34 54.212 0.26 7.14 14.1 9.64
11/1/2022 5:45:00 AM 12.32 54.176 0.259 7.13 14.55 9.63
11/1/2022 6:00:00 AM 12.33 54.194 0.259 7.13 13.91 9.63
11/1/2022 6:15:00 AM 12.31 54.158 0.258 7.14 15.49 9.63
11/1/2022 6:30:00 AM 12.34 54.212 0.258 7.14 13.36 9.63
11/1/2022 6:45:00 AM 12.38 54.284 0.258 7.13 14.63 9.62
11/1/2022 7:00:00 AM 12.37 54.266 0.259 7.14 12.85 9.62
11/1/2022 7:15:00 AM 12.37 54.266 0.26 7.13 14.85 9.62
11/1/2022 7:30:00 AM 12.37 54.266 0.26 7.13 14.56 9.62
11/1/2022 7:45:00 AM 12.38 54.284 0.259 7.14 21.31 9.62
11/1/2022 8:00:00 AM 12.38 54.284 0.259 7.14 13.86 9.64
11/1/2022 8:15:00 AM 12.37 54.266 0.259 7.14 12.62 9.68
11/1/2022 8:30:00 AM 12.39 54.302 0.258 7.14 11.59 9.74
11/1/2022 8:45:00 AM 12.41 54.338 0.258 7.14 12.26 9.79
11/1/2022 9:00:00 AM 12.45 54.41 0.258 7.15 15.12 9.83
11/1/2022 9:15:00 AM 12.45 54.41 0.258 7.16 15.75 9.9
11/1/2022 9:30:00 AM 12.48 54.464 0.26 7.17 12.03 10.02
11/1/2022 9:45:00 AM 12.55 54.59 0.26 7.19 10.78 10.21
11/1/2022 10:00:00 AM 12.63 54.734 0.259 7.21 10.19 10.43
11/1/2022 10:15:00 AM 12.75 54.95 0.259 7.24 11.01 10.69
11/1/2022 10:30:00 AM 12.92 55.256 0.258 7.28 9.98 10.93
11/1/2022 10:45:00 AM 13.02 55.436 0.258 7.31 10.27 11.13
11/1/2022 11:00:00 AM 13.09 55.562 0.257 7.35 9.47 11.22
11/1/2022 11:15:00 AM 13.14 55.652 0.257 7.37 9.63 11.33
11/1/2022 11:30:00 AM 13.25 55.85 0.257 7.41 11.28 11.4
11/1/2022 11:45:00 AM 13.4 56.12 0.257 7.45 10.91 11.5
11/1/2022 12:00:00 PM 13.56 56.408 0.258 7.49 10.92 11.56
11/1/2022 12:15:00 PM 13.78 56.804 0.259 7.54 10.89 11.63
11/1/2022 12:30:00 PM 13.94 57.092 0.258 7.58 10.46 11.73
11/1/2022 12:45:00 PM 13.99 57.182 0.257 7.61 10.66 11.79
11/1/2022 1:00:00 PM 14.06 57.308 0.257 7.66 8.93 11.8
11/1/2022 1:15:00 PM 14.2 57.56 0.256 7.7 8.73 11.82
11/1/2022 1:30:00 PM 14.31 57.758 0.256 7.73 8.81 11.89
11/1/2022 1:45:00 PM 14.48 58.064 0.256 7.76 9.02 11.84
11/1/2022 2:00:00 PM 14.6 58.28 0.256 7.79 10.41 11.82
11/1/2022 2:15:00 PM 14.62 58.316 0.257 7.81 9.49 11.69
11/1/2022 2:30:00 PM 14.64 58.352 0.258 7.83 11.3 11.58
11/1/2022 2:45:00 PM 14.66 58.388 0.259 7.83 10.8 11.44
11/1/2022 3:00:00 PM 14.67 58.406 0.258 7.83 8.54 11.44
11/1/2022 3:15:00 PM 14.61 58.298 0.258 7.84 9.19 11.35
11/1/2022 3:30:00 PM 14.65 58.37 0.257 7.85 9 11.32
11/1/2022 3:45:00 PM 14.66 58.388 0.257 7.85 27.33 11.3
11/1/2022 4:00:00 PM 14.62 58.316 0.256 7.85 7.16 11.24
11/1/2022 4:15:00 PM 14.56 58.208 0.256 7.84 7.23 11.04
11/1/2022 4:30:00 PM 14.54 58.172 0.257 7.82 7.18 11.03
11/1/2022 4:45:00 PM 14.49 58.082 0.258 7.81 7.19 11
11/1/2022 5:00:00 PM 14.42 57.956 0.259 7.8 8.63 10.91
11/1/2022 5:15:00 PM 14.33 57.794 0.259 7.78 7.77 10.76
11/1/2022 5:30:00 PM 14.24 57.632 0.259 7.76 7.68 10.6
11/1/2022 5:45:00 PM 14.13 57.434 0.259 7.72 7.71 10.48
11/1/2022 6:00:00 PM 14.06 57.308 0.258 7.68 7.83 10.35
11/1/2022 6:15:00 PM 13.96 57.128 0.258 7.65 7.37 10.24
11/1/2022 6:30:00 PM 13.88 56.984 0.257 7.61 7.45 10.1
11/1/2022 6:45:00 PM 13.8 56.84 0.257 7.58 7.53 9.98
11/1/2022 7:00:00 PM 13.72 56.696 0.258 7.54 7.15 9.91
11/1/2022 7:15:00 PM 13.63 56.534 0.259 7.51 7.44 9.84
11/1/2022 7:30:00 PM 13.54 56.372 0.26 7.48 8.89 9.77
11/1/2022 7:45:00 PM 13.45 56.21 0.26 7.45 8.63 9.73
11/1/2022 8:00:00 PM 13.35 56.03 0.26 7.43 8 9.69
11/1/2022 8:15:00 PM 13.26 55.868 0.259 7.4 8.49 9.65
11/1/2022 8:30:00 PM 13.17 55.706 0.258 7.38 8.2 9.63
11/1/2022 8:45:00 PM 13.09 55.562 0.258 7.36 8.41 9.61
11/1/2022 9:00:00 PM 13.01 55.418 0.258 7.34 8.38 9.63
11/1/2022 9:15:00 PM 12.93 55.274 0.258 7.32 8.55 9.64
11/1/2022 9:30:00 PM 12.87 55.166 0.259 7.3 9.78 9.63
11/1/2022 9:45:00 PM 12.81 55.058 0.26 7.29 10.67 9.62
11/1/2022 10:00:00 PM 12.76 54.968 0.26 7.28 9.27 9.63
11/1/2022 10:15:00 PM 12.69 54.842 0.259 7.27 10.29 9.64
11/1/2022 10:30:00 PM 12.65 54.77 0.259 7.26 9.47 9.65
11/1/2022 10:45:00 PM 12.59 54.662 0.258 7.26 9.48 9.65
11/1/2022 11:00:00 PM 12.56 54.608 0.257 7.24 9.73 9.65
11/1/2022 11:15:00 PM 12.52 54.536 0.257 7.24 8.99 9.64
11/1/2022 11:30:00 PM 12.5 54.5 0.256 7.23 9.21 9.66
11/1/2022 11:45:00 PM 12.47 54.446 0.257 7.22 9.65 9.66
11/2/2022 12:00:00 AM 12.47 54.446 0.258 7.22 10 9.64
11/2/2022 12:15:00 AM 12.44 54.392 0.259 7.21 9.92 9.65
11/2/2022 12:30:00 AM 12.41 54.338 0.259 7.21 9.72 9.65
11/2/2022 12:45:00 AM 12.38 54.284 0.258 7.2 9.93 9.65
11/2/2022 1:00:00 AM 12.34 54.212 0.258 7.21 10.69 9.64
11/2/2022 1:15:00 AM 12.31 54.158 0.257 7.21 10.86 9.67
11/2/2022 1:30:00 AM 12.28 54.104 0.256 7.2 9.75 9.66
11/2/2022 1:45:00 AM 12.27 54.086 0.256 7.2 10.14 9.66
11/2/2022 2:00:00 AM 12.24 54.032 0.256 7.19 9.1 9.69
11/2/2022 2:15:00 AM 12.22 53.996 0.257 7.19 9.41 9.68
11/2/2022 2:30:00 AM 12.21 53.978 0.258 7.2 9.15 9.68
11/2/2022 2:45:00 AM 12.21 53.978 0.258 7.19 9.2 9.68
11/2/2022 3:00:00 AM 12.18 53.924 0.259 7.19 9.58 9.67
11/2/2022 3:15:00 AM 12.15 53.87 0.259 7.19 9.8 9.7
11/2/2022 3:30:00 AM 12.12 53.816 0.258 7.19 9.78 9.68
11/2/2022 3:45:00 AM 12.08 53.744 0.258 7.19 10.84 9.71
11/2/2022 4:00:00 AM 12.05 53.69 0.257 7.18 10.77 9.7
11/2/2022 4:15:00 AM 12.02 53.636 0.257 7.19 12.71 9.72
11/2/2022 4:30:00 AM 11.99 53.582 0.257 7.18 11.44 9.74
11/2/2022 4:45:00 AM 11.97 53.546 0.258 7.19 11 9.73
11/2/2022 5:00:00 AM 11.93 53.474 0.259 7.19 10.02 9.74
11/2/2022 5:15:00 AM 11.9 53.42 0.259 7.18 11.05 9.76
11/2/2022 5:30:00 AM 11.87 53.366 0.259 7.18 11.66 9.74
11/2/2022 5:45:00 AM 11.85 53.33 0.259 7.18 12.7 9.76
11/2/2022 6:00:00 AM 11.8 53.24 0.258 7.2 10.56 9.76
11/2/2022 6:15:00 AM 11.77 53.186 0.258 7.19 11.17 9.77
11/2/2022 6:30:00 AM 11.73 53.114 0.257 7.19 12.17 9.78
11/2/2022 6:45:00 AM 11.71 53.078 0.257 7.19 13.33 9.78
11/2/2022 7:00:00 AM 11.67 53.006 0.258 7.19 11.45 9.8
11/2/2022 7:15:00 AM 11.63 52.934 0.259 7.18 11.84 9.8
11/2/2022 7:30:00 AM 11.59 52.862 0.26 7.18 10.87 9.79
11/2/2022 7:45:00 AM 11.55 52.79 0.259 7.18 12.1 9.83
11/2/2022 8:00:00 AM 11.52 52.736 0.259 7.18 12.94 9.84
11/2/2022 8:15:00 AM 11.49 52.682 0.258 7.17 12.8 9.9
11/2/2022 8:30:00 AM 11.48 52.664 0.258 7.17 12.61 9.97
11/2/2022 8:45:00 AM 11.49 52.682 0.257 7.19 13.91 10.07
11/2/2022 9:00:00 AM 11.5 52.7 0.257 7.19 13.16 10.19
11/2/2022 9:15:00 AM 11.54 52.772 0.257 7.22 12.49 10.34
11/2/2022 9:30:00 AM 11.6 52.88 0.258 7.23 12.41 10.53
11/2/2022 9:45:00 AM 11.67 53.006 0.259 7.24 13.55 10.69
11/2/2022 10:00:00 AM 11.77 53.186 0.258 7.27 13.78 10.85
11/2/2022 10:15:00 AM 11.89 53.402 0.258 7.3 12.86 11.02
11/2/2022 10:30:00 AM 12.01 53.618 0.257 7.34 11.65 11.16
11/2/2022 10:45:00 AM 12.15 53.87 0.257 7.37 14.78 11.33
11/2/2022 11:00:00 AM 12.3 54.14 0.256 7.42 13.68 11.45
11/2/2022 11:15:00 AM 12.45 54.41 0.256 7.45 13.81 11.53
11/2/2022 11:30:00 AM 12.59 54.662 0.255 7.49 12.28 11.64
11/2/2022 11:45:00 AM 12.77 54.986 0.256 7.53 11.43 11.72
11/2/2022 12:00:00 PM 12.93 55.274 0.256 7.57 12.18 11.8
11/2/2022 12:15:00 PM 13.12 55.616 0.257 7.62 11.82 11.9
11/2/2022 12:30:00 PM 13.29 55.922 0.257 7.67 14.72 11.97
11/2/2022 12:45:00 PM 13.49 56.282 0.256 7.71 9.79 12.01
11/2/2022 1:00:00 PM 13.68 56.624 0.256 7.76 12.43 12.04
11/2/2022 1:15:00 PM 13.84 56.912 0.255 7.81 11.45 12.13
11/2/2022 1:30:00 PM 14.04 57.272 0.255 7.85 12.09 12.11
11/2/2022 1:45:00 PM 14.16 57.488 0.254 7.88 9.92 12.13
11/2/2022 2:00:00 PM 14.31 57.758 0.254 7.91 10.37 12.1
11/2/2022 2:15:00 PM 14.41 57.938 0.255 7.94 8.59 12.1
11/2/2022 2:30:00 PM 14.45 58.01 0.257 7.98 8.04 12.08
11/2/2022 2:45:00 PM 14.46 58.028 0.257 8.01 10.16 12.01
11/2/2022 3:00:00 PM 14.51 58.118 0.257 8.03 12.26 11.97
11/2/2022 3:15:00 PM 14.5 58.1 0.257 8.05 11.79 11.93
11/2/2022 3:30:00 PM 14.5 58.1 0.256 8.07 13.42 11.91
11/2/2022 3:45:00 PM 14.5 58.1 0.255 8.09 9.61 11.8
11/2/2022 4:00:00 PM 14.48 58.064 0.255 8.1 10.46 11.77
11/2/2022 4:15:00 PM 14.44 57.992 0.255 8.1 10.29 11.71
11/2/2022 4:30:00 PM 14.4 57.92 0.255 8.1 10.73 11.59
11/2/2022 4:45:00 PM 14.31 57.758 0.256 8.08 9.72 11.52
11/2/2022 5:00:00 PM 14.21 57.578 0.257 8.07 8.82 11.45
11/2/2022 5:15:00 PM 14.15 57.47 0.257 8.06 8.46 11.29
11/2/2022 5:30:00 PM 14.06 57.308 0.257 8.03 9.72 11.12
11/2/2022 5:45:00 PM 13.96 57.128 0.257 7.99 9.38 10.94
11/2/2022 6:00:00 PM 13.86 56.948 0.257 7.95 8.37 10.76
11/2/2022 6:15:00 PM 13.75 56.75 0.256 7.9 9.36 10.6
11/2/2022 6:30:00 PM 13.65 56.57 0.256 7.85 8.47 10.46
11/2/2022 6:45:00 PM 13.53 56.354 0.256 7.79 8.67 10.32
11/2/2022 7:00:00 PM 13.42 56.156 0.257 7.74 8.34 10.21
11/2/2022 7:15:00 PM 13.31 55.958 0.259 7.69 8.9 10.13
11/2/2022 7:30:00 PM 13.21 55.778 0.259 7.65 9.03 10.07
11/2/2022 7:45:00 PM 13.11 55.598 0.259 7.61 9.29 10.01
11/2/2022 8:00:00 PM 13.02 55.436 0.259 7.57 8.33 9.97
11/2/2022 8:15:00 PM 12.92 55.256 0.259 7.54 13.99 9.91
11/2/2022 8:30:00 PM 12.82 55.076 0.258 7.5 9.8 9.9
11/2/2022 8:45:00 PM 12.72 54.896 0.258 7.47 9.56 9.87
11/2/2022 9:00:00 PM 12.62 54.716 0.257 7.45 8.64 9.85
11/2/2022 9:15:00 PM 12.52 54.536 0.257 7.43 9.16 9.86
11/2/2022 9:30:00 PM 12.44 54.392 0.258 7.4 8.26 9.85
11/2/2022 9:45:00 PM 12.35 54.23 0.26 7.39 8.92 9.85
11/2/2022 10:00:00 PM 12.27 54.086 0.26 7.37 9.02 9.85
11/2/2022 10:15:00 PM 12.19 53.942 0.26 7.36 8.41 9.85
11/2/2022 10:30:00 PM 12.12 53.816 0.259 7.34 11.59 9.86
11/2/2022 10:45:00 PM 12.06 53.708 0.258 7.32 12.35 9.87
11/2/2022 11:00:00 PM 12.01 53.618 0.257 7.33 8.58 9.88
11/2/2022 11:15:00 PM 11.95 53.51 0.257 7.31 9.14 9.88
11/2/2022 11:30:00 PM 11.9 53.42 0.256 7.3 8.61 9.89
11/2/2022 11:45:00 PM 11.85 53.33 0.257 7.29 8.21 9.91
11/3/2022 12:00:00 AM 11.82 53.276 0.258 7.28 8.46 9.92
11/3/2022 12:15:00 AM 11.78 53.204 0.259 7.28 8.04 9.92
11/3/2022 12:30:00 AM 11.75 53.15 0.259 7.27 8.77 9.91
11/3/2022 12:45:00 AM 11.71 53.078 0.258 7.27 8.63 9.92
11/3/2022 1:00:00 AM 11.68 53.024 0.258 7.27 8.21 9.92
11/3/2022 1:15:00 AM 11.65 52.97 0.257 7.28 9.51 9.92
11/3/2022 1:30:00 AM 11.62 52.916 0.256 7.26 8.5 9.92
11/3/2022 1:45:00 AM 11.6 52.88 0.256 7.26 9.8 9.94
11/3/2022 2:00:00 AM 11.58 52.844 0.256 7.26 8.91 9.93
11/3/2022 2:15:00 AM 11.56 52.808 0.257 7.26 8.7 9.94
11/3/2022 2:30:00 AM 11.53 52.754 0.258 7.25 8.92 9.94
11/3/2022 2:45:00 AM 11.51 52.718 0.259 7.24 9.16 9.94
11/3/2022 3:00:00 AM 11.49 52.682 0.259 7.24 9.46 9.94
11/3/2022 3:15:00 AM 11.47 52.646 0.259 7.24 9.06 9.93
11/3/2022 3:30:00 AM 11.44 52.592 0.258 7.24 8.88 9.95
11/3/2022 3:45:00 AM 11.42 52.556 0.257 7.24 9.72 9.95
11/3/2022 4:00:00 AM 11.4 52.52 0.257 7.23 8.41 9.95
11/3/2022 4:15:00 AM 11.38 52.484 0.256 7.23 8.48 9.96
11/3/2022 4:30:00 AM 11.35 52.43 0.256 7.23 26.64 9.98
11/3/2022 4:45:00 AM 11.32 52.376 0.258 7.23 10.09 9.98
11/3/2022 5:00:00 AM 11.29 52.322 0.259 7.22 9.1 9.99
11/3/2022 5:15:00 AM 11.26 52.268 0.259 7.24 21 10
11/3/2022 5:30:00 AM 11.23 52.214 0.259 7.23 15.16 9.99
11/3/2022 5:45:00 AM 11.19 52.142 0.259 7.24 11.75 9.99
11/3/2022 6:00:00 AM 11.16 52.088 0.258 7.22 12.74 10
11/3/2022 6:15:00 AM 11.13 52.034 0.258 7.21 10.19 10.01
11/3/2022 6:30:00 AM 11.09 51.962 0.257 7.21 11.81 10.02
11/3/2022 6:45:00 AM 11.07 51.926 0.257 7.21 11.58 10.01
11/3/2022 7:00:00 AM 11.03 51.854 0.257 7.22 11.61 10.03
11/3/2022 7:15:00 AM 10.99 51.782 0.259 7.22 10.96 10.05
11/3/2022 7:30:00 AM 10.94 51.692 0.259 7.22 14.74 10.06
11/3/2022 7:45:00 AM 10.9 51.62 0.259 7.22 14.02 10.07
11/3/2022 8:00:00 AM 10.86 51.548 0.259 7.22 10.66 10.09
11/3/2022 8:15:00 AM 10.84 51.512 0.258 7.22 10.54 10.14
11/3/2022 8:30:00 AM 10.83 51.494 0.258 7.22 10.11 10.22
11/3/2022 8:45:00 AM 10.82 51.476 0.257 7.23 9.93 10.31
11/3/2022 9:00:00 AM 10.82 51.476 0.257 7.24 9.51 10.44
11/3/2022 9:15:00 AM 10.85 51.53 0.257 7.26 9.12 10.57
11/3/2022 9:30:00 AM 10.91 51.638 0.257 7.27 9.14 10.74
11/3/2022 9:45:00 AM 10.95 51.71 0.258 7.29 9.25 10.93
11/3/2022 10:00:00 AM 11.03 51.854 0.258 7.32 9.62 11.08
11/3/2022 10:15:00 AM 11.15 52.07 0.258 7.35 9.5 11.24
11/3/2022 10:30:00 AM 11.27 52.286 0.257 7.36 9.49 11.39
11/3/2022 10:45:00 AM 11.41 52.538 0.257 7.41 10.03 11.56
11/3/2022 11:00:00 AM 11.56 52.808 0.256 7.45 9.72 11.67
11/3/2022 11:15:00 AM 11.72 53.096 0.256 7.48 12.8 11.76
11/3/2022 11:30:00 AM 11.89 53.402 0.255 7.53 9.42 11.86
11/3/2022 11:45:00 AM 12.05 53.69 0.255 7.56 8.84 11.96
11/3/2022 12:00:00 PM 12.23 54.014 0.256 7.6 8.91 12.03
11/3/2022 12:15:00 PM 12.42 54.356 0.257 7.65 8.91 12.11
11/3/2022 12:30:00 PM 12.62 54.716 0.257 7.69 8.45 12.17
11/3/2022 12:45:00 PM 12.82 55.076 0.256 7.74 9.39 12.24
11/3/2022 1:00:00 PM 13.06 55.508 0.256 7.79 8.72 12.25
11/3/2022 1:15:00 PM 13.21 55.778 0.255 7.84 9.02 12.3
11/3/2022 1:30:00 PM 13.38 56.084 0.255 7.88 10.62 12.31
11/3/2022 1:45:00 PM 13.54 56.372 0.255 7.92 9.1 12.32
11/3/2022 2:00:00 PM 13.71 56.678 0.255 7.95 13.39 12.28
11/3/2022 2:15:00 PM 13.84 56.912 0.255 7.98 9.11 12.22
11/3/2022 2:30:00 PM 13.91 57.038 0.257 8.01 10.69 12.22
11/3/2022 2:45:00 PM 13.94 57.092 0.258 8.03 8.83 12.21
11/3/2022 3:00:00 PM 14.02 57.236 0.258 8.06 8.41 12.16
11/3/2022 3:15:00 PM 14.04 57.272 0.257 8.08 8.71 12.09
11/3/2022 3:30:00 PM 14.03 57.254 0.257 8.09 9.93 12.05
11/3/2022 3:45:00 PM 14.04 57.272 0.256 8.1 9.29 11.94
11/3/2022 4:00:00 PM 14.01 57.218 0.256 8.11 9.72 11.84
11/3/2022 4:15:00 PM 13.99 57.182 0.256 8.1 10.53 11.74
11/3/2022 4:30:00 PM 13.94 57.092 0.256 8.09 9.05 11.57
11/3/2022 4:45:00 PM 13.84 56.912 0.257 8.07 9.66 11.4
11/3/2022 5:00:00 PM 13.74 56.732 0.258 8.05 9.53 11.26
11/3/2022 5:15:00 PM 13.63 56.534 0.259 8 10.3 11.13
11/3/2022 5:30:00 PM 13.53 56.354 0.259 7.97 9.58 10.97
11/3/2022 5:45:00 PM 13.45 56.21 0.258 7.93 9.29 10.85
11/3/2022 6:00:00 PM 13.35 56.03 0.258 7.88 9.27 10.7
11/3/2022 6:15:00 PM 13.22 55.796 0.258 7.83 9.75 10.56
11/3/2022 6:30:00 PM 13.13 55.634 0.257 7.79 9.7 10.47
11/3/2022 6:45:00 PM 13.02 55.436 0.257 7.74 9.38 10.35
11/3/2022 7:00:00 PM 12.92 55.256 0.257 7.7 9.1 10.27
11/3/2022 7:15:00 PM 12.8 55.04 0.259 7.66 9.69 10.21
11/3/2022 7:30:00 PM 12.69 54.842 0.26 7.62 9.24 10.18
11/3/2022 7:45:00 PM 12.59 54.662 0.26 7.59 9.49 10.15
11/3/2022 8:00:00 PM 12.5 54.5 0.259 7.55 9.49 10.09
11/3/2022 8:15:00 PM 12.43 54.374 0.259 7.53 10.79 10.07
11/3/2022 8:30:00 PM 12.34 54.212 0.258 7.5 10.21 10.03
11/3/2022 8:45:00 PM 12.25 54.05 0.258 7.47 9.69 10
11/3/2022 9:00:00 PM 12.18 53.924 0.257 7.46 11.9 10
11/3/2022 9:15:00 PM 12.09 53.762 0.258 7.44 9.71 9.98
11/3/2022 9:30:00 PM 12 53.6 0.259 7.41 10.05 10.01
11/3/2022 9:45:00 PM 11.92 53.456 0.26 7.4 9.01 9.97
11/3/2022 10:00:00 PM 11.84 53.312 0.261 7.38 14.92 10.01
11/3/2022 10:15:00 PM 11.77 53.186 0.261 7.36 11.3 10
11/3/2022 10:30:00 PM 11.7 53.06 0.261 7.35 11.97 9.99
11/3/2022 10:45:00 PM 11.65 52.97 0.26 7.33 11.98 10
11/3/2022 11:00:00 PM 11.59 52.862 0.26 7.33 10.77 10
11/3/2022 11:15:00 PM 11.56 52.808 0.259 7.3 10.64 10.01
11/3/2022 11:30:00 PM 11.5 52.7 0.259 7.31 10.85 10.02
11/3/2022 11:45:00 PM 11.49 52.682 0.259 7.3 11.83 10.02
11/4/2022 12:00:00 AM 11.44 52.592 0.26 7.28 12.49 10.03
11/4/2022 12:15:00 AM 11.42 52.556 0.26 7.28 11.08 10.01
11/4/2022 12:30:00 AM 11.38 52.484 0.26 7.27 10.58 10.01
11/4/2022 12:45:00 AM 11.36 52.448 0.26 7.27 10.36 10.04
11/4/2022 1:00:00 AM 11.36 52.448 0.26 7.27 10.67 10.02
11/4/2022 1:15:00 AM 11.32 52.376 0.259 7.27 12.82 10.02
11/4/2022 1:30:00 AM 11.32 52.376 0.259 7.26 11.05 10.03
11/4/2022 1:45:00 AM 11.3 52.34 0.258 7.26 12.87 10.02
11/4/2022 2:00:00 AM 11.3 52.34 0.257 7.25 11.83 10.02
11/4/2022 2:15:00 AM 11.29 52.322 0.258 7.26 11.26 10.03
11/4/2022 2:30:00 AM 11.26 52.268 0.259 7.24 11.68 10.03
11/4/2022 2:45:00 AM 11.25 52.25 0.26 7.26 13.28 10.03
11/4/2022 3:00:00 AM 11.24 52.232 0.26 7.25 11.5 10.02
11/4/2022 3:15:00 AM 11.22 52.196 0.26 7.26 13.07 10.05
11/4/2022 3:30:00 AM 11.22 52.196 0.26 7.26 11.93 10.03
11/4/2022 3:45:00 AM 11.19 52.142 0.26 7.25 10.61 10.03
11/4/2022 4:00:00 AM 11.2 52.16 0.259 7.25 13.89 10.01
11/4/2022 4:15:00 AM 11.18 52.124 0.258 7.24 10.33 10.04
11/4/2022 4:30:00 AM 11.19 52.142 0.258 7.25 11.07 10.02
11/4/2022 4:45:00 AM 11.15 52.07 0.259 7.23 15.91 10.04
11/4/2022 5:00:00 AM 11.14 52.052 0.26 7.23 10.59 10.03
11/4/2022 5:15:00 AM 11.1 51.98 0.261 7.23 11.72 10.04
11/4/2022 5:30:00 AM 11.08 51.944 0.261 7.23 11.15 10.04
11/4/2022 5:45:00 AM 11.05 51.89 0.261 7.22 10.84 10.06
11/4/2022 6:00:00 AM 11.03 51.854 0.26 7.22 11.28 10.05
11/4/2022 6:15:00 AM 11.02 51.836 0.26 7.22 10.9 10.05
11/4/2022 6:30:00 AM 11.04 51.872 0.259 7.23 11.31 10.04
11/4/2022 6:45:00 AM 11.04 51.872 0.259 7.22 13.1 10.05
11/4/2022 7:00:00 AM 11.03 51.854 0.259 7.22 16.46 10.06
11/4/2022 7:15:00 AM 11.03 51.854 0.26 7.21 15.12 10.07
11/4/2022 7:30:00 AM 11.01 51.818 0.261 7.21 13.22 10.07
11/4/2022 7:45:00 AM 11.01 51.818 0.261 7.23 11.4 10.06
11/4/2022 8:00:00 AM 11.02 51.836 0.26 7.22 13.76 10.08
11/4/2022 8:15:00 AM 11.04 51.872 0.26 7.22 11.71 10.16
11/4/2022 8:30:00 AM 11.06 51.908 0.259 7.22 13.93 10.23
11/4/2022 8:45:00 AM 11.09 51.962 0.259 7.23 12.84 10.36
11/4/2022 9:00:00 AM 11.13 52.034 0.258 7.25 12.23 10.51
11/4/2022 9:15:00 AM 11.19 52.142 0.258 7.28 12.12 10.66
11/4/2022 9:30:00 AM 11.26 52.268 0.258 7.28 9.78 10.82
11/4/2022 9:45:00 AM 11.33 52.394 0.26 7.29 9.03 10.99
11/4/2022 10:00:00 AM 11.39 52.502 0.26 7.31 10.68 11.16
11/4/2022 10:15:00 AM 11.47 52.646 0.259 7.35 9.94 11.33
11/4/2022 10:30:00 AM 11.6 52.88 0.258 7.38 9.67 11.5
11/4/2022 10:45:00 AM 11.72 53.096 0.259 7.42 9.68 11.75
11/4/2022 11:00:00 AM 11.84 53.312 0.259 7.48 8.68 11.92
11/4/2022 11:15:00 AM 11.98 53.564 0.259 7.53 9.48 12.07
11/4/2022 11:30:00 AM 12.18 53.924 0.258 7.6 9.54 12.19
11/4/2022 11:45:00 AM 12.36 54.248 0.257 7.67 9.12 12.31
11/4/2022 12:00:00 PM 12.58 54.644 0.256 7.73 8.94 12.38
11/4/2022 12:15:00 PM 12.79 55.022 0.256 7.78 9.14 12.4
11/4/2022 12:30:00 PM 12.97 55.346 0.255 7.85 11.13 12.49
11/4/2022 12:45:00 PM 13.13 55.634 0.255 7.91 8.96 12.54
11/4/2022 1:00:00 PM 13.35 56.03 0.255 7.96 9.18 12.54
11/4/2022 1:15:00 PM 13.5 56.3 0.255 8 9.04 12.52
11/4/2022 1:30:00 PM 13.64 56.552 0.255 8.04 9.88 12.52
11/4/2022 1:45:00 PM 13.75 56.75 0.255 8.08 9.23 12.48
11/4/2022 2:00:00 PM 14.02 57.236 0.255 8.11 9.1 12.43
11/4/2022 2:15:00 PM 14.16 57.488 0.256 8.14 8.79 12.43
11/4/2022 2:30:00 PM 14.27 57.686 0.257 8.18 8.8 12.42
11/4/2022 2:45:00 PM 14.37 57.866 0.258 8.2 9.32 12.34
11/4/2022 3:00:00 PM 14.43 57.974 0.258 8.23 9.01 12.27
11/4/2022 3:15:00 PM 14.47 58.046 0.258 8.24 9.67 12.24
11/4/2022 3:30:00 PM 14.47 58.046 0.257 8.27 9.36 12.18
11/4/2022 3:45:00 PM 14.5 58.1 0.257 8.27 9.56 12.12
11/4/2022 4:00:00 PM 14.5 58.1 0.257 8.27 8.73 11.97
11/4/2022 4:15:00 PM 14.47 58.046 0.256 8.26 9.06 11.81
11/4/2022 4:30:00 PM 14.38 57.884 0.256 8.24 9.64 11.66
11/4/2022 4:45:00 PM 14.32 57.776 0.256 8.21 8.98 11.48
11/4/2022 5:00:00 PM 14.27 57.686 0.257 8.18 10.07 11.3
11/4/2022 5:15:00 PM 14.17 57.506 0.258 8.14 9.72 11.15
11/4/2022 5:30:00 PM 14.06 57.308 0.259 8.1 9.61 11.02
11/4/2022 5:45:00 PM 13.98 57.164 0.259 8.05 8.92 10.88
11/4/2022 6:00:00 PM 13.88 56.984 0.259 8 9.75 10.69
11/4/2022 6:15:00 PM 13.74 56.732 0.259 7.95 9.17 10.59
11/4/2022 6:30:00 PM 13.64 56.552 0.258 7.9 9.15 10.44
11/4/2022 6:45:00 PM 13.55 56.39 0.258 7.85 9.55 10.34
11/4/2022 7:00:00 PM 13.45 56.21 0.259 7.79 9.7 10.24
11/4/2022 7:15:00 PM 13.35 56.03 0.26 7.75 10.65 10.17
11/4/2022 7:30:00 PM 13.26 55.868 0.261 7.7 10.2 10.08
11/4/2022 7:45:00 PM 13.17 55.706 0.262 7.66 9.76 10.03
11/4/2022 8:00:00 PM 13.06 55.508 0.262 7.62 9.64 9.97
11/4/2022 8:15:00 PM 12.98 55.364 0.261 7.59 8.97 9.93
11/4/2022 8:30:00 PM 12.91 55.238 0.261 7.56 9.38 9.91
11/4/2022 8:45:00 PM 12.84 55.112 0.26 7.52 9.43 9.87
11/4/2022 9:00:00 PM 12.78 55.004 0.26 7.49 9.28 9.85
11/4/2022 9:15:00 PM 12.73 54.914 0.259 7.46 9.88 9.81
11/4/2022 9:30:00 PM 12.67 54.806 0.26 7.45 9.74 9.81
11/4/2022 9:45:00 PM 12.62 54.716 0.261 7.43 9.53 9.8
11/4/2022 10:00:00 PM 12.59 54.662 0.262 7.41 9.65 9.77
11/4/2022 10:15:00 PM 12.54 54.572 0.262 7.4 10.08 9.79
11/4/2022 10:30:00 PM 12.52 54.536 0.262 7.38 11.79 9.77
11/4/2022 10:45:00 PM 12.5 54.5 0.261 7.36 10.02 9.75
11/4/2022 11:00:00 PM 12.49 54.482 0.26 7.36 10.87 9.76
11/4/2022 11:15:00 PM 12.47 54.446 0.26 7.34 10.74 9.75
11/4/2022 11:30:00 PM 12.45 54.41 0.259 7.33 10.33 9.76
11/4/2022 11:45:00 PM 12.44 54.392 0.259 7.32 11.28 9.75
11/5/2022 12:00:00 AM 12.41 54.338 0.261 7.31 11.48 9.73
11/5/2022 12:15:00 AM 12.43 54.374 0.262 7.31 11.01 9.72
11/5/2022 12:30:00 AM 12.42 54.356 0.262 7.29 9.38 9.72
11/5/2022 12:45:00 AM 12.44 54.392 0.261 7.28 9.68 9.74
11/5/2022 1:00:00 AM 12.47 54.446 0.26 7.27 12.33 9.71
11/5/2022 1:15:00 AM 12.49 54.482 0.259 7.27 10.89 9.69
11/5/2022 1:30:00 AM 12.51 54.518 0.258 7.27 9.94 9.69
11/5/2022 1:45:00 AM 12.56 54.608 0.258 7.26 9.27 9.68
11/5/2022 2:00:00 AM 12.6 54.68 0.257 7.26 9.1 9.64
11/5/2022 2:15:00 AM 12.63 54.734 0.257 7.25 92.75 9.65
11/5/2022 2:30:00 AM 12.67 54.806 0.258 7.25 9.73 9.61
11/5/2022 2:45:00 AM 12.71 54.878 0.259 7.24 9.78 9.61
11/5/2022 3:00:00 AM 12.74 54.932 0.26 7.24 10.16 9.58
11/5/2022 3:15:00 AM 12.76 54.968 0.26 7.24 10.4 9.58
11/5/2022 3:30:00 AM 12.78 55.004 0.259 7.25 11.05 9.55
11/5/2022 3:45:00 AM 12.8 55.04 0.259 7.24 11.11 9.57
11/5/2022 4:00:00 AM 12.82 55.076 0.258 7.23 11.51 9.54
11/5/2022 4:15:00 AM 12.86 55.148 0.257 7.24 10.92 9.54
11/5/2022 4:30:00 AM 12.9 55.22 0.257 7.23 11.15 9.54
11/5/2022 4:45:00 AM 12.92 55.256 0.259 7.22 10.04 9.52
11/5/2022 5:00:00 AM 12.92 55.256 0.26 7.23 11.66 9.49
11/5/2022 5:15:00 AM 12.95 55.31 0.26 7.22 12.79 9.5
11/5/2022 5:30:00 AM 12.95 55.31 0.26 7.23 11.18 9.49
11/5/2022 5:45:00 AM 12.97 55.346 0.26 7.23 12.28 9.5
11/5/2022 6:00:00 AM 12.99 55.382 0.259 7.23 11.63 9.47
11/5/2022 6:15:00 AM 13.01 55.418 0.258 7.22 11.17 9.47
11/5/2022 6:30:00 AM 13.03 55.454 0.258 7.22 12.05 9.47
11/5/2022 6:45:00 AM 13.04 55.472 0.258 7.23 12.1 9.45
11/5/2022 7:00:00 AM 13.05 55.49 0.257 7.21 12.47 9.47
11/5/2022 7:15:00 AM 13.07 55.526 0.258 7.21 12.24 9.46
11/5/2022 7:30:00 AM 13.06 55.508 0.26 7.21 13.74 9.45
11/5/2022 7:45:00 AM 13.08 55.544 0.26 7.21 11.26 9.45
11/5/2022 8:00:00 AM 13.1 55.58 0.26 7.21 11.28 9.48
11/5/2022 8:15:00 AM 13.11 55.598 0.259 7.21 10.92 9.54
11/5/2022 8:30:00 AM 13.16 55.688 0.259 7.22 11.1 9.62
11/5/2022 8:45:00 AM 13.18 55.724 0.258 7.23 10.63 9.75
11/5/2022 9:00:00 AM 13.22 55.796 0.258 7.27 11.51 9.89
11/5/2022 9:15:00 AM 13.28 55.904 0.257 7.26 11.37 10.11
11/5/2022 9:30:00 AM 13.4 56.12 0.258 7.3 10.4 10.36
11/5/2022 9:45:00 AM 13.5 56.3 0.259 7.35 14.67 10.65
11/5/2022 10:00:00 AM 13.63 56.534 0.259 7.39 10.7 10.89
11/5/2022 10:15:00 AM 13.74 56.732 0.258 7.44 12.26 11.12
11/5/2022 10:30:00 AM 13.89 57.002 0.257 7.5 14.13 11.28
11/5/2022 10:45:00 AM 14 57.2 0.257 7.54 13.71 11.47
11/5/2022 11:00:00 AM 14.16 57.488 0.256 7.6 13 11.61
11/5/2022 11:15:00 AM 14.31 57.758 0.256 7.68 12.74 11.75
11/5/2022 11:30:00 AM 14.48 58.064 0.255 7.73 11.97 11.85
11/5/2022 11:45:00 AM 14.62 58.316 0.255 7.78 11.79 11.86
11/5/2022 12:00:00 PM 14.77 58.586 0.255 7.84 10.79 11.96
11/5/2022 12:15:00 PM 14.9 58.82 0.256 7.88 11.81 12.01
11/5/2022 12:30:00 PM 15.04 59.072 0.257 7.93 12.68 12.03
11/5/2022 12:45:00 PM 15.21 59.378 0.256 7.99 11.94 12.08
11/5/2022 1:00:00 PM 15.34 59.612 0.256 8.05 10.7 12.12
11/5/2022 1:15:00 PM 15.49 59.882 0.255 8.09 8.23 12.13
11/5/2022 1:30:00 PM 15.63 60.134 0.255 8.14 9.46 12.1
11/5/2022 1:45:00 PM 15.78 60.404 0.255 8.18 9.03 12.1
11/5/2022 2:00:00 PM 15.86 60.548 0.254 8.23 11.2 12
11/5/2022 2:15:00 PM 15.98 60.764 0.255 8.25 7.95 12
11/5/2022 2:30:00 PM 16 60.8 0.257 8.28 7.75 11.93
11/5/2022 2:45:00 PM 16.02 60.836 0.257 8.28 9.12 11.84
11/5/2022 3:00:00 PM 16.01 60.818 0.257 8.3 7.9 11.81
11/5/2022 3:15:00 PM 16.05 60.89 0.257 8.31 8.37 11.79
11/5/2022 3:30:00 PM 16.1 60.98 0.256 8.33 7.94 11.81
11/5/2022 3:45:00 PM 16.15 61.07 0.256 8.35 8.54 11.79
11/5/2022 4:00:00 PM 16.15 61.07 0.255 8.36 8.4 11.7
11/5/2022 4:15:00 PM 16.11 60.998 0.255 8.36 8.52 11.53
11/5/2022 4:30:00 PM 16.05 60.89 0.256 8.33 9.25 11.33
11/5/2022 4:45:00 PM 16 60.8 0.256 8.31 9.23 11.14
11/5/2022 5:00:00 PM 15.94 60.692 0.258 8.28 8.98 10.99
11/5/2022 5:15:00 PM 15.87 60.566 0.259 8.24 8.74 10.73
11/5/2022 5:30:00 PM 15.78 60.404 0.26 8.19 9.09 10.48
11/5/2022 5:45:00 PM 15.7 60.26 0.26 8.13 9.15 10.32
11/5/2022 6:00:00 PM 15.63 60.134 0.26 8.08 9.82 10.13
11/5/2022 6:15:00 PM 15.55 59.99 0.259 8.02 9.15 9.93
11/5/2022 6:30:00 PM 15.48 59.864 0.259 7.94 9.81 9.8
11/5/2022 6:45:00 PM 15.4 59.72 0.259 7.88 25.11 9.67
11/5/2022 7:00:00 PM 15.33 59.594 0.26 7.82 11.47 9.56
11/5/2022 7:15:00 PM 15.26 59.468 0.261 7.78 10.58 9.5
11/5/2022 7:30:00 PM 15.19 59.342 0.262 7.72 11.6 9.39
11/5/2022 7:45:00 PM 15.12 59.216 0.262 7.68 22.41 9.36
11/5/2022 8:00:00 PM 15.07 59.126 0.262 7.63 11.56 9.29
11/5/2022 8:15:00 PM 15.01 59.018 0.261 7.59 11.28 9.25
11/5/2022 8:30:00 PM 14.96 58.928 0.261 7.56 11.38 9.23
11/5/2022 8:45:00 PM 14.9 58.82 0.26 7.52 11.29 9.16
11/5/2022 9:00:00 PM 14.86 58.748 0.26 7.5 11.56 9.16
11/5/2022 9:15:00 PM 14.81 58.658 0.259 7.48 11.19 9.15
11/5/2022 9:30:00 PM 14.76 58.568 0.259 7.45 11.2 9.13
11/5/2022 9:45:00 PM 14.74 58.532 0.26 7.42 11.44 9.07
11/5/2022 10:00:00 PM 14.71 58.478 0.261 7.41 11.91 9.07
11/5/2022 10:15:00 PM 14.69 58.442 0.261 7.39 10.81 9.07
11/5/2022 10:30:00 PM 14.67 58.406 0.261 7.38 10.59 9.05
11/5/2022 10:45:00 PM 14.66 58.388 0.26 7.36 9.83 9.05
11/5/2022 11:00:00 PM 14.64 58.352 0.26 7.35 10.51 9.04
11/5/2022 11:15:00 PM 14.6 58.28 0.259 7.34 15.51 9.05
11/5/2022 11:30:00 PM 14.59 58.262 0.258 7.32 15.74 9.04
11/5/2022 11:45:00 PM 14.58 58.244 0.258 7.33 11.68 9.04
11/6/2022 12:00:00 AM 14.57 58.226 0.26 7.3 10.07 9.02
11/6/2022 12:15:00 AM 14.56 58.208 0.26 7.31 11.28 9.01
11/6/2022 12:30:00 AM 14.54 58.172 0.26 7.29 15.06 9.01
11/6/2022 12:45:00 AM 14.53 58.154 0.26 7.28 11.87 8.99
11/6/2022 1:00:00 AM 14.52 58.136 0.259 7.29 12.08 8.99
11/6/2022 1:15:00 AM 14.51 58.118 0.258 7.27 10.06 8.98
11/6/2022 1:30:00 AM 14.52 58.136 0.258 7.26 9.58 8.97
11/6/2022 1:45:00 AM 14.52 58.136 0.257 7.24 11.07 8.96
11/6/2022 2:00:00 AM 14.51 58.118 0.256 7.24 10.85 8.98
11/6/2022 2:15:00 AM 14.51 58.118 0.257 7.23 10.83 8.96
11/6/2022 2:30:00 AM 14.52 58.136 0.258 7.23 10.25 8.95
11/6/2022 2:45:00 AM 14.51 58.118 0.259 7.23 10.31 8.96
11/6/2022 3:00:00 AM 14.55 58.19 0.259 7.23 10.01 8.93
11/6/2022 3:15:00 AM 14.54 58.172 0.259 7.23 11.24 8.94
11/6/2022 3:30:00 AM 14.53 58.154 0.258 7.23 11.02 8.94
11/6/2022 3:45:00 AM 14.51 58.118 0.258 7.23 15.06 8.94
11/6/2022 4:00:00 AM 14.53 58.154 0.258 7.22 11.69 8.94
11/6/2022 4:15:00 AM 14.55 58.19 0.258 7.22 11.91 8.92
11/6/2022 4:30:00 AM 14.57 58.226 0.258 7.21 12.48 8.92
11/6/2022 4:45:00 AM 14.58 58.244 0.257 7.22 10.63 8.92
11/6/2022 5:00:00 AM 14.57 58.226 0.257 7.22 11.54 8.94
11/6/2022 5:15:00 AM 14.59 58.262 0.256 7.22 11.19 8.91
11/6/2022 5:30:00 AM 14.59 58.262 0.255 7.21 11.57 8.91
11/6/2022 5:45:00 AM 14.58 58.244 0.255 7.21 10.57 8.91
11/6/2022 6:00:00 AM 14.62 58.316 0.254 7.21 10.84 8.91
11/6/2022 6:15:00 AM 14.66 58.388 0.255 7.22 11.58 8.91
11/6/2022 6:30:00 AM 14.66 58.388 0.256 7.21 11.55 8.89
11/6/2022 6:45:00 AM 14.69 58.442 0.257 7.22 11.6 8.89
11/6/2022 7:00:00 AM 14.71 58.478 0.256 7.21 12.81 8.87
11/6/2022 7:15:00 AM 14.77 58.586 0.254 7.22 21.36 8.93
11/6/2022 7:30:00 AM 14.81 58.658 0.253 7.22 11.05 8.91
11/6/2022 7:45:00 AM 14.82 58.676 0.252 7.21 12.72 8.97
11/6/2022 8:00:00 AM 14.84 58.712 0.252 7.22 11.46 9.07
11/6/2022 8:15:00 AM 14.88 58.784 0.252 7.23 11.16 9.15
11/6/2022 8:30:00 AM 14.91 58.838 0.253 7.24 11.39 9.3
11/6/2022 8:45:00 AM 14.98 58.964 0.254 7.26 12.21 9.44
11/6/2022 9:00:00 AM 15.05 59.09 0.254 7.28 13.04 9.66
11/6/2022 9:15:00 AM 15.12 59.216 0.253 7.3 13.08 9.9
11/6/2022 9:30:00 AM 15.18 59.324 0.253 7.34 13.24 10.1
11/6/2022 9:45:00 AM 15.25 59.45 0.253 7.37 11.47 10.35
11/6/2022 10:00:00 AM 15.35 59.63 0.252 7.4 12.43 10.65
11/6/2022 10:15:00 AM 15.43 59.774 0.252 7.44 14.66 10.73
11/6/2022 10:30:00 AM 15.49 59.882 0.252 7.49 14.24 10.82
11/6/2022 10:45:00 AM 15.55 59.99 0.252 7.52 14.43 10.87
11/6/2022 11:00:00 AM 15.65 60.17 0.253 7.55 9.65 10.98
11/6/2022 11:15:00 AM 15.74 60.332 0.254 7.61 10.68 11.12
11/6/2022 11:30:00 AM 15.89 60.602 0.253 7.66 14.48 11.28
11/6/2022 11:45:00 AM 15.99 60.782 0.253 7.72 10.61 11.41
11/6/2022 12:00:00 PM 16.06 60.908 0.253 7.77 14.16 11.42
11/6/2022 12:15:00 PM 16.14 61.052 0.253 7.83 11.98 11.42
11/6/2022 12:30:00 PM 16.19 61.142 0.253 7.87 11.07 11.4
11/6/2022 12:45:00 PM 16.26 61.268 0.253 7.91 10.66 11.39
11/6/2022 1:00:00 PM 16.33 61.394 0.254 7.95 10.14 11.34
11/6/2022 1:15:00 PM 16.36 61.448 0.255 7.97 10.19 11.28
11/6/2022 1:30:00 PM 16.41 61.538 0.255 8 10.31 11.17
11/6/2022 1:45:00 PM 16.43 61.574 0.254 8.02 10.82 11.12
11/6/2022 2:00:00 PM 16.46 61.628 0.254 8.03 10.97 11.09
11/6/2022 2:15:00 PM 16.48 61.664 0.253 8.05 10.71 11.09
11/6/2022 2:30:00 PM 16.53 61.754 0.253 8.06 11.43 11.16
11/6/2022 2:45:00 PM 16.53 61.754 0.253 8.07 10.6 11.1
11/6/2022 3:00:00 PM 16.55 61.79 0.253 8.08 10.67 11.08
11/6/2022 3:15:00 PM 16.54 61.772 0.253 8.08 11.26 10.97
11/6/2022 3:30:00 PM 16.52 61.736 0.253 8.07 12 10.8
11/6/2022 3:45:00 PM 16.5 61.7 0.254 8.05 10.44 10.66
11/6/2022 4:00:00 PM 16.5 61.7 0.255 8.03 9.58 10.53
11/6/2022 4:15:00 PM 16.48 61.664 0.255 8 10.74 10.38
11/6/2022 4:30:00 PM 16.45 61.61 0.255 7.96 9.43 10.19
11/6/2022 4:45:00 PM 16.41 61.538 0.255 7.92 9.53 10.03
11/6/2022 5:00:00 PM 16.35 61.43 0.255 7.87 9.71 9.84
11/6/2022 5:15:00 PM 16.3 61.34 0.254 7.82 11.11 9.67
11/6/2022 5:30:00 PM 16.23 61.214 0.254 7.77 10.35 9.54
11/6/2022 5:45:00 PM 16.18 61.124 0.255 7.72 11.06 9.41
11/6/2022 6:00:00 PM 16.15 61.07 0.256 7.67 10.76 9.25
11/6/2022 6:15:00 PM 16.04 60.872 0.257 7.63 10.97 9.16
11/6/2022 6:30:00 PM 16.02 60.836 0.257 7.58 11.01 9.09
11/6/2022 6:45:00 PM 15.94 60.692 0.257 7.54 11.82 9.04
11/6/2022 7:00:00 PM 15.89 60.602 0.257 7.51 11.62 8.98
11/6/2022 7:15:00 PM 15.85 60.53 0.257 7.48 11.88 8.92
11/6/2022 7:30:00 PM 15.79 60.422 0.256 7.45 12.27 8.89
11/6/2022 7:45:00 PM 15.75 60.35 0.256 7.43 11.6 8.86
11/6/2022 8:00:00 PM 15.64 60.152 0.255 7.39 12.73 8.85
11/6/2022 8:15:00 PM 15.65 60.17 0.255 7.38 11.89 8.8
11/6/2022 8:30:00 PM 15.6 60.08 0.256 7.36 11.77 8.81
11/6/2022 8:45:00 PM 15.56 60.008 0.256 7.34 11.38 8.79
11/6/2022 9:00:00 PM 15.52 59.936 0.257 7.32 11.94 8.77
11/6/2022 9:15:00 PM 15.47 59.846 0.256 7.3 12.56 8.79
11/6/2022 9:30:00 PM 15.47 59.846 0.256 7.3 11.39 8.78
11/6/2022 9:45:00 PM 15.42 59.756 0.256 7.28 11.99 8.79
11/6/2022 10:00:00 PM 15.38 59.684 0.256 7.27 12.08 8.77
11/6/2022 10:15:00 PM 15.32 59.576 0.255 7.25 12.02 8.77
11/6/2022 10:30:00 PM 15.36 59.648 0.255 7.25 12.39 8.77
11/6/2022 10:45:00 PM 15.3 59.54 0.255 7.24 10.94 8.78
11/6/2022 11:00:00 PM 15.26 59.468 0.256 7.24 12.31 8.78
11/6/2022 11:15:00 PM 15.26 59.468 0.256 7.23 11.89 8.77
11/6/2022 11:30:00 PM 15.24 59.432 0.256 7.23 12.81 8.77
11/6/2022 11:45:00 PM 15.2 59.36 0.256 7.22 11.45 8.79
11/7/2022 12:00:00 AM 15.17 59.306 0.255 7.23 11.7 8.78
11/7/2022 12:15:00 AM 15.15 59.27 0.254 7.22 11.48 8.76
11/7/2022 12:30:00 AM 15.14 59.252 0.253 7.21 11.4 8.78
11/7/2022 12:45:00 AM 15.09 59.162 0.253 7.21 11.08 8.79
11/7/2022 1:00:00 AM 15.05 59.09 0.253 7.2 11.79 8.82
11/7/2022 1:15:00 AM 15.06 59.108 0.253 7.2 10.82 8.81
11/7/2022 1:30:00 AM 15.04 59.072 0.255 7.2 12.79 8.78
11/7/2022 1:45:00 AM 15.02 59.036 0.255 7.2 10.55 8.82
11/7/2022 2:00:00 AM 15.02 59.036 0.255 7.2 11.4 8.8
11/7/2022 2:15:00 AM 15.01 59.018 0.255 7.2 12.33 8.77
11/7/2022 2:30:00 AM 15.01 59.018 0.255 7.21 11.45 8.79
11/7/2022 2:45:00 AM 15.02 59.036 0.255 7.2 11.16 8.79
11/7/2022 3:00:00 AM 15.03 59.054 0.254 7.2 11.26 8.79
11/7/2022 3:15:00 AM 14.97 58.946 0.254 7.2 11.39 8.8
11/7/2022 3:30:00 AM 14.97 58.946 0.254 7.2 12.4 8.81
11/7/2022 3:45:00 AM 14.95 58.91 0.255 7.19 11.88 8.8
11/7/2022 4:00:00 AM 14.89 58.802 0.255 7.18 11.47 8.79
11/7/2022 4:15:00 AM 14.95 58.91 0.256 7.18 11.88 8.79
11/7/2022 4:30:00 AM 14.98 58.964 0.255 7.17 12.61 8.79
11/7/2022 4:45:00 AM 14.91 58.838 0.255 7.17 12.27 8.77
11/7/2022 5:00:00 AM 14.91 58.838 0.254 7.17 13.79 8.78
11/7/2022 5:15:00 AM 14.9 58.82 0.255 7.17 12.15 8.79
11/7/2022 5:30:00 AM 14.83 58.694 0.253 7.17 13.82 8.82
11/7/2022 5:45:00 AM 14.79 58.622 0.253 7.17 14.96 8.8
11/7/2022 6:00:00 AM 14.75 58.55 0.253 7.17 14.21 8.82
11/7/2022 6:15:00 AM 14.73 58.514 0.254 7.17 14.35 8.83
11/7/2022 6:30:00 AM 14.7 58.46 0.255 7.15 13.81 8.83
11/7/2022 6:45:00 AM 14.66 58.388 0.255 7.15 13.67 8.83
11/7/2022 7:00:00 AM 14.67 58.406 0.255 7.17 13.33 8.86
11/7/2022 7:15:00 AM 14.57 58.226 0.255 7.16 12.44 8.89
11/7/2022 7:30:00 AM 14.54 58.172 0.254 7.16 11.81 8.96
11/7/2022 7:45:00 AM 14.54 58.172 0.253 7.16 12.49 9.03
11/7/2022 8:00:00 AM 14.51 58.118 0.252 7.18 13.25 9.16
11/7/2022 8:15:00 AM 14.52 58.136 0.252 7.2 12.68 9.29
11/7/2022 8:30:00 AM 14.56 58.208 0.254 7.22 12.31 9.48
11/7/2022 8:45:00 AM 14.66 58.388 0.254 7.24 12.54 9.67
11/7/2022 9:00:00 AM 14.69 58.442 0.254 7.27 12.57 9.89
11/7/2022 9:15:00 AM 14.79 58.622 0.253 7.3 12.69 10.08
11/7/2022 9:30:00 AM 14.86 58.748 0.253 7.35 13.42 10.28
11/7/2022 9:45:00 AM 14.91 58.838 0.252 7.39 14.34 10.54
11/7/2022 10:00:00 AM 15.07 59.126 0.251 7.45 15.95 10.67
11/7/2022 10:15:00 AM 15.12 59.216 0.251 7.48 11.01 10.81
11/7/2022 10:30:00 AM 15.26 59.468 0.251 7.54 11.78 10.92
11/7/2022 10:45:00 AM 15.38 59.684 0.251 7.58 11.63 11.06
11/7/2022 11:00:00 AM 15.53 59.954 0.251 7.62 11.97 11.16
11/7/2022 11:15:00 AM 15.68 60.224 0.252 7.67 11.26 11.29
11/7/2022 11:30:00 AM 15.82 60.476 0.251 7.71 10.82 11.38
11/7/2022 11:45:00 AM 16.01 60.818 0.251 7.78 13.38 11.48
11/7/2022 12:00:00 PM 16.13 61.034 0.25 7.84 9.86 11.53
11/7/2022 12:15:00 PM 16.28 61.304 0.249 7.88 6.94 11.58
11/7/2022 12:30:00 PM 16.41 61.538 0.249 7.93 10.44 11.63
11/7/2022 12:45:00 PM 16.49 61.682 0.249 7.97 8.52 11.63
11/7/2022 1:00:00 PM 16.57 61.826 0.249 8.01 9.43 11.64
11/7/2022 1:15:00 PM 16.63 61.934 0.25 8.04 10.28 11.61
11/7/2022 1:30:00 PM 16.7 62.06 0.251 8.07 10.51 11.59
11/7/2022 1:45:00 PM 16.72 62.096 0.252 8.1 10.5 11.52
11/7/2022 2:00:00 PM 16.75 62.15 0.251 8.13 11.54 11.49
11/7/2022 2:15:00 PM 16.73 62.114 0.25 8.14 8.4 11.44
11/7/2022 2:30:00 PM 16.73 62.114 0.25 8.16 8.54 11.35
11/7/2022 2:45:00 PM 16.71 62.078 0.25 8.16 8.61 11.27
11/7/2022 3:00:00 PM 16.62 61.916 0.249 8.17 8.32 11.14
11/7/2022 3:15:00 PM 16.52 61.736 0.249 8.15 8.6 11.01
11/7/2022 3:30:00 PM 16.43 61.574 0.249 8.13 9.57 10.88
11/7/2022 3:45:00 PM 16.29 61.322 0.25 8.1 8.34 10.65
11/7/2022 4:00:00 PM 16.18 61.124 0.252 8.06 9.18 10.44
11/7/2022 4:15:00 PM 16.07 60.926 0.253 8.01 15.19 10.31
11/7/2022 4:30:00 PM 15.93 60.674 0.253 7.97 6.36 10.15
11/7/2022 4:45:00 PM 15.82 60.476 0.253 7.92 7.6 10.03
11/7/2022 5:00:00 PM 15.73 60.314 0.241 7.86 7.19 9.88
11/7/2022 5:15:00 PM 15.61 60.098 0.252 7.81 7.51 9.75
11/7/2022 5:30:00 PM 15.46 59.828 0.252 7.76 7.86 9.62
11/7/2022 5:45:00 PM 15.3 59.54 0.252 7.71 7.91 9.53
11/7/2022 6:00:00 PM 15.14 59.252 0.253 7.66 8.13 9.44
11/7/2022 6:15:00 PM 15 59 0.255 7.62 10.47 9.38
11/7/2022 6:30:00 PM 14.93 58.874 0.255 7.58 9.64 9.32
11/7/2022 6:45:00 PM 14.8 58.64 0.256 7.54 9.35 9.34
11/7/2022 7:00:00 PM 14.65 58.37 0.255 7.5 8.73 9.28
11/7/2022 7:15:00 PM 14.52 58.136 0.255 7.48 9.15 9.24
11/7/2022 7:30:00 PM 14.42 57.956 0.254 7.45 9.33 9.22
11/7/2022 7:45:00 PM 14.24 57.632 0.253 7.43 8.45 9.25
11/7/2022 8:00:00 PM 14.14 57.452 0.253 7.41 8.49 9.23
11/7/2022 8:15:00 PM 14.01 57.218 0.252 7.38 9.46 9.2
11/7/2022 8:30:00 PM 13.95 57.11 0.253 7.37 10.03 9.22
11/7/2022 8:45:00 PM 13.82 56.876 0.254 7.36 11.36 9.23
11/7/2022 9:00:00 PM 13.72 56.696 0.254 7.33 8.34 9.23
11/7/2022 9:15:00 PM 13.67 56.606 0.254 7.32 19.3 9.24
11/7/2022 9:30:00 PM 13.66 56.588 0.254 7.31 12.21 9.23
11/7/2022 9:45:00 PM 13.58 56.444 0.253 7.3 9.46 9.24
11/7/2022 10:00:00 PM 13.54 56.372 0.253 7.3 8.72 9.23
11/7/2022 10:15:00 PM 13.43 56.174 0.252 7.3 9.11 9.26
11/7/2022 10:30:00 PM 13.39 56.102 0.252 7.29 10.91 9.27
11/7/2022 10:45:00 PM 13.4 56.12 0.252 7.28 8.48 9.26
11/7/2022 11:00:00 PM 13.33 55.994 0.253 7.27 8.19 9.26
11/7/2022 11:15:00 PM 13.32 55.976 0.253 7.27 9.71 9.28
11/7/2022 11:30:00 PM 13.27 55.886 0.254 7.26 10.32 9.3
11/7/2022 11:45:00 PM 13.22 55.796 0.253 7.26 9.53 9.31
11/8/2022 12:00:00 AM 13.21 55.778 0.252 7.25 9.03 9.31
11/8/2022 12:15:00 AM 13.15 55.67 0.251 7.26 9.78 9.33
11/8/2022 12:30:00 AM 13.1 55.58 0.251 7.25 8.3 9.33
11/8/2022 12:45:00 AM 13.05 55.49 0.251 7.25 8.1 9.36
11/8/2022 1:00:00 AM 13.02 55.436 0.251 7.25 8.47 9.36
11/8/2022 1:15:00 AM 13 55.4 0.251 7.24 8.17 9.38
11/8/2022 1:30:00 AM 12.93 55.274 0.252 7.24 8.27 9.38
11/8/2022 1:45:00 AM 12.85 55.13 0.253 7.24 8 9.39
11/8/2022 2:00:00 AM 12.87 55.166 0.253 7.23 7.85 9.41
11/8/2022 2:15:00 AM 12.79 55.022 0.253 7.24 8.27 9.43
11/8/2022 2:30:00 AM 12.8 55.04 0.252 7.25 7.97 9.41
11/8/2022 2:45:00 AM 12.76 54.968 0.252 7.24 8.09 9.42
11/8/2022 3:00:00 AM 12.7 54.86 0.252 7.24 7.94 9.45
11/8/2022 3:15:00 AM 12.65 54.77 0.251 7.24 8.56 9.48
11/8/2022 3:30:00 AM 12.69 54.842 0.251 7.24 9.09 9.47
11/8/2022 3:45:00 AM 12.63 54.734 0.252 7.24 8.29 9.5
11/8/2022 4:00:00 AM 12.6 54.68 0.253 7.24 8.09 9.49
11/8/2022 4:15:00 AM 12.55 54.59 0.253 7.25 9.37 9.51
11/8/2022 4:30:00 AM 12.55 54.59 0.253 7.26 9.04 9.51
11/8/2022 4:45:00 AM 12.51 54.518 0.253 7.25 9.69 9.52
11/8/2022 5:00:00 AM 12.5 54.5 0.252 7.24 8.97 9.54
11/8/2022 5:15:00 AM 12.43 54.374 0.251 7.24 8.15 9.54
11/8/2022 5:30:00 AM 12.39 54.302 0.251 7.24 8.12 9.55
11/8/2022 5:45:00 AM 12.34 54.212 0.251 7.24 8.08 9.56
11/8/2022 6:00:00 AM 12.29 54.122 0.251 7.25 7.89 9.57
11/8/2022 6:15:00 AM 12.26 54.068 0.252 7.24 9.58 9.6
11/8/2022 6:30:00 AM 12.21 53.978 0.253 7.25 9.57 9.6
11/8/2022 6:45:00 AM 12.17 53.906 0.253 7.26 9.1 9.62
11/8/2022 7:00:00 AM 12.1 53.78 0.253 7.25 12.79 9.65
11/8/2022 7:15:00 AM 12.06 53.708 0.253 7.24 12.33 9.7
11/8/2022 7:30:00 AM 12.02 53.636 0.253 7.24 12.88 9.75
11/8/2022 7:45:00 AM 12.01 53.618 0.252 7.24 12.77 9.84
11/8/2022 8:00:00 AM 11.99 53.582 0.252 7.26 10.61 9.97
11/8/2022 8:15:00 AM 12.02 53.636 0.251 7.27 10.62 10.12
11/8/2022 8:30:00 AM 12.01 53.618 0.252 7.3 10.06 10.32
11/8/2022 8:45:00 AM 12.04 53.672 0.253 7.32 11.06 10.55
11/8/2022 9:00:00 AM 12.07 53.726 0.253 7.34 10.35 10.74
11/8/2022 9:15:00 AM 12.13 53.834 0.252 7.37 7.85 10.96
11/8/2022 9:30:00 AM 12.2 53.96 0.251 7.41 6.21 11.16
11/8/2022 9:45:00 AM 12.28 54.104 0.251 7.46 4.96 11.35
11/8/2022 10:00:00 AM 12.36 54.248 0.251 7.5 5.83 11.51
11/8/2022 10:15:00 AM 12.46 54.428 0.25 7.54 14.33 11.63
11/8/2022 10:30:00 AM 12.55 54.59 0.25 7.58 5.87 11.77
11/8/2022 10:45:00 AM 12.65 54.77 0.25 7.63 6.75 11.89
11/8/2022 11:00:00 AM 12.77 54.986 0.25 7.67 6.61 11.97
11/8/2022 11:15:00 AM 12.9 55.22 0.251 7.7 4.87 12.05
11/8/2022 11:30:00 AM 13.03 55.454 0.251 7.76 5.36 12.21
11/8/2022 11:45:00 AM 13.17 55.706 0.251 7.81 5.7 12.28
11/8/2022 12:00:00 PM 13.29 55.922 0.25 7.86 5.3 12.33
11/8/2022 12:15:00 PM 13.43 56.174 0.25 7.9 5.48 12.39
11/8/2022 12:30:00 PM 13.54 56.372 0.249 7.94 5.45 12.42
11/8/2022 12:45:00 PM 13.66 56.588 0.249 7.98 5.48 12.44
11/8/2022 1:00:00 PM 13.75 56.75 0.249 8.01 6.27 12.39
11/8/2022 1:15:00 PM 13.82 56.876 0.25 8.04 5.31 12.37
11/8/2022 1:30:00 PM 13.86 56.948 0.251 8.08 5.67 12.36
11/8/2022 1:45:00 PM 13.92 57.056 0.252 8.11 5.52 12.31
11/8/2022 2:00:00 PM 13.93 57.074 0.251 8.14 6.09 12.33
11/8/2022 2:15:00 PM 13.96 57.128 0.251 8.16 5.21 12.23
11/8/2022 2:30:00 PM 13.97 57.146 0.251 8.18 5.62 12.15
11/8/2022 2:45:00 PM 13.96 57.128 0.25 8.19 6.32 12.09
11/8/2022 3:00:00 PM 13.91 57.038 0.25 8.2 5.37 12
11/8/2022 3:15:00 PM 13.85 56.93 0.25 8.19 7.12 11.9
11/8/2022 3:30:00 PM 13.77 56.786 0.25 8.19 5.78 11.7
11/8/2022 3:45:00 PM 13.67 56.606 0.251 8.16 5.81 11.56
11/8/2022 4:00:00 PM 13.56 56.408 0.252 8.14 5.08 11.41
11/8/2022 4:15:00 PM 13.45 56.21 0.253 8.1 5.4 11.16
11/8/2022 4:30:00 PM 13.35 56.03 0.254 8.07 5.21 10.97
11/8/2022 4:45:00 PM 13.26 55.868 0.254 8.02 4.58 10.83
11/8/2022 5:00:00 PM 13.17 55.706 0.254 7.97 4.98 10.71
11/8/2022 5:15:00 PM 13.07 55.526 0.253 7.92 3.97 10.57
11/8/2022 5:30:00 PM 12.98 55.364 0.253 7.88 4.28 10.46
11/8/2022 5:45:00 PM 12.89 55.202 0.253 7.83 4.35 10.31
11/8/2022 6:00:00 PM 12.79 55.022 0.253 7.79 6.43 10.25
11/8/2022 6:15:00 PM 12.7 54.86 0.255 7.74 5.29 10.22
11/8/2022 6:30:00 PM 12.59 54.662 0.255 7.69 5.02 10.15
11/8/2022 6:45:00 PM 12.49 54.482 0.256 7.66 4.57 10.17
11/8/2022 7:00:00 PM 12.38 54.284 0.255 7.62 9.45 10.12
11/8/2022 7:15:00 PM 12.29 54.122 0.254 7.59 7.09 10.08
11/8/2022 7:30:00 PM 12.2 53.96 0.254 7.55 8.32 10.05
11/8/2022 7:45:00 PM 12.1 53.78 0.253 7.51 9.24 10.01
11/8/2022 8:00:00 PM 12.01 53.618 0.253 7.5 7.39 10
11/8/2022 8:15:00 PM 11.93 53.474 0.253 7.48 7.38 9.98
11/8/2022 8:30:00 PM 11.84 53.312 0.253 7.45 7.33 9.98
11/8/2022 8:45:00 PM 11.75 53.15 0.254 7.42 6.37 9.98
11/8/2022 9:00:00 PM 11.66 52.988 0.255 7.4 6.99 9.97
11/8/2022 9:15:00 PM 11.59 52.862 0.255 7.38 6.2 9.96
11/8/2022 9:30:00 PM 11.52 52.736 0.254 7.37 7.07 9.99
11/8/2022 9:45:00 PM 11.45 52.61 0.254 7.36 6.37 9.97
11/8/2022 10:00:00 PM 11.39 52.502 0.253 7.34 7.37 10
11/8/2022 10:15:00 PM 11.32 52.376 0.252 7.34 6.84 10.01
11/8/2022 10:30:00 PM 11.27 52.286 0.252 7.32 7.42 10.02
11/8/2022 10:45:00 PM 11.22 52.196 0.252 7.31 9.24 10.03
11/8/2022 11:00:00 PM 11.16 52.088 0.253 7.31 7.65 10.04
11/8/2022 11:15:00 PM 11.1 51.98 0.254 7.3 8.67 10.07
11/8/2022 11:30:00 PM 11.05 51.89 0.253 7.3 8.34 10.09
11/8/2022 11:45:00 PM 11 51.8 0.253 7.29 8.09 10.06
11/9/2022 12:00:00 AM 10.94 51.692 0.252 7.29 6.65 10.08
11/9/2022 12:15:00 AM 10.92 51.656 0.251 7.29 8.4 10.11
11/9/2022 12:30:00 AM 10.87 51.566 0.251 7.27 8.2 10.09
11/9/2022 12:45:00 AM 10.83 51.494 0.25 7.27 8.56 10.15
11/9/2022 1:00:00 AM 10.8 51.44 0.25 7.27 7.22 10.16
11/9/2022 1:15:00 AM 10.77 51.386 0.25 7.26 7.4 10.15
11/9/2022 1:30:00 AM 10.72 51.296 0.251 7.26 10.1 10.18
11/9/2022 1:45:00 AM 10.66 51.188 0.252 7.25 7.92 10.19
11/9/2022 2:00:00 AM 10.64 51.152 0.252 7.25 9.42 10.18
11/9/2022 2:15:00 AM 10.59 51.062 0.252 7.24 9.55 10.15
11/9/2022 2:30:00 AM 10.56 51.008 0.252 7.25 8.18 10.15
11/9/2022 2:45:00 AM 10.53 50.954 0.251 7.25 11.33 10.15
11/9/2022 3:00:00 AM 10.51 50.918 0.251 7.24 13.94 10.17
11/9/2022 3:15:00 AM 10.49 50.882 0.25 7.23 8.41 10.18
11/9/2022 3:30:00 AM 10.46 50.828 0.25 7.23 9.21 10.18
11/9/2022 3:45:00 AM 10.42 50.756 0.251 7.23 8.57 10.19
11/9/2022 4:00:00 AM 10.37 50.666 0.252 7.24 8.23 10.22
11/9/2022 4:15:00 AM 10.33 50.594 0.252 7.23 8.86 10.22
11/9/2022 4:30:00 AM 10.3 50.54 0.252 7.24 8.61 10.25
11/9/2022 4:45:00 AM 10.25 50.45 0.252 7.23 9.27 10.29
11/9/2022 5:00:00 AM 10.23 50.414 0.251 7.23 10.3 10.26
11/9/2022 5:15:00 AM 10.2 50.36 0.25 7.24 10.15 10.27
11/9/2022 5:30:00 AM 10.15 50.27 0.25 7.22 10.97 10.29
11/9/2022 5:45:00 AM 10.15 50.27 0.25 7.23 9.84 10.27
11/9/2022 6:00:00 AM 10.12 50.216 0.25 7.23 8.98 10.33
11/9/2022 6:15:00 AM 10.06 50.108 0.251 7.23 9.96 10.36
11/9/2022 6:30:00 AM 10.02 50.036 0.252 7.22 9.35 10.38
11/9/2022 6:45:00 AM 9.95 49.91 0.252 7.23 11 10.4
11/9/2022 7:00:00 AM 9.91 49.838 0.252 7.23 9.81 10.42
11/9/2022 7:15:00 AM 9.89 49.802 0.252 7.24 9.82 10.46
11/9/2022 7:30:00 AM 9.87 49.766 0.251 7.23 7.63 10.52
11/9/2022 7:45:00 AM 9.86 49.748 0.251 7.23 6.88 10.59
11/9/2022 8:00:00 AM 9.83 49.694 0.25 7.25 9.44 10.7
11/9/2022 8:15:00 AM 9.85 49.73 0.25 7.25 8.56 10.86
11/9/2022 8:30:00 AM 9.92 49.856 0.251 7.27 9.36 11
11/9/2022 8:45:00 AM 9.97 49.946 0.251 7.29 8.3 11.2
11/9/2022 9:00:00 AM 10.03 50.054 0.251 7.31 8.19 11.38
11/9/2022 9:15:00 AM 10.08 50.144 0.251 7.35 8.14 11.59
11/9/2022 9:30:00 AM 10.2 50.36 0.25 7.38 10.78 11.8
11/9/2022 9:45:00 AM 10.35 50.63 0.249 7.4 8.97 11.95
11/9/2022 10:00:00 AM 10.44 50.792 0.249 7.46 7.91 12.09
11/9/2022 10:15:00 AM 10.62 51.116 0.249 7.49 7.08 12.18
11/9/2022 10:30:00 AM 10.77 51.386 0.248 7.54 7.85 12.31
11/9/2022 10:45:00 AM 10.87 51.566 0.248 7.58 8.1 12.33
11/9/2022 11:00:00 AM 11.1 51.98 0.248 7.61 6.98 12.45
11/9/2022 11:15:00 AM 11.23 52.214 0.249 7.65 8.41 12.59
11/9/2022 11:30:00 AM 11.42 52.556 0.25 7.7 7.75 12.61
11/9/2022 11:45:00 AM 11.61 52.898 0.249 7.74 7.19 12.74
11/9/2022 12:00:00 PM 11.78 53.204 0.249 7.78 8.04 12.79
11/9/2022 12:15:00 PM 11.97 53.546 0.248 7.83 6.78 12.81
11/9/2022 12:30:00 PM 12.06 53.708 0.248 7.86 6.68 12.88
11/9/2022 12:45:00 PM 12.31 54.158 0.247 7.9 6.95 12.85
11/9/2022 1:00:00 PM 12.37 54.266 0.248 7.93 6.8 12.85
11/9/2022 1:15:00 PM 12.58 54.644 0.248 7.96 7.76 12.79
11/9/2022 1:30:00 PM 12.62 54.716 0.249 7.98 8.22 12.78
11/9/2022 1:45:00 PM 12.73 54.914 0.25 8.01 7.95 12.71
11/9/2022 2:00:00 PM 12.65 54.77 0.25 8.03 7.31 12.73
11/9/2022 2:15:00 PM 12.74 54.932 0.249 8.05 7.35 12.65
11/9/2022 2:30:00 PM 12.68 54.824 0.249 8.07 7.98 12.57
11/9/2022 2:45:00 PM 12.77 54.986 0.248 8.09 10.09 12.47
11/9/2022 3:00:00 PM 12.75 54.95 0.248 8.09 8.56 12.38
11/9/2022 3:15:00 PM 12.66 54.788 0.248 8.1 8.2 12.24
11/9/2022 3:30:00 PM 12.58 54.644 0.249 8.09 8.54 12.08
11/9/2022 3:45:00 PM 12.53 54.554 0.249 8.08 9.01 11.91
11/9/2022 4:00:00 PM 12.34 54.212 0.251 8.06 7.45 11.8
11/9/2022 4:15:00 PM 12.26 54.068 0.252 8.04 8.59 11.67
11/9/2022 4:30:00 PM 12.17 53.906 0.251 8 11.65 11.48
11/9/2022 4:45:00 PM 12.12 53.816 0.251 7.97 9.48 11.33
11/9/2022 5:00:00 PM 12.01 53.618 0.251 7.92 9.08 11.2
11/9/2022 5:15:00 PM 11.94 53.492 0.251 7.89 8.69 11.05
11/9/2022 5:30:00 PM 11.84 53.312 0.251 7.85 8.19 10.94
11/9/2022 5:45:00 PM 11.77 53.186 0.251 7.79 8.65 10.81
11/9/2022 6:00:00 PM 11.63 52.934 0.251 7.75 15.49 10.77
11/9/2022 6:15:00 PM 11.53 52.754 0.252 7.71 8.17 10.68
11/9/2022 6:30:00 PM 11.45 52.61 0.253 7.67 8.73 10.63
11/9/2022 6:45:00 PM 11.32 52.376 0.247 7.64 8.96 10.59
11/9/2022 7:00:00 PM 11.25 52.25 0.253 7.61 8.1 10.54
11/9/2022 7:15:00 PM 11.2 52.16 0.253 7.58 8.45 10.51
11/9/2022 7:30:00 PM 11.1 51.98 0.252 7.54 8.89 10.48
11/9/2022 7:45:00 PM 11.03 51.854 0.251 7.52 8.56 10.45
11/9/2022 8:00:00 PM 10.94 51.692 0.251 7.49 8.74 10.44
11/9/2022 8:15:00 PM 10.93 51.674 0.25 7.47 8.13 10.42
11/9/2022 8:30:00 PM 10.86 51.548 0.25 7.44 9.54 10.39
11/9/2022 8:45:00 PM 10.82 51.476 0.252 7.44 10.38 10.4
11/9/2022 9:00:00 PM 10.74 51.332 0.253 7.42 9.32 10.37
11/9/2022 9:15:00 PM 10.65 51.17 0.254 7.41 18.23 10.4
11/9/2022 9:30:00 PM 10.64 51.152 0.253 7.39 10.83 10.39
11/9/2022 9:45:00 PM 10.57 51.026 0.252 7.37 9.89 10.39
11/9/2022 10:00:00 PM 10.45 50.81 0.251 7.35 9.53 10.41
11/9/2022 10:15:00 PM 10.44 50.792 0.251 7.35 9.7 10.4
11/9/2022 10:30:00 PM 10.43 50.774 0.25 7.34 13.15 10.4
11/9/2022 10:45:00 PM 10.37 50.666 0.25 7.32 11.91 10.41
11/9/2022 11:00:00 PM 10.35 50.63 0.252 7.31 9.97 10.4
11/9/2022 11:15:00 PM 10.27 50.486 0.252 7.31 9.82 10.42
11/9/2022 11:30:00 PM 10.22 50.396 0.253 7.29 10.68 10.41
11/9/2022 11:45:00 PM 10.16 50.288 0.252 7.29 10.29 10.44
11/10/2022 12:00:00 AM 10.19 50.342 0.252 7.28 9.52 10.43
11/10/2022 12:15:00 AM 10.14 50.252 0.251 7.27 8.84 10.43
11/10/2022 12:30:00 AM 10.14 50.252 0.25 7.26 9.27 10.43
11/10/2022 12:45:00 AM 10.09 50.162 0.25 7.27 8.71 10.45
11/10/2022 1:00:00 AM 10.11 50.198 0.249 7.27 9.83 10.42
11/10/2022 1:15:00 AM 10.06 50.108 0.25 7.27 9.71 10.44
11/10/2022 1:30:00 AM 10.09 50.162 0.251 7.27 10.35 10.43
11/10/2022 1:45:00 AM 10.07 50.126 0.252 7.27 10.58 10.43
11/10/2022 2:00:00 AM 10.06 50.108 0.252 7.26 9.38 10.42
11/10/2022 2:15:00 AM 10.03 50.054 0.252 7.26 11.66 10.44
11/10/2022 2:30:00 AM 9.98 49.964 0.252 7.25 11.21 10.44
11/10/2022 2:45:00 AM 9.98 49.964 0.251 7.25 11.14 10.44
11/10/2022 3:00:00 AM 10 50 0.25 7.24 11.48 10.44
11/10/2022 3:15:00 AM 9.94 49.892 0.25 7.26 11.67 10.44
11/10/2022 3:30:00 AM 9.95 49.91 0.25 7.24 8.56 10.45
11/10/2022 3:45:00 AM 9.92 49.856 0.251 7.24 10.47 10.44
11/10/2022 4:00:00 AM 9.89 49.802 0.252 7.24 9.98 10.44
11/10/2022 4:15:00 AM 9.83 49.694 0.253 7.24 10.51 10.45
11/10/2022 4:30:00 AM 9.83 49.694 0.253 7.24 10.89 10.46
11/10/2022 4:45:00 AM 9.84 49.712 0.252 7.22 11.06 10.44
11/10/2022 5:00:00 AM 9.8 49.64 0.252 7.22 11.36 10.44
11/10/2022 5:15:00 AM 9.76 49.568 0.251 7.22 10.31 10.46
11/10/2022 5:30:00 AM 9.74 49.532 0.251 7.23 10.64 10.44
11/10/2022 5:45:00 AM 9.76 49.568 0.25 7.21 12.83 10.45
11/10/2022 6:00:00 AM 9.71 49.478 0.25 7.2 12.13 10.46
11/10/2022 6:15:00 AM 9.7 49.46 0.251 7.21 12.29 10.48
11/10/2022 6:30:00 AM 9.71 49.478 0.252 7.21 11.59 10.47
11/10/2022 6:45:00 AM 9.61 49.298 0.253 7.21 11.87 10.49
11/10/2022 7:00:00 AM 9.63 49.334 0.253 7.22 10.94 10.53
11/10/2022 7:15:00 AM 9.61 49.298 0.252 7.22 12.2 10.